Provisional Data: Little Pine Creek near Waterville, PA


Please select a monitoring station.
Please select start date.
Please select start date.

Toggle Unit: C/F Toggle Unit: C/F
Sample Time Temperature (C) Temperature (F) Specific Conductivity (mS/cm) pH   Turbidity (NTU+) DO (mg/L)
1/12/2021 12:00:00 AM 1.36 34.448 0.111 6.98 2.62 13.9
1/12/2021 12:15:00 AM 1.35 34.43 0.111 6.98 2.67 13.9
1/12/2021 12:30:00 AM 1.34 34.412 0.111 6.98 2.66 13.91
1/12/2021 12:45:00 AM 1.32 34.376 0.111 7 2.64 13.92
1/12/2021 1:00:00 AM 1.32 34.376 0.111 6.99 2.61 13.92
1/12/2021 1:15:00 AM 1.31 34.358 0.111 6.99 2.65 13.93
1/12/2021 1:30:00 AM 1.32 34.376 0.111 6.98 2.65 13.93
1/12/2021 1:45:00 AM 1.33 34.394 0.111 7 2.61 13.93
1/12/2021 2:00:00 AM 1.35 34.43 0.111 7.01 2.63 13.92
1/12/2021 2:15:00 AM 1.36 34.448 0.111 7.01 2.65 13.92
1/12/2021 2:30:00 AM 1.36 34.448 0.111 7 2.67 13.91
1/12/2021 2:45:00 AM 1.36 34.448 0.111 7 2.61 13.91
1/12/2021 3:00:00 AM 1.35 34.43 0.111 7 2.6 13.91
1/12/2021 3:15:00 AM 1.34 34.412 0.111 7 2.68 13.91
1/12/2021 3:30:00 AM 1.33 34.394 0.111 7 2.65 13.91
1/12/2021 3:45:00 AM 1.33 34.394 0.111 6.99 2.67 13.91
1/12/2021 4:00:00 AM 1.33 34.394 0.111 7 2.64 13.9
1/12/2021 4:15:00 AM 1.32 34.376 0.111 7.01 2.65 13.91
1/12/2021 4:30:00 AM 1.32 34.376 0.111 6.98 2.69 13.9
1/12/2021 4:45:00 AM 1.33 34.394 0.111 7 2.66 13.9
1/12/2021 5:00:00 AM 1.34 34.412 0.111 6.99 2.7 13.9
1/12/2021 5:15:00 AM 1.35 34.43 0.111 7.01 2.68 13.9
1/12/2021 5:30:00 AM 1.34 34.412 0.111 6.99 2.71 13.9
1/12/2021 5:45:00 AM 1.34 34.412 0.111 7.01 2.73 13.9
1/12/2021 6:00:00 AM 1.34 34.412 0.111 7.01 2.73 13.89
1/12/2021 6:15:00 AM 1.35 34.43 0.111 6.98 2.67 13.89
1/12/2021 6:30:00 AM 1.36 34.448 0.111 7.01 2.76 13.89
1/12/2021 6:45:00 AM 1.37 34.466 0.111 7.01 2.69 13.88
1/12/2021 7:00:00 AM 1.38 34.484 0.111 7.01 2.69 13.87
1/12/2021 7:15:00 AM 1.4 34.52 0.111 7.02 2.67 13.87
1/12/2021 7:30:00 AM 1.42 34.556 0.111 7 2.67 13.87
1/12/2021 7:45:00 AM 1.44 34.592 0.111 7.02 2.78 13.86
1/12/2021 8:00:00 AM 1.46 34.628 0.111 7.01 2.67 13.87
1/12/2021 8:15:00 AM 1.47 34.646 0.112 7.03 2.72 13.88
1/12/2021 8:30:00 AM 1.5 34.7 0.112 7.03 2.71 13.9
1/12/2021 8:45:00 AM 1.53 34.754 0.112 7.03 2.74 13.92
1/12/2021 9:00:00 AM 1.58 34.844 0.112 7.04 2.69 13.94
1/12/2021 9:15:00 AM 1.64 34.952 0.112 7.04 2.73 13.94
1/12/2021 9:30:00 AM 1.68 35.024 0.112 7.06 2.71 13.96
1/12/2021 9:45:00 AM 1.73 35.114 0.112 7.07 2.72 13.96
1/12/2021 10:00:00 AM 1.8 35.24 0.112 7.07 2.69 13.96
1/12/2021 10:15:00 AM 1.85 35.33 0.112 7.07 2.7 13.96
1/12/2021 10:30:00 AM 1.91 35.438 0.112 7.07 2.68 13.97
1/12/2021 10:45:00 AM 1.98 35.564 0.112 7.08 2.67 13.95
1/12/2021 11:00:00 AM 2.07 35.726 0.112 7.09 2.65 13.95
1/12/2021 11:15:00 AM 2.14 35.852 0.112 7.09 2.72 13.94
1/12/2021 11:30:00 AM 2.21 35.978 0.113 7.1 2.65 13.93
1/12/2021 11:45:00 AM 2.26 36.068 0.113 7.1 2.65 13.91
1/12/2021 12:00:00 PM 2.31 36.158 0.113 7.1 2.74 13.9
1/12/2021 12:15:00 PM 2.37 36.266 0.113 7.09 2.63 13.89
1/12/2021 12:30:00 PM 2.43 36.374 0.113 7.11 2.6 13.88
1/12/2021 12:45:00 PM 2.47 36.446 0.113 7.1 2.64 13.85
1/12/2021 1:00:00 PM 2.52 36.536 0.113 7.1 2.67 13.83
1/12/2021 1:15:00 PM 2.55 36.59 0.113 7.09 2.63 13.84
1/12/2021 1:30:00 PM 2.57 36.626 0.113 7.09 2.67 13.82
1/12/2021 1:45:00 PM 2.59 36.662 0.113 7.1 2.64 13.82
1/12/2021 2:00:00 PM 2.61 36.698 0.113 7.09 2.66 13.81
1/12/2021 2:15:00 PM 2.62 36.716 0.113 7.08 2.68 13.79
1/12/2021 2:30:00 PM 2.62 36.716 0.113 7.09 2.61 13.79
1/12/2021 2:45:00 PM 2.61 36.698 0.113 7.08 2.61 13.78
1/12/2021 3:00:00 PM 2.59 36.662 0.113 7.07 2.62 13.77
1/12/2021 3:15:00 PM 2.57 36.626 0.113 7.07 2.58 13.78
1/12/2021 3:30:00 PM 2.54 36.572 0.113 7.07 2.59 13.78
1/12/2021 3:45:00 PM 2.51 36.518 0.113 7.05 2.6 13.77
1/12/2021 4:00:00 PM 2.48 36.464 0.113 7.06 2.61 13.76
1/12/2021 4:15:00 PM 2.44 36.392 0.113 7.06 2.66 13.75
1/12/2021 4:30:00 PM 2.4 36.32 0.113 7.03 2.64 13.72
1/12/2021 4:45:00 PM 2.37 36.266 0.113 7.02 2.64 13.7
1/12/2021 5:00:00 PM 2.33 36.194 0.113 7.03 2.57 13.68
1/12/2021 5:15:00 PM 2.28 36.104 0.113 7.02 2.56 13.68
1/12/2021 5:30:00 PM 2.23 36.014 0.113 6.99 2.6 13.67
1/12/2021 5:45:00 PM 2.19 35.942 0.113 6.99 2.58 13.65
1/12/2021 6:00:00 PM 2.15 35.87 0.113 7 2.56 13.65
1/12/2021 6:15:00 PM 2.11 35.798 0.113 7 2.66 13.66
1/12/2021 6:30:00 PM 2.07 35.726 0.113 7 2.64 13.67
1/12/2021 6:45:00 PM 2.03 35.654 0.113 6.99 2.65 13.67
1/12/2021 7:00:00 PM 2 35.6 0.113 7.01 2.66 13.67
1/12/2021 7:15:00 PM 1.97 35.546 0.113 6.98 2.58 13.68
1/12/2021 7:30:00 PM 1.94 35.492 0.113 7 2.65 13.68
1/12/2021 7:45:00 PM 1.92 35.456 0.113 7.01 2.65 13.69
1/12/2021 8:00:00 PM 1.9 35.42 0.113 7 2.61 13.69
1/12/2021 8:15:00 PM 1.89 35.402 0.113 7 2.7 13.69
1/12/2021 8:30:00 PM 1.87 35.366 0.113 7 2.6 13.7
1/12/2021 8:45:00 PM 1.86 35.348 0.113 7 2.62 13.7
1/12/2021 9:00:00 PM 1.85 35.33 0.113 7 2.63 13.7
1/12/2021 9:15:00 PM 1.84 35.312 0.113 7 2.6 13.71
1/12/2021 9:30:00 PM 1.83 35.294 0.113 7 2.64 13.71
1/12/2021 9:45:00 PM 1.82 35.276 0.113 7.01 2.6 13.71
1/12/2021 10:00:00 PM 1.82 35.276 0.113 7.01 2.6 13.71
1/12/2021 10:15:00 PM 1.81 35.258 0.113 7 2.64 13.71
1/12/2021 10:30:00 PM 1.8 35.24 0.113 7.01 2.66 13.72
1/12/2021 10:45:00 PM 1.8 35.24 0.113 6.99 2.68 13.72
1/12/2021 11:00:00 PM 1.79 35.222 0.113 7 2.58 13.73
1/12/2021 11:15:00 PM 1.79 35.222 0.113 7 2.56 13.72
1/12/2021 11:30:00 PM 1.78 35.204 0.113 7.01 2.62 13.72
1/12/2021 11:45:00 PM 1.78 35.204 0.113 6.99 2.58 13.72
1/13/2021 12:00:00 AM 1.77 35.186 0.113 6.99 2.58 13.73
1/13/2021 12:15:00 AM 1.77 35.186 0.113 7.01 2.63 13.73
1/13/2021 12:30:00 AM 1.77 35.186 0.113 7 2.58 13.73
1/13/2021 12:45:00 AM 1.76 35.168 0.113 7.01 2.61 13.72
1/13/2021 1:00:00 AM 1.76 35.168 0.113 7 2.56 13.72
1/13/2021 1:15:00 AM 1.76 35.168 0.113 7.01 2.63 13.72
1/13/2021 1:30:00 AM 1.75 35.15 0.113 7 2.61 13.73
1/13/2021 1:45:00 AM 1.75 35.15 0.113 7 2.6 13.72
1/13/2021 2:00:00 AM 1.75 35.15 0.113 7 2.59 13.72
1/13/2021 2:15:00 AM 1.75 35.15 0.113 7 2.59 13.72
1/13/2021 2:30:00 AM 1.75 35.15 0.113 7 2.57 13.72
1/13/2021 2:45:00 AM 1.76 35.168 0.113 7.01 2.57 13.71
1/13/2021 3:00:00 AM 1.75 35.15 0.113 7 2.57 13.71
1/13/2021 3:15:00 AM 1.76 35.168 0.113 7.01 2.6 13.71
1/13/2021 3:30:00 AM 1.76 35.168 0.114 7 2.56 13.71
1/13/2021 3:45:00 AM 1.76 35.168 0.114 7 2.66 13.71
1/13/2021 4:00:00 AM 1.75 35.15 0.114 7.01 2.66 13.71
1/13/2021 4:15:00 AM 1.76 35.168 0.114 7 2.62 13.7
1/13/2021 4:30:00 AM 1.76 35.168 0.114 7.01 2.6 13.7
1/13/2021 4:45:00 AM 1.76 35.168 0.114 7 2.61 13.7
1/13/2021 5:00:00 AM 1.77 35.186 0.114 7.01 2.63 13.69
1/13/2021 5:15:00 AM 1.77 35.186 0.114 7.01 2.64 13.69
1/13/2021 5:30:00 AM 1.78 35.204 0.114 7.01 2.61 13.68
1/13/2021 5:45:00 AM 1.79 35.222 0.114 7.02 2.63 13.68
1/13/2021 6:00:00 AM 1.78 35.204 0.114 7.01 2.67 13.68
1/13/2021 6:15:00 AM 1.81 35.258 0.114 7.02 2.61 13.67
1/13/2021 6:30:00 AM 1.82 35.276 0.114 7.02 2.65 13.67
1/13/2021 6:45:00 AM 1.83 35.294 0.114 7.02 2.61 13.66
1/13/2021 7:00:00 AM 1.84 35.312 0.114 7.02 2.67 13.65
1/13/2021 7:15:00 AM 1.85 35.33 0.114 7.03 2.73 13.65
1/13/2021 7:30:00 AM 1.86 35.348 0.115 7 2.84 13.65
1/13/2021 7:45:00 AM 1.87 35.366 0.115 7.03 2.69 13.64
1/13/2021 8:00:00 AM 1.88 35.384 0.115 7.02 2.62 13.65
1/13/2021 8:15:00 AM 1.89 35.402 0.115 7.03 2.64 13.66
1/13/2021 8:30:00 AM 1.91 35.438 0.115 7.03 2.62 13.66
1/13/2021 8:45:00 AM 1.92 35.456 0.115 7.04 2.6 13.67
1/13/2021 9:00:00 AM 1.94 35.492 0.115 7.03 2.62 13.67
1/13/2021 9:15:00 AM 1.95 35.51 0.115 7.03 2.57 13.68
1/13/2021 9:30:00 AM 1.96 35.528 0.115 7.03 2.55 13.69
1/13/2021 9:45:00 AM 1.99 35.582 0.115 7.05 2.52 13.71
1/13/2021 10:00:00 AM 2.02 35.636 0.115 7.05 2.54 13.72
1/13/2021 10:15:00 AM 2.04 35.672 0.115 7.06 2.57 13.73
1/13/2021 10:30:00 AM 2.07 35.726 0.115 7.04 2.56 13.74
1/13/2021 10:45:00 AM 2.1 35.78 0.115 7.06 2.61 13.75
1/13/2021 11:00:00 AM 2.13 35.834 0.115 7.08 2.57 13.75
1/13/2021 11:15:00 AM 2.17 35.906 0.115 7.05 2.55 13.76
1/13/2021 11:30:00 AM 2.21 35.978 0.116 7.08 2.56 13.75
1/13/2021 11:45:00 AM 2.25 36.05 0.116 7.08 2.53 13.76
1/13/2021 12:00:00 PM 2.28 36.104 0.116 7.09 2.59 13.76
1/13/2021 12:15:00 PM 2.3 36.14 0.116 7.08 2.51 13.74
1/13/2021 12:30:00 PM 2.34 36.212 0.116 7.1 2.62 13.74
1/13/2021 12:45:00 PM 2.39 36.302 0.116 7.09 2.59 13.73
1/13/2021 1:00:00 PM 2.48 36.464 0.116 7.1 2.56 13.73
1/13/2021 1:15:00 PM 2.57 36.626 0.116 7.09 2.61 13.73
1/13/2021 1:30:00 PM 2.64 36.752 0.116 7.11 2.58 13.7
1/13/2021 1:45:00 PM 2.69 36.842 0.116 7.11 2.56 13.69
1/13/2021 2:00:00 PM 2.71 36.878 0.116 7.11 2.55 13.68
1/13/2021 2:15:00 PM 2.72 36.896 0.116 7.11 2.54 13.67
1/13/2021 2:30:00 PM 2.75 36.95 0.116 7.11 2.51 13.65
1/13/2021 2:45:00 PM 2.78 37.004 0.116 7.11 2.56 13.64
1/13/2021 3:00:00 PM 2.79 37.022 0.116 7.09 2.59 13.62
1/13/2021 3:15:00 PM 2.79 37.022 0.116 7.11 2.52 13.61
1/13/2021 3:30:00 PM 2.79 37.022 0.116 7.09 2.51 13.6
1/13/2021 3:45:00 PM 2.79 37.022 0.116 7.1 2.52 13.57
1/13/2021 4:00:00 PM 2.78 37.004 0.116 7.09 2.59 13.56
1/13/2021 4:15:00 PM 2.77 36.986 0.116 7.09 2.56 13.54
1/13/2021 4:30:00 PM 2.75 36.95 0.116 7.08 2.52 13.53
1/13/2021 4:45:00 PM 2.72 36.896 0.116 7.08 2.52 13.5
1/13/2021 5:00:00 PM 2.69 36.842 0.116 7.06 2.52 13.47
1/13/2021 5:15:00 PM 2.66 36.788 0.116 7.05 2.58 13.43
1/13/2021 5:30:00 PM 2.62 36.716 0.117 7.05 2.55 13.42
1/13/2021 5:45:00 PM 2.58 36.644 0.117 7.05 2.58 13.41
1/13/2021 6:00:00 PM 2.54 36.572 0.117 7.03 2.52 13.39
1/13/2021 6:15:00 PM 2.5 36.5 0.117 7.03 2.6 13.39
1/13/2021 6:30:00 PM 2.47 36.446 0.117 7.03 2.54 13.39
1/13/2021 6:45:00 PM 2.43 36.374 0.117 7.02 2.54 13.39
1/13/2021 7:00:00 PM 2.4 36.32 0.117 7.02 2.58 13.39
1/13/2021 7:15:00 PM 2.37 36.266 0.117 7.01 2.51 13.4
1/13/2021 7:30:00 PM 2.35 36.23 0.117 7.01 2.55 13.39
1/13/2021 7:45:00 PM 2.33 36.194 0.117 7 2.55 13.4
1/13/2021 8:00:00 PM 2.31 36.158 0.118 7 2.58 13.41
1/13/2021 8:15:00 PM 2.29 36.122 0.118 7.01 2.62 13.41
1/13/2021 8:30:00 PM 2.28 36.104 0.118 7.01 2.57 13.42
1/13/2021 8:45:00 PM 2.27 36.086 0.118 7.01 2.56 13.41
1/13/2021 9:00:00 PM 2.26 36.068 0.118 7 2.62 13.4
1/13/2021 9:15:00 PM 2.25 36.05 0.118 7 2.56 13.41
1/13/2021 9:30:00 PM 2.25 36.05 0.118 7 2.57 13.41
1/13/2021 9:45:00 PM 2.24 36.032 0.118 7.01 2.61 13.41
1/13/2021 10:00:00 PM 2.23 36.014 0.119 7 2.58 13.42
1/13/2021 10:15:00 PM 2.22 35.996 0.119 7.01 2.61 13.41
1/13/2021 10:30:00 PM 2.21 35.978 0.119 7 2.55 13.42
1/13/2021 10:45:00 PM 2.21 35.978 0.119 7 2.63 13.43
1/13/2021 11:00:00 PM 2.21 35.978 0.119 6.99 2.57 13.42
1/13/2021 11:15:00 PM 2.21 35.978 0.119 7.01 2.58 13.43
1/13/2021 11:30:00 PM 2.2 35.96 0.119 7 2.62 13.42
1/13/2021 11:45:00 PM 2.19 35.942 0.119 7.01 2.62 13.42
1/14/2021 12:00:00 AM 2.18 35.924 0.119 7 2.62 13.42
1/14/2021 12:15:00 AM 2.18 35.924 0.119 7 2.57 13.43
1/14/2021 12:30:00 AM 2.18 35.924 0.119 6.99 2.58 13.43
1/14/2021 12:45:00 AM 2.17 35.906 0.119 7.01 2.62 13.42
1/14/2021 1:00:00 AM 2.17 35.906 0.12 7 2.59 13.42
1/14/2021 1:15:00 AM 2.16 35.888 0.12 7 2.57 13.43
1/14/2021 1:30:00 AM 2.16 35.888 0.12 7.01 2.58 13.43
1/14/2021 1:45:00 AM 2.15 35.87 0.12 7 2.59 13.43
1/14/2021 2:00:00 AM 2.15 35.87 0.12 7 2.61 13.43
1/14/2021 2:15:00 AM 2.14 35.852 0.121 7 2.58 13.43
1/14/2021 2:30:00 AM 2.14 35.852 0.121 7.01 2.69 13.43
1/14/2021 2:45:00 AM 2.14 35.852 0.121 7.01 2.63 13.43
1/14/2021 3:00:00 AM 2.15 35.87 0.121 7.01 2.75 13.43
1/14/2021 3:15:00 AM 2.15 35.87 0.121 7.01 2.66 13.44
1/14/2021 3:30:00 AM 2.15 35.87 0.121 7.01 2.64 13.43
1/14/2021 3:45:00 AM 2.16 35.888 0.121 7.01 2.58 13.43
1/14/2021 4:00:00 AM 2.16 35.888 0.122 7.01 2.57 13.42
1/14/2021 4:15:00 AM 2.16 35.888 0.122 7 2.65 13.42
1/14/2021 4:30:00 AM 2.17 35.906 0.122 7.01 2.54 13.43
1/14/2021 4:45:00 AM 2.17 35.906 0.122 7.01 2.58 13.42
1/14/2021 5:00:00 AM 2.17 35.906 0.122 7.01 2.62 13.42
1/14/2021 5:15:00 AM 2.18 35.924 0.122 7.01 2.6 13.42
1/14/2021 5:30:00 AM 2.18 35.924 0.122 7.01 2.67 13.42
1/14/2021 5:45:00 AM 2.19 35.942 0.122 7.02 2.63 13.41
1/14/2021 6:00:00 AM 2.19 35.942 0.123 7.01 2.57 13.42
1/14/2021 6:15:00 AM 2.2 35.96 0.123 7.01 2.61 13.41
1/14/2021 6:30:00 AM 2.2 35.96 0.123 7.01 2.56 13.41
1/14/2021 6:45:00 AM 2.21 35.978 0.123 7.02 2.54 13.4
1/14/2021 7:00:00 AM 2.21 35.978 0.123 7.01 2.59 13.4
1/14/2021 7:15:00 AM 2.22 35.996 0.123 7.02 2.54 13.39
1/14/2021 7:30:00 AM 2.22 35.996 0.123 6.99 2.56 13.4
1/14/2021 7:45:00 AM 2.23 36.014 0.123 7.02 2.55 13.4
1/14/2021 8:00:00 AM 2.24 36.032 0.124 7.01 2.56 13.41
1/14/2021 8:15:00 AM 2.25 36.05 0.124 7.01 2.52 13.44
1/14/2021 8:30:00 AM 2.27 36.086 0.124 7.03 2.55 13.47
1/14/2021 8:45:00 AM 2.29 36.122 0.124 7.04 2.47 13.48
1/14/2021 9:00:00 AM 2.31 36.158 0.124 7.04 2.5 13.51
1/14/2021 9:15:00 AM 2.34 36.212 0.124 7.04 2.53 13.52
1/14/2021 9:30:00 AM 2.37 36.266 0.124 7.06 2.48 13.54
1/14/2021 9:45:00 AM 2.41 36.338 0.124 7.06 2.52 13.56
1/14/2021 10:00:00 AM 2.44 36.392 0.124 7.06 2.48 13.57
1/14/2021 10:15:00 AM 2.48 36.464 0.124 7.08 2.46 13.58
1/14/2021 10:30:00 AM 2.52 36.536 0.124 7.07 2.48 13.6
1/14/2021 10:45:00 AM 2.58 36.644 0.124 7.08 2.43 13.6
1/14/2021 11:00:00 AM 2.65 36.77 0.124 7.08 2.46 13.59
1/14/2021 11:15:00 AM 2.71 36.878 0.124 7.1 2.43 13.59
1/14/2021 11:30:00 AM 2.78 37.004 0.124 7.1 2.44 13.59
1/14/2021 11:45:00 AM 2.87 37.166 0.124 7.12 2.45 13.58
1/14/2021 12:00:00 PM 2.97 37.346 0.124 7.12 2.46 13.56
1/14/2021 12:15:00 PM 3.04 37.472 0.124 7.13 2.4 13.54
1/14/2021 12:30:00 PM 3.11 37.598 0.124 7.12 2.45 13.53
1/14/2021 12:45:00 PM 3.2 37.76 0.124 7.13 2.47 13.52
1/14/2021 1:00:00 PM 3.3 37.94 0.124 7.13 2.42 13.5
1/14/2021 1:15:00 PM 3.35 38.03 0.124 7.12 2.49 13.48
1/14/2021 1:30:00 PM 3.37 38.066 0.124 7.13 2.43 13.45
1/14/2021 1:45:00 PM 3.39 38.102 0.124 7.13 2.49 13.44
1/14/2021 2:00:00 PM 3.39 38.102 0.124 7.13 2.48 13.42
1/14/2021 2:15:00 PM 3.38 38.084 0.124 7.11 2.47 13.41
1/14/2021 2:30:00 PM 3.36 38.048 0.124 7.11 2.42 13.4
1/14/2021 2:45:00 PM 3.35 38.03 0.124 7.09 2.47 13.39
1/14/2021 3:00:00 PM 3.34 38.012 0.124 7.09 2.44 13.38
1/14/2021 3:15:00 PM 3.33 37.994 0.124 7.08 2.47 13.37
1/14/2021 3:30:00 PM 3.32 37.976 0.124 7.1 2.45 13.36
1/14/2021 3:45:00 PM 3.32 37.976 0.124 7.09 2.46 13.36
1/14/2021 4:00:00 PM 3.29 37.922 0.124 7.08 2.5 13.35
1/14/2021 4:15:00 PM 3.24 37.832 0.124 7.06 2.47 13.31
1/14/2021 4:30:00 PM 3.19 37.742 0.124 7.06 2.42 13.3
1/14/2021 4:45:00 PM 3.15 37.67 0.124 7.06 2.44 13.29
1/14/2021 5:00:00 PM 3.1 37.58 0.124 7.04 2.42 13.26
1/14/2021 5:15:00 PM 3.05 37.49 0.124 7.01 2.47 13.25
1/14/2021 5:30:00 PM 3.01 37.418 0.124 7.03 2.51 13.24
1/14/2021 5:45:00 PM 2.97 37.346 0.124 6.99 2.52 13.23
1/14/2021 6:00:00 PM 2.93 37.274 0.124 7.02 2.5 13.23
1/14/2021 6:15:00 PM 2.9 37.22 0.124 7.01 2.5 13.23
1/14/2021 6:30:00 PM 2.85 37.13 0.124 7.01 2.53 13.23
1/14/2021 6:45:00 PM 2.79 37.022 0.124 7 2.48 13.23
1/14/2021 7:00:00 PM 2.73 36.914 0.124 6.99 2.51 13.24
1/14/2021 7:15:00 PM 2.68 36.824 0.124 6.99 2.51 13.25
1/14/2021 7:30:00 PM 2.63 36.734 0.124 6.98 2.51 13.25
1/14/2021 7:45:00 PM 2.59 36.662 0.124 7 2.49 13.27
1/14/2021 8:00:00 PM 2.54 36.572 0.124 7 2.52 13.28
1/14/2021 8:15:00 PM 2.5 36.5 0.124 6.99 2.52 13.29
1/14/2021 8:30:00 PM 2.47 36.446 0.124 7.01 2.51 13.3
1/14/2021 8:45:00 PM 2.44 36.392 0.124 7 2.54 13.3
1/14/2021 9:00:00 PM 2.41 36.338 0.124 7 2.55 13.32
1/14/2021 9:15:00 PM 2.38 36.284 0.124 7 2.54 13.34
1/14/2021 9:30:00 PM 2.34 36.212 0.124 7 2.52 13.34
1/14/2021 9:45:00 PM 2.32 36.176 0.123 6.99 2.53 13.35
1/14/2021 10:00:00 PM 2.29 36.122 0.123 7.01 2.54 13.36
1/14/2021 10:15:00 PM 2.27 36.086 0.123 6.99 2.53 13.37
1/14/2021 10:30:00 PM 2.25 36.05 0.123 7 2.52 13.38
1/14/2021 10:45:00 PM 2.24 36.032 0.123 7 2.54 13.38
1/14/2021 11:00:00 PM 2.23 36.014 0.123 7.01 2.53 13.39
1/14/2021 11:15:00 PM 2.22 35.996 0.123 7 2.57 13.39
1/14/2021 11:30:00 PM 2.21 35.978 0.123 7.02 2.51 13.39
1/14/2021 11:45:00 PM 2.2 35.96 0.123 7.01 2.52 13.4
1/15/2021 12:00:00 AM 2.19 35.942 0.123 7.01 2.58 13.4
1/15/2021 12:15:00 AM 2.19 35.942 0.123 7.02 2.58 13.4
1/15/2021 12:30:00 AM 2.17 35.906 0.123 7.01 2.56 13.41
1/15/2021 12:45:00 AM 2.16 35.888 0.123 7.01 2.58 13.41
1/15/2021 1:00:00 AM 2.14 35.852 0.123 7.02 2.56 13.41
1/15/2021 1:15:00 AM 2.13 35.834 0.123 7.01 2.53 13.41
1/15/2021 1:30:00 AM 2.13 35.834 0.123 6.99 2.52 13.42
1/15/2021 1:45:00 AM 2.13 35.834 0.123 7.02 2.56 13.42
1/15/2021 2:00:00 AM 2.14 35.852 0.123 7.01 2.82 13.41
1/15/2021 2:15:00 AM 2.15 35.87 0.123 7.01 2.57 13.42
1/15/2021 2:30:00 AM 2.16 35.888 0.123 7.02 2.65 13.41
1/15/2021 2:45:00 AM 2.17 35.906 0.123 7.02 2.53 13.41
1/15/2021 3:00:00 AM 2.19 35.942 0.123 7.02 2.62 13.42
1/15/2021 3:15:00 AM 2.2 35.96 0.123 7.02 2.55 13.4
1/15/2021 3:30:00 AM 2.22 35.996 0.123 7.01 2.57 13.41
1/15/2021 3:45:00 AM 2.23 36.014 0.123 7.02 2.58 13.4
1/15/2021 4:00:00 AM 2.25 36.05 0.123 7.03 2.59 13.4
1/15/2021 4:15:00 AM 2.26 36.068 0.122 7.03 2.57 13.4
1/15/2021 4:30:00 AM 2.28 36.104 0.122 7.03 2.6 13.38
1/15/2021 4:45:00 AM 2.29 36.122 0.122 7.04 2.6 13.38
1/15/2021 5:00:00 AM 2.31 36.158 0.122 7.03 2.52 13.38
1/15/2021 5:15:00 AM 2.31 36.158 0.122 7.02 2.54 13.37
1/15/2021 5:30:00 AM 2.32 36.176 0.122 7.02 2.53 13.37
1/15/2021 5:45:00 AM 2.32 36.176 0.122 7.02 2.57 13.36
1/15/2021 6:00:00 AM 2.33 36.194 0.122 7.01 2.59 13.35
1/15/2021 6:15:00 AM 2.32 36.176 0.122 7.02 2.61 13.35
1/15/2021 6:30:00 AM 2.32 36.176 0.122 7.01 2.58 13.36
1/15/2021 6:45:00 AM 2.32 36.176 0.123 7.02 2.54 13.35
1/15/2021 7:00:00 AM 2.33 36.194 0.123 7.03 2.63 13.35
1/15/2021 7:15:00 AM 2.32 36.176 0.123 7.02 2.61 13.34
1/15/2021 7:30:00 AM 2.33 36.194 0.123 7.03 2.57 13.35
1/15/2021 7:45:00 AM 2.33 36.194 0.123 7.02 2.57 13.34
1/15/2021 8:00:00 AM 2.34 36.212 0.123 7.03 2.56 13.36
1/15/2021 8:15:00 AM 2.35 36.23 0.123 7.03 2.6 13.37
1/15/2021 8:30:00 AM 2.37 36.266 0.123 7.04 2.6 13.41
1/15/2021 8:45:00 AM 2.39 36.302 0.123 7.04 2.56 13.43
1/15/2021 9:00:00 AM 2.42 36.356 0.123 7.05 2.56 13.46
1/15/2021 9:15:00 AM 2.47 36.446 0.123 7.06 2.6 13.48
1/15/2021 9:30:00 AM 2.5 36.5 0.123 7.07 2.52 13.48
1/15/2021 9:45:00 AM 2.54 36.572 0.123 7.08 2.53 13.5
1/15/2021 10:00:00 AM 2.59 36.662 0.123 7.08 2.52 13.51
1/15/2021 10:15:00 AM 2.64 36.752 0.123 7.1 2.5 13.52
1/15/2021 10:30:00 AM 2.68 36.824 0.123 7.09 2.47 13.52
1/15/2021 10:45:00 AM 2.73 36.914 0.123 7.11 2.47 13.51
1/15/2021 11:00:00 AM 2.77 36.986 0.123 7.12 2.47 13.52
1/15/2021 11:15:00 AM 2.82 37.076 0.123 7.1 2.48 13.51
1/15/2021 11:30:00 AM 2.86 37.148 0.122 7.13 2.53 13.51
1/15/2021 11:45:00 AM 2.91 37.238 0.122 7.11 2.49 13.49
1/15/2021 12:00:00 PM 2.96 37.328 0.122 7.12 2.46 13.49
1/15/2021 12:15:00 PM 3.02 37.436 0.122 7.13 2.47 13.47
1/15/2021 12:30:00 PM 3.07 37.526 0.122 7.13 2.48 13.46
1/15/2021 12:45:00 PM 3.11 37.598 0.122 7.15 2.5 13.45
1/15/2021 1:00:00 PM 3.16 37.688 0.122 7.13 2.58 13.43
1/15/2021 1:15:00 PM 3.22 37.796 0.122 7.14 2.44 13.42
1/15/2021 1:30:00 PM 3.26 37.868 0.122 7.14 2.47 13.41
1/15/2021 1:45:00 PM 3.31 37.958 0.122 7.14 2.48 13.4
1/15/2021 2:00:00 PM 3.33 37.994 0.122 7.12 2.44 13.37
1/15/2021 2:15:00 PM 3.33 37.994 0.122 7.14 2.45 13.33
1/15/2021 2:30:00 PM 3.33 37.994 0.122 7.12 2.56 13.3
1/15/2021 2:45:00 PM 3.34 38.012 0.122 7.13 2.54 13.26
1/15/2021 3:00:00 PM 3.35 38.03 0.122 7.1 2.47 13.25
1/15/2021 3:15:00 PM 3.36 38.048 0.122 7.11 2.45 13.24
1/15/2021 3:30:00 PM 3.38 38.084 0.121 7.11 2.46 13.23
1/15/2021 3:45:00 PM 3.38 38.084 0.121 7.1 2.45 13.2
1/15/2021 4:00:00 PM 3.38 38.084 0.121 7.1 2.45 13.17
1/15/2021 4:15:00 PM 3.37 38.066 0.121 7.08 2.47 13.13
1/15/2021 4:30:00 PM 3.36 38.048 0.121 7.07 2.47 13.11
1/15/2021 4:45:00 PM 3.35 38.03 0.121 7.07 2.49 13.09
1/15/2021 5:00:00 PM 3.34 38.012 0.121 7.07 2.45 13.07
1/15/2021 5:15:00 PM 3.32 37.976 0.121 7.05 2.48 13.05
1/15/2021 5:30:00 PM 3.31 37.958 0.121 7.05 2.73 13.04
1/15/2021 5:45:00 PM 3.29 37.922 0.121 7.04 2.46 13.03
1/15/2021 6:00:00 PM 3.27 37.886 0.121 7.05 2.46 13.03
1/15/2021 6:15:00 PM 3.26 37.868 0.121 7.02 2.46 13.02
1/15/2021 6:30:00 PM 3.26 37.868 0.121 7.04 2.54 13.01
1/15/2021 6:45:00 PM 3.25 37.85 0.121 7.03 2.5 13.01
1/15/2021 7:00:00 PM 3.23 37.814 0.121 7.02 2.47 13.01
1/15/2021 7:15:00 PM 3.21 37.778 0.121 7.01 2.55 13.01
1/15/2021 7:30:00 PM 3.19 37.742 0.121 7 2.73 13.01
1/15/2021 7:45:00 PM 3.17 37.706 0.12 7.02 2.66 13.01
1/15/2021 8:00:00 PM 3.15 37.67 0.121 7 3.02 13.01
1/15/2021 8:15:00 PM 3.14 37.652 0.122 7.05 3.87 13.01
1/15/2021 8:30:00 PM 3.12 37.616 0.123 7.05 4.47 13.01
1/15/2021 8:45:00 PM 3.11 37.598 0.121 7.03 3.86 13.01
1/15/2021 9:00:00 PM 3.1 37.58 0.121 7.05 3.63 13.01
1/15/2021 9:15:00 PM 3.09 37.562 0.12 7.05 3.15 13.01
1/15/2021 9:30:00 PM 3.09 37.562 0.119 7.02 2.89 13.02
1/15/2021 9:45:00 PM 3.08 37.544 0.119 7.01 2.77 13.01
1/15/2021 10:00:00 PM 3.07 37.526 0.119 7.02 2.62 13.01
1/15/2021 10:15:00 PM 3.07 37.526 0.119 7.02 2.67 13.01
1/15/2021 10:30:00 PM 3.06 37.508 0.119 7.01 2.68 13.01
1/15/2021 10:45:00 PM 3.06 37.508 0.119 7.03 2.64 13.02
1/15/2021 11:00:00 PM 3.06 37.508 0.119 7.02 2.61 13.02
1/15/2021 11:15:00 PM 3.05 37.49 0.119 7.03 2.66 13.03
1/15/2021 11:30:00 PM 3.05 37.49 0.119 7.02 2.62 13.02
1/15/2021 11:45:00 PM 3.04 37.472 0.118 7.03 2.62 13.02
1/16/2021 12:00:00 AM 3.03 37.454 0.118 7.02 2.65 13.03
1/16/2021 12:15:00 AM 3.02 37.436 0.118 7.02 2.66 13.03
1/16/2021 12:30:00 AM 3.01 37.418 0.118 7.01 2.67 13.04
1/16/2021 12:45:00 AM 3 37.4 0.119 7.01 2.71 13.04
1/16/2021 1:00:00 AM 3 37.4 0.119 7.01 2.75 13.04
1/16/2021 1:15:00 AM 2.99 37.382 0.118 7.01 2.71 13.04
1/16/2021 1:30:00 AM 2.98 37.364 0.118 7.01 2.71 13.05
1/16/2021 1:45:00 AM 2.97 37.346 0.118 7.01 2.72 13.05
1/16/2021 2:00:00 AM 2.96 37.328 0.118 7.02 2.76 13.05
1/16/2021 2:15:00 AM 2.95 37.31 0.118 7.02 2.69 13.06
1/16/2021 2:30:00 AM 2.94 37.292 0.118 7.03 2.87 13.06
1/16/2021 2:45:00 AM 2.94 37.292 0.118 7.03 2.77 13.06
1/16/2021 3:00:00 AM 2.93 37.274 0.118 7.03 2.7 13.06
1/16/2021 3:15:00 AM 2.92 37.256 0.118 7.03 2.76 13.07
1/16/2021 3:30:00 AM 2.92 37.256 0.118 7.04 2.7 13.07
1/16/2021 3:45:00 AM 2.92 37.256 0.118 7.04 2.74 13.07
1/16/2021 4:00:00 AM 2.91 37.238 0.118 7.04 2.75 13.07
1/16/2021 4:15:00 AM 2.91 37.238 0.118 7.03 2.71 13.07
1/16/2021 4:30:00 AM 2.9 37.22 0.118 7.04 2.74 13.07
1/16/2021 4:45:00 AM 2.89 37.202 0.118 7.05 2.73 13.08
1/16/2021 5:00:00 AM 2.9 37.22 0.118 7.05 2.74 13.08
1/16/2021 5:15:00 AM 2.9 37.22 0.118 7.04 2.75 13.08
1/16/2021 5:30:00 AM 2.9 37.22 0.118 7.03 2.75 13.08
1/16/2021 5:45:00 AM 2.9 37.22 0.118 7.04 2.74 13.08
1/16/2021 6:00:00 AM 2.9 37.22 0.117 7.03 2.81 13.08
1/16/2021 6:15:00 AM 2.9 37.22 0.117 7.04 2.8 13.08
1/16/2021 6:30:00 AM 2.9 37.22 0.118 7.03 2.72 13.08
1/16/2021 6:45:00 AM 2.9 37.22 0.118 7.04 2.77 13.08
1/16/2021 7:00:00 AM 2.9 37.22 0.118 7.03 2.83 13.08
1/16/2021 7:15:00 AM 2.89 37.202 0.118 7.04 2.79 13.09
1/16/2021 7:30:00 AM 2.89 37.202 0.118 7.04 2.86 13.1
1/16/2021 7:45:00 AM 2.9 37.22 0.118 7.04 2.76 13.1
1/16/2021 8:00:00 AM 2.9 37.22 0.118 7.05 2.82 13.12
1/16/2021 8:15:00 AM 2.9 37.22 0.118 7.05 2.73 13.15
1/16/2021 8:30:00 AM 2.91 37.238 0.118 7.06 2.85 13.19
1/16/2021 8:45:00 AM 2.92 37.256 0.118 7.06 2.82 13.22
1/16/2021 9:00:00 AM 2.93 37.274 0.118 7.08 2.86 13.25
1/16/2021 9:15:00 AM 2.95 37.31 0.118 7.08 2.79 13.27
1/16/2021 9:30:00 AM 2.96 37.328 0.118 7.09 2.85 13.3
1/16/2021 9:45:00 AM 2.98 37.364 0.118 7.1 2.83 13.33
1/16/2021 10:00:00 AM 3 37.4 0.119 7.1 2.83 13.35
1/16/2021 10:15:00 AM 3.04 37.472 0.119 7.11 2.83 13.38
1/16/2021 10:30:00 AM 3.09 37.562 0.119 7.13 2.92 13.39
1/16/2021 10:45:00 AM 3.12 37.616 0.119 7.13 2.94 13.4
1/16/2021 11:00:00 AM 3.16 37.688 0.119 7.13 2.94 13.41
1/16/2021 11:15:00 AM 3.21 37.778 0.119 7.14 2.93 13.41
1/16/2021 11:30:00 AM 3.26 37.868 0.12 7.14 2.98 13.42
1/16/2021 11:45:00 AM 3.33 37.994 0.12 7.15 2.95 13.42
1/16/2021 12:00:00 PM 3.45 38.21 0.12 7.17 3.05 13.4
1/16/2021 12:15:00 PM 3.59 38.462 0.119 7.17 2.89 13.38
1/16/2021 12:30:00 PM 3.68 38.624 0.119 7.18 2.91 13.36
1/16/2021 12:45:00 PM 3.73 38.714 0.119 7.17 2.89 13.35
1/16/2021 1:00:00 PM 3.77 38.786 0.119 7.17 2.93 13.33
1/16/2021 1:15:00 PM 3.73 38.714 0.119 7.16 2.88 13.32
1/16/2021 1:30:00 PM 3.69 38.642 0.119 7.14 2.95 13.33
1/16/2021 1:45:00 PM 3.64 38.552 0.119 7.14 2.91 13.33
1/16/2021 2:00:00 PM 3.63 38.534 0.119 7.14 2.94 13.33
1/16/2021 2:15:00 PM 3.61 38.498 0.119 7.13 2.91 13.32
1/16/2021 2:30:00 PM 3.6 38.48 0.12 7.13 2.85 13.32
1/16/2021 2:45:00 PM 3.58 38.444 0.12 7.13 2.91 13.32
1/16/2021 3:00:00 PM 3.55 38.39 0.12 7.13 2.9 13.31
1/16/2021 3:15:00 PM 3.52 38.336 0.12 7.12 2.96 13.3
1/16/2021 3:30:00 PM 3.48 38.264 0.12 7.11 2.91 13.3
1/16/2021 3:45:00 PM 3.45 38.21 0.12 7.11 2.93 13.31
1/16/2021 4:00:00 PM 3.43 38.174 0.12 7.1 3 13.31
1/16/2021 4:15:00 PM 3.39 38.102 0.12 7.1 2.99 13.29
1/16/2021 4:30:00 PM 3.35 38.03 0.12 7.09 2.94 13.27
1/16/2021 4:45:00 PM 3.31 37.958 0.12 7.08 2.97 13.25
1/16/2021 5:00:00 PM 3.27 37.886 0.12 7.07 2.99 13.23
1/16/2021 5:15:00 PM 3.23 37.814 0.12 7.06 3.3 13.21
1/16/2021 5:30:00 PM 3.19 37.742 0.12 7.05 3.04 13.19
1/16/2021 5:45:00 PM 3.17 37.706 0.12 7.03 3.01 13.18
1/16/2021 6:00:00 PM 3.14 37.652 0.12 7.04 3 13.17
1/16/2021 6:15:00 PM 3.11 37.598 0.12 7.03 3.03 13.15
1/16/2021 6:30:00 PM 3.09 37.562 0.12 7.02 3.01 13.14
1/16/2021 6:45:00 PM 3.08 37.544 0.12 7.03 3.06 13.13
1/16/2021 7:00:00 PM 3.06 37.508 0.12 7.03 3.09 13.14
1/16/2021 7:15:00 PM 3.05 37.49 0.12 7.02 3.07 13.13
1/16/2021 7:30:00 PM 3.04 37.472 0.12 7.03 3.24 13.13
1/16/2021 7:45:00 PM 3.03 37.454 0.12 7.02 3.01 13.13
1/16/2021 8:00:00 PM 3.02 37.436 0.12 7.02 3.03 13.13
1/16/2021 8:15:00 PM 3.02 37.436 0.12 7.03 3.03 13.13
1/16/2021 8:30:00 PM 3.02 37.436 0.12 7.03 3.1 13.12
1/16/2021 8:45:00 PM 3.01 37.418 0.12 7.03 3.08 13.13
1/16/2021 9:00:00 PM 3.01 37.418 0.12 7.03 3.07 13.12
1/16/2021 9:15:00 PM 3.01 37.418 0.12 7.03 3.1 13.12
1/16/2021 9:30:00 PM 3.01 37.418 0.12 7.02 3.2 13.12
1/16/2021 9:45:00 PM 3.03 37.454 0.12 7.03 3.16 13.12
1/16/2021 10:00:00 PM 3.04 37.472 0.12 7.03 3.09 13.12
1/16/2021 10:15:00 PM 3.04 37.472 0.12 7.04 3.16 13.12
1/16/2021 10:30:00 PM 3.05 37.49 0.12 7.03 3.23 13.11
1/16/2021 10:45:00 PM 3.06 37.508 0.12 7.03 3.17 13.11
1/16/2021 11:00:00 PM 3.06 37.508 0.12 7.04 3.17 13.11
1/16/2021 11:15:00 PM 3.06 37.508 0.121 7.04 3.31 13.11
1/16/2021 11:30:00 PM 3.06 37.508 0.121 7.04 3.36 13.11
1/16/2021 11:45:00 PM 3.05 37.49 0.121 7.03 3.19 13.11
1/17/2021 12:00:00 AM 3.05 37.49 0.121 7.04 3.26 13.11
1/17/2021 12:15:00 AM 3.06 37.508 0.121 7.02 3.33 13.11
1/17/2021 12:30:00 AM 3.06 37.508 0.121 7.03 3.31 13.11
1/17/2021 12:45:00 AM 3.07 37.526 0.121 7.03 3.21 13.11
1/17/2021 1:00:00 AM 3.07 37.526 0.121 7.03 3.29 13.11
1/17/2021 1:15:00 AM 3.06 37.508 0.121 7.03 3.3 13.12
1/17/2021 1:30:00 AM 3.06 37.508 0.121 7.03 3.42 13.12
1/17/2021 1:45:00 AM 3.06 37.508 0.121 7.03 3.31 13.12
1/17/2021 2:00:00 AM 3.06 37.508 0.121 7.03 3.26 13.12
1/17/2021 2:15:00 AM 3.06 37.508 0.121 7.03 3.33 13.12
1/17/2021 2:30:00 AM 3.07 37.526 0.121 7.03 3.31 13.12
1/17/2021 2:45:00 AM 3.06 37.508 0.121 7.02 3.31 13.12
1/17/2021 3:00:00 AM 3.06 37.508 0.121 7.04 3.38 13.12
1/17/2021 3:15:00 AM 3.04 37.472 0.12 7.01 3.37 13.13
1/17/2021 3:30:00 AM 3.05 37.49 0.12 7.03 3.26 13.13
1/17/2021 3:45:00 AM 3.05 37.49 0.12 7.03 3.39 13.12
1/17/2021 4:00:00 AM 3.03 37.454 0.119 7.03 3.39 13.13
1/17/2021 4:15:00 AM 3.04 37.472 0.119 7.02 3.41 13.13
1/17/2021 4:30:00 AM 3.04 37.472 0.119 7.03 3.38 13.13
1/17/2021 4:45:00 AM 3.05 37.49 0.119 7.03 3.52 13.13
1/17/2021 5:00:00 AM 3.05 37.49 0.118 7.03 3.43 13.13
1/17/2021 5:15:00 AM 3.04 37.472 0.118 7.04 3.47 13.12
1/17/2021 5:30:00 AM 3.04 37.472 0.118 7.04 3.47 13.12
1/17/2021 5:45:00 AM 3.06 37.508 0.117 7.03 3.55 13.11
1/17/2021 6:00:00 AM 3.08 37.544 0.117 7.04 3.61 13.11
1/17/2021 6:15:00 AM 3.11 37.598 0.117 7.05 3.65 13.1
1/17/2021 6:30:00 AM 3.13 37.634 0.116 7.04 3.62 13.09
1/17/2021 6:45:00 AM 3.15 37.67 0.116 7.06 3.59 13.08
1/17/2021 7:00:00 AM 3.17 37.706 0.116 7.05 3.53 13.07
1/17/2021 7:15:00 AM 3.19 37.742 0.116 7.05 3.67 13.07
1/17/2021 7:30:00 AM 3.22 37.796 0.116 7.06 3.73 13.07
1/17/2021 7:45:00 AM 3.23 37.814 0.116 7.06 3.61 13.07
1/17/2021 8:00:00 AM 3.26 37.868 0.116 7.05 3.69 13.07
1/17/2021 8:15:00 AM 3.3 37.94 0.116 7.07 3.79 13.07
1/17/2021 8:30:00 AM 3.34 38.012 0.116 7.07 3.91 13.08
1/17/2021 8:45:00 AM 3.37 38.066 0.116 7.07 3.75 13.09
1/17/2021 9:00:00 AM 3.4 38.12 0.116 7.09 3.7 13.1
1/17/2021 9:15:00 AM 3.42 38.156 0.116 7.09 3.8 13.11
1/17/2021 9:30:00 AM 3.46 38.228 0.116 7.11 3.87 13.14
1/17/2021 9:45:00 AM 3.5 38.3 0.116 7.11 3.91 13.16
1/17/2021 10:00:00 AM 3.53 38.354 0.116 7.11 3.81 13.17
1/17/2021 10:15:00 AM 3.57 38.426 0.116 7.12 3.84 13.19
1/17/2021 10:30:00 AM 3.6 38.48 0.116 7.13 3.9 13.2
1/17/2021 10:45:00 AM 3.63 38.534 0.116 7.12 3.99 13.21
1/17/2021 11:00:00 AM 3.68 38.624 0.116 7.14 3.87 13.21
1/17/2021 11:15:00 AM 3.71 38.678 0.116 7.14 3.9 13.22
1/17/2021 11:30:00 AM 3.73 38.714 0.116 7.15 3.81 13.22
1/17/2021 11:45:00 AM 3.74 38.732 0.116 7.13 3.85 13.21
1/17/2021 12:00:00 PM 3.74 38.732 0.116 7.14 3.91 13.22
1/17/2021 12:15:00 PM 3.75 38.75 0.116 7.13 3.92 13.22
1/17/2021 12:30:00 PM 3.75 38.75 0.116 7.14 4.03 13.23
1/17/2021 12:45:00 PM 3.75 38.75 0.116 7.13 3.89 13.23
1/17/2021 1:00:00 PM 3.74 38.732 0.116 7.13 3.92 13.24
1/17/2021 1:15:00 PM 3.74 38.732 0.116 7.14 3.92 13.24
1/17/2021 1:30:00 PM 3.74 38.732 0.116 7.13 3.92 13.25
1/17/2021 1:45:00 PM 3.73 38.714 0.116 7.13 3.93 13.25
1/17/2021 2:00:00 PM 3.7 38.66 0.116 7.13 3.91 13.25
1/17/2021 2:15:00 PM 3.68 38.624 0.116 7.13 4.01 13.25
1/17/2021 2:30:00 PM 3.67 38.606 0.116 7.13 3.97 13.25
1/17/2021 2:45:00 PM 3.65 38.57 0.116 7.12 4 13.25
1/17/2021 3:00:00 PM 3.63 38.534 0.116 7.11 3.97 13.24
1/17/2021 3:15:00 PM 3.6 38.48 0.116 7.09 3.92 13.23
1/17/2021 3:30:00 PM 3.57 38.426 0.116 7.1 4.06 13.22
1/17/2021 3:45:00 PM 3.53 38.354 0.116 7.1 3.81 13.21
1/17/2021 4:00:00 PM 3.5 38.3 0.116 7.07 3.88 13.2
1/17/2021 4:15:00 PM 3.47 38.246 0.116 7.08 3.78 13.2
1/17/2021 4:30:00 PM 3.44 38.192 0.116 7.08 3.89 13.19
1/17/2021 4:45:00 PM 3.41 38.138 0.116 7.07 3.76 13.19
1/17/2021 5:00:00 PM 3.38 38.084 0.116 7.07 3.75 13.18
1/17/2021 5:15:00 PM 3.34 38.012 0.116 7.06 3.78 13.17
1/17/2021 5:30:00 PM 3.3 37.94 0.116 7.05 3.69 13.16
1/17/2021 5:45:00 PM 3.27 37.886 0.116 7.03 3.77 13.16
1/17/2021 6:00:00 PM 3.23 37.814 0.116 7.04 3.82 13.15
1/17/2021 6:15:00 PM 3.2 37.76 0.116 7.04 3.77 13.15
1/17/2021 6:30:00 PM 3.18 37.724 0.116 7.04 3.74 13.15
1/17/2021 6:45:00 PM 3.15 37.67 0.116 7.02 3.8 13.15
1/17/2021 7:00:00 PM 3.13 37.634 0.116 7.03 3.75 13.16
1/17/2021 7:15:00 PM 3.11 37.598 0.116 7.04 3.74 13.16
1/17/2021 7:30:00 PM 3.08 37.544 0.116 7.03 3.75 13.17
1/17/2021 7:45:00 PM 3.05 37.49 0.116 7.03 3.78 13.18
1/17/2021 8:00:00 PM 3.03 37.454 0.116 7.04 3.77 13.18
1/17/2021 8:15:00 PM 3.02 37.436 0.116 7.03 3.68 13.19
1/17/2021 8:30:00 PM 3.01 37.418 0.116 7.03 3.81 13.19
1/17/2021 8:45:00 PM 3 37.4 0.116 7.04 3.8 13.2
1/17/2021 9:00:00 PM 2.99 37.382 0.116 7.04 3.66 13.19
1/17/2021 9:15:00 PM 2.99 37.382 0.116 7.04 3.72 13.21
1/17/2021 9:30:00 PM 2.98 37.364 0.116 7.05 3.72 13.2
1/17/2021 9:45:00 PM 2.97 37.346 0.116 7.04 3.59 13.21
1/17/2021 10:00:00 PM 2.95 37.31 0.116 7.04 3.57 13.21
1/17/2021 10:15:00 PM 2.92 37.256 0.116 7.04 3.73 13.22
1/17/2021 10:30:00 PM 2.9 37.22 0.116 7.04 3.58 13.22
1/17/2021 10:45:00 PM 2.87 37.166 0.116 7.04 3.65 13.23
1/17/2021 11:00:00 PM 2.86 37.148 0.116 7.04 3.56 13.23
1/17/2021 11:15:00 PM 2.85 37.13 0.116 7.04 3.5 13.24
1/17/2021 11:30:00 PM 2.84 37.112 0.116 7.04 3.58 13.25
1/17/2021 11:45:00 PM 2.83 37.094 0.116 7.04 3.44 13.25
1/18/2021 12:00:00 AM 2.81 37.058 0.116 7.05 3.64 13.26
1/18/2021 12:15:00 AM 2.79 37.022 0.116 7.05 3.52 13.26
1/18/2021 12:30:00 AM 2.78 37.004 0.116 7.05 3.59 13.27
1/18/2021 12:45:00 AM 2.77 36.986 0.116 7.05 3.53 13.27
1/18/2021 1:00:00 AM 2.76 36.968 0.116 7.05 3.54 13.27
1/18/2021 1:15:00 AM 2.76 36.968 0.116 7.05 3.49 13.27
1/18/2021 1:30:00 AM 2.75 36.95 0.116 7.05 3.43 13.27
1/18/2021 1:45:00 AM 2.75 36.95 0.116 7.05 3.44 13.27
1/18/2021 2:00:00 AM 2.75 36.95 0.116 7.05 3.38 13.27
1/18/2021 2:15:00 AM 2.76 36.968 0.116 7.05 3.51 13.27
1/18/2021 2:30:00 AM 2.77 36.986 0.116 7.05 3.37 13.26
1/18/2021 2:45:00 AM 2.77 36.986 0.116 7.05 3.52 13.26
1/18/2021 3:00:00 AM 2.76 36.968 0.116 7.05 3.44 13.26
1/18/2021 3:15:00 AM 2.76 36.968 0.116 7.05 3.39 13.27
1/18/2021 3:30:00 AM 2.76 36.968 0.116 7.04 3.39 13.26
1/18/2021 3:45:00 AM 2.77 36.986 0.116 7.05 3.36 13.26
1/18/2021 4:00:00 AM 2.77 36.986 0.116 7.05 3.35 13.26
1/18/2021 4:15:00 AM 2.77 36.986 0.116 7.05 3.32 13.25
1/18/2021 4:30:00 AM 2.77 36.986 0.116 7.05 3.36 13.25
1/18/2021 4:45:00 AM 2.77 36.986 0.116 7.06 3.42 13.25
1/18/2021 5:00:00 AM 2.78 37.004 0.116 7.05 3.46 13.25
1/18/2021 5:15:00 AM 2.79 37.022 0.116 7.05 3.4 13.25
1/18/2021 5:30:00 AM 2.79 37.022 0.116 7.06 3.38 13.25
1/18/2021 5:45:00 AM 2.79 37.022 0.116 7.05 3.36 13.25
1/18/2021 6:00:00 AM 2.78 37.004 0.116 7.05 3.34 13.24
1/18/2021 6:15:00 AM 2.77 36.986 0.116 7.05 3.24 13.25
1/18/2021 6:30:00 AM 2.76 36.968 0.116 7.04 3.36 13.25
1/18/2021 6:45:00 AM 2.76 36.968 0.116 7.04 3.46 13.25
1/18/2021 7:00:00 AM 2.75 36.95 0.116 7.05 3.39 13.25
1/18/2021 7:15:00 AM 2.74 36.932 0.116 7.04 3.3 13.25
1/18/2021 7:30:00 AM 2.74 36.932 0.116 7.05 3.31 13.26
1/18/2021 7:45:00 AM 2.74 36.932 0.116 7.04 3.25 13.27
1/18/2021 8:00:00 AM 2.75 36.95 0.116 7.03 3.28 13.29
1/18/2021 8:15:00 AM 2.76 36.968 0.116 7.06 3.27 13.31
1/18/2021 8:30:00 AM 2.78 37.004 0.116 7.06 3.33 13.34
1/18/2021 8:45:00 AM 2.8 37.04 0.116 7.08 3.3 13.38
1/18/2021 9:00:00 AM 2.83 37.094 0.116 7.09 3.28 13.41
1/18/2021 9:15:00 AM 2.86 37.148 0.116 7.09 3.21 13.43
1/18/2021 9:30:00 AM 2.9 37.22 0.116 7.11 3.26 13.45
1/18/2021 9:45:00 AM 2.95 37.31 0.116 7.1 3.23 13.47
1/18/2021 10:00:00 AM 2.98 37.364 0.116 7.12 3.22 13.49
1/18/2021 10:15:00 AM 3.02 37.436 0.116 7.13 3.2 13.51
1/18/2021 10:30:00 AM 3.08 37.544 0.116 7.13 3.14 13.51
1/18/2021 10:45:00 AM 3.12 37.616 0.116 7.15 3.15 13.52
1/18/2021 11:00:00 AM 3.19 37.742 0.115 7.16 3.1 13.52
1/18/2021 11:15:00 AM 3.24 37.832 0.115 7.16 3.08 13.53
1/18/2021 11:30:00 AM 3.28 37.904 0.115 7.17 3.14 13.53
1/18/2021 11:45:00 AM 3.31 37.958 0.115 7.17 3.13 13.53
1/18/2021 12:00:00 PM 3.33 37.994 0.115 7.17 3.13 13.52
1/18/2021 12:15:00 PM 3.34 38.012 0.115 7.16 3.13 13.52
1/18/2021 12:30:00 PM 3.36 38.048 0.115 7.17 2.98 13.51
1/18/2021 12:45:00 PM 3.38 38.084 0.115 7.16 3.01 13.51
1/18/2021 1:00:00 PM 3.39 38.102 0.115 7.16 3.07 13.5
1/18/2021 1:15:00 PM 3.4 38.12 0.115 7.16 3.05 13.49
1/18/2021 1:30:00 PM 3.42 38.156 0.115 7.16 3.07 13.49
1/18/2021 1:45:00 PM 3.43 38.174 0.115 7.15 3.01 13.48
1/18/2021 2:00:00 PM 3.43 38.174 0.115 7.14 3.05 13.48
1/18/2021 2:15:00 PM 3.4 38.12 0.115 7.15 3.11 13.46
1/18/2021 2:30:00 PM 3.36 38.048 0.115 7.14 3.01 13.45
1/18/2021 2:45:00 PM 3.34 38.012 0.115 7.14 3.08 13.44
1/18/2021 3:00:00 PM 3.31 37.958 0.115 7.13 3.09 13.45
1/18/2021 3:15:00 PM 3.3 37.94 0.115 7.13 3.1 13.46
1/18/2021 3:30:00 PM 3.29 37.922 0.115 7.13 3 13.45
1/18/2021 3:45:00 PM 3.25 37.85 0.115 7.12 3 13.43
1/18/2021 4:00:00 PM 3.22 37.796 0.116 7.11 3.02 13.41
1/18/2021 4:15:00 PM 3.19 37.742 0.116 7.1 3.02 13.38
1/18/2021 4:30:00 PM 3.15 37.67 0.116 7.08 3.05 13.35
1/18/2021 4:45:00 PM 3.12 37.616 0.116 7.07 3.04 13.34
1/18/2021 5:00:00 PM 3.1 37.58 0.116 7.07 3.04 13.32
1/18/2021 5:15:00 PM 3.07 37.526 0.116 7.06 3.04 13.31
1/18/2021 5:30:00 PM 3.05 37.49 0.116 7.05 3.04 13.3
1/18/2021 5:45:00 PM 3.03 37.454 0.116 7.05 2.99 13.29
1/18/2021 6:00:00 PM 3 37.4 0.116 7.05 2.94 13.28
1/18/2021 6:15:00 PM 2.98 37.364 0.116 7.05 3.01 13.28
1/18/2021 6:30:00 PM 2.96 37.328 0.116 7.04 3.08 13.28
1/18/2021 6:45:00 PM 2.95 37.31 0.116 7.03 2.99 13.28
1/18/2021 7:00:00 PM 2.93 37.274 0.116 7.04 2.98 13.28
1/18/2021 7:15:00 PM 2.93 37.274 0.116 7.03 3.02 13.28
1/18/2021 7:30:00 PM 2.92 37.256 0.116 7.04 2.99 13.28
1/18/2021 7:45:00 PM 2.91 37.238 0.116 7.03 3.01 13.28
1/18/2021 8:00:00 PM 2.9 37.22 0.116 7.04 3.03 13.28
1/18/2021 8:15:00 PM 2.89 37.202 0.116 7.03 2.99 13.29
1/18/2021 8:30:00 PM 2.88 37.184 0.116 7.04 2.92 13.29
1/18/2021 8:45:00 PM 2.87 37.166 0.116 7.03 2.93 13.3
1/18/2021 9:00:00 PM 2.86 37.148 0.116 7.04 3.05 13.31
1/18/2021 9:15:00 PM 2.86 37.148 0.116 7.03 3 13.31
1/18/2021 9:30:00 PM 2.85 37.13 0.116 7.03 2.98 13.31
1/18/2021 9:45:00 PM 2.84 37.112 0.116 7.03 2.96 13.32
1/18/2021 10:00:00 PM 2.83 37.094 0.116 7.04 3.01 13.32
1/18/2021 10:15:00 PM 2.83 37.094 0.116 7.05 2.94 13.32
1/18/2021 10:30:00 PM 2.82 37.076 0.116 7.04 2.94 13.32
1/18/2021 10:45:00 PM 2.81 37.058 0.116 7.04 2.94 13.33
1/18/2021 11:00:00 PM 2.81 37.058 0.116 7.03 2.94 13.33
1/18/2021 11:15:00 PM 2.8 37.04 0.116 7.04 2.95 13.33
1/18/2021 11:30:00 PM 2.8 37.04 0.116 7.02 3.03 13.34
1/18/2021 11:45:00 PM 2.79 37.022 0.116 7.04 2.94 13.34
1/19/2021 12:00:00 AM 2.78 37.004 0.116 7.02 2.98 13.34
1/19/2021 12:15:00 AM 2.78 37.004 0.116 7.04 2.97 13.35
1/19/2021 12:30:00 AM 2.76 36.968 0.116 7.03 2.97 13.35
1/19/2021 12:45:00 AM 2.75 36.95 0.116 7.02 2.91 13.35
1/19/2021 1:00:00 AM 2.75 36.95 0.116 7.02 2.92 13.35
1/19/2021 1:15:00 AM 2.75 36.95 0.116 7.02 2.99 13.35
1/19/2021 1:30:00 AM 2.74 36.932 0.116 7.02 2.9 13.36
1/19/2021 1:45:00 AM 2.73 36.914 0.116 7.02 2.92 13.36
1/19/2021 2:00:00 AM 2.73 36.914 0.116 7.03 2.87 13.36
1/19/2021 2:15:00 AM 2.72 36.896 0.116 7.03 2.92 13.36
1/19/2021 2:30:00 AM 2.72 36.896 0.116 7.03 2.93 13.36
1/19/2021 2:45:00 AM 2.72 36.896 0.116 7.03 2.9 13.36
1/19/2021 3:00:00 AM 2.72 36.896 0.116 7.03 2.91 13.36
1/19/2021 3:15:00 AM 2.71 36.878 0.116 7.02 2.92 13.37
1/19/2021 3:30:00 AM 2.71 36.878 0.116 7.03 2.91 13.36
1/19/2021 3:45:00 AM 2.71 36.878 0.116 7.03 2.93 13.37
1/19/2021 4:00:00 AM 2.71 36.878 0.116 7.03 2.92 13.36
1/19/2021 4:15:00 AM 2.7 36.86 0.116 7.03 2.94 13.36
1/19/2021 4:30:00 AM 2.7 36.86 0.116 7.03 2.94 13.36
1/19/2021 4:45:00 AM 2.71 36.878 0.116 7.04 2.92 13.36
1/19/2021 5:00:00 AM 2.72 36.896 0.115 7.03 2.92 13.36
1/19/2021 5:15:00 AM 2.74 36.932 0.115 7.04 2.9 13.35
1/19/2021 5:30:00 AM 2.75 36.95 0.115 7.04 2.89 13.35
1/19/2021 5:45:00 AM 2.76 36.968 0.115 7.04 2.92 13.35
1/19/2021 6:00:00 AM 2.77 36.986 0.115 7.04 2.9 13.34
1/19/2021 6:15:00 AM 2.79 37.022 0.115 7.04 2.92 13.34
1/19/2021 6:30:00 AM 2.81 37.058 0.115 7.04 2.91 13.33
1/19/2021 6:45:00 AM 2.82 37.076 0.115 7.05 2.86 13.33
1/19/2021 7:00:00 AM 2.83 37.094 0.115 7.04 2.93 13.33
1/19/2021 7:15:00 AM 2.84 37.112 0.115 7.03 2.88 13.33
1/19/2021 7:30:00 AM 2.84 37.112 0.115 7.05 2.82 13.32
1/19/2021 7:45:00 AM 2.84 37.112 0.115 7.04 2.84 13.32
1/19/2021 8:00:00 AM 2.85 37.13 0.115 7.04 2.89 13.33
1/19/2021 8:15:00 AM 2.86 37.148 0.115 7.05 2.81 13.35
1/19/2021 8:30:00 AM 2.88 37.184 0.115 7.05 2.9 13.38
1/19/2021 8:45:00 AM 2.89 37.202 0.115 7.04 2.83 13.4
1/19/2021 9:00:00 AM 2.92 37.256 0.115 7.07 2.81 13.42
1/19/2021 9:15:00 AM 2.94 37.292 0.115 7.08 2.82 13.45
1/19/2021 9:30:00 AM 2.96 37.328 0.115 7.09 2.82 13.47
1/19/2021 9:45:00 AM 2.98 37.364 0.115 7.09 2.82 13.48
1/19/2021 10:00:00 AM 3.01 37.418 0.115 7.1 2.81 13.5
1/19/2021 10:15:00 AM 3.04 37.472 0.115 7.1 2.8 13.53
1/19/2021 10:30:00 AM 3.05 37.49 0.115 7.12 2.82 13.53
1/19/2021 10:45:00 AM 3.08 37.544 0.114 7.11 2.79 13.55
1/19/2021 11:00:00 AM 3.11 37.598 0.114 7.12 2.78 13.56
1/19/2021 11:15:00 AM 3.15 37.67 0.114 7.13 2.84 13.58
1/19/2021 11:30:00 AM 3.18 37.724 0.114 7.14 2.77 13.58
1/19/2021 11:45:00 AM 3.21 37.778 0.114 7.14 2.76 13.59
1/19/2021 12:00:00 PM 3.23 37.814 0.114 7.14 2.74 13.59
1/19/2021 12:15:00 PM 3.27 37.886 0.114 7.15 2.79 13.59
1/19/2021 12:30:00 PM 3.3 37.94 0.114 7.15 2.78 13.6
1/19/2021 12:45:00 PM 3.34 38.012 0.114 7.14 2.73 13.6
1/19/2021 1:00:00 PM 3.35 38.03 0.114 7.16 2.75 13.59
1/19/2021 1:15:00 PM 3.36 38.048 0.114 7.16 2.74 13.58
1/19/2021 1:30:00 PM 3.4 38.12 0.114 7.14 2.97 13.59
1/19/2021 1:45:00 PM 3.44 38.192 0.114 7.16 2.8 13.58
1/19/2021 2:00:00 PM 3.52 38.336 0.114 7.16 2.81 13.58
1/19/2021 2:15:00 PM 3.49 38.282 0.114 7.16 2.76 13.58
1/19/2021 2:30:00 PM 3.59 38.462 0.114 7.17 2.84 13.57
1/19/2021 2:45:00 PM 3.64 38.552 0.114 7.18 2.75 13.56
1/19/2021 3:00:00 PM 3.6 38.48 0.114 7.17 2.89 13.56
1/19/2021 3:15:00 PM 3.55 38.39 0.114 7.16 2.76 13.55
1/19/2021 3:30:00 PM 3.5 38.3 0.114 7.16 2.77 13.55
1/19/2021 3:45:00 PM 3.44 38.192 0.114 7.14 2.84 13.54
1/19/2021 4:00:00 PM 3.39 38.102 0.114 7.13 2.75 13.52
1/19/2021 4:15:00 PM 3.34 38.012 0.114 7.12 2.8 13.51
1/19/2021 4:30:00 PM 3.31 37.958 0.114 7.12 2.76 13.5
1/19/2021 4:45:00 PM 3.28 37.904 0.114 7.11 2.76 13.49
1/19/2021 5:00:00 PM 3.21 37.778 0.114 7.09 2.8 13.47
1/19/2021 5:15:00 PM 3.15 37.67 0.114 7.08 2.76 13.44
1/19/2021 5:30:00 PM 3.09 37.562 0.114 7.07 2.75 13.42
1/19/2021 5:45:00 PM 3.03 37.454 0.114 7.05 2.78 13.4
1/19/2021 6:00:00 PM 2.97 37.346 0.114 7.04 2.76 13.39
1/19/2021 6:15:00 PM 2.92 37.256 0.114 7.03 2.75 13.39
1/19/2021 6:30:00 PM 2.87 37.166 0.114 7.03 2.75 13.39
1/19/2021 6:45:00 PM 2.83 37.094 0.114 7.03 2.82 13.38
1/19/2021 7:00:00 PM 2.79 37.022 0.114 7.02 2.85 13.38
1/19/2021 7:15:00 PM 2.76 36.968 0.114 7.02 2.78 13.38
1/19/2021 7:30:00 PM 2.73 36.914 0.114 7.03 2.81 13.37
1/19/2021 7:45:00 PM 2.7 36.86 0.114 7.02 2.82 13.37
1/19/2021 8:00:00 PM 2.67 36.806 0.114 7.03 2.81 13.37
1/19/2021 8:15:00 PM 2.65 36.77 0.114 7.02 2.84 13.38
1/19/2021 8:30:00 PM 2.64 36.752 0.114 7.01 2.78 13.38
1/19/2021 8:45:00 PM 2.63 36.734 0.114 7.03 2.76 13.38
1/19/2021 9:00:00 PM 2.63 36.734 0.114 7.03 2.78 13.39
1/19/2021 9:15:00 PM 2.63 36.734 0.114 7.02 2.84 13.38
1/19/2021 9:30:00 PM 2.61 36.698 0.114 7.03 2.78 13.39
1/19/2021 9:45:00 PM 2.6 36.68 0.114 7.01 2.78 13.38
1/19/2021 10:00:00 PM 2.6 36.68 0.114 7.03 2.78 13.38
1/19/2021 10:15:00 PM 2.6 36.68 0.114 7.04 2.84 13.38
1/19/2021 10:30:00 PM 2.59 36.662 0.114 7.03 2.78 13.38
1/19/2021 10:45:00 PM 2.59 36.662 0.114 7.03 2.74 13.39
1/19/2021 11:00:00 PM 2.58 36.644 0.114 7.04 2.81 13.38
1/19/2021 11:15:00 PM 2.58 36.644 0.114 7.04 2.78 13.39
1/19/2021 11:30:00 PM 2.58 36.644 0.114 7.04 2.96 13.39
1/19/2021 11:45:00 PM 2.57 36.626 0.114 7.05 2.79 13.39
1/20/2021 12:00:00 AM 2.57 36.626 0.114 7.05 2.88 13.38
1/20/2021 12:15:00 AM 2.56 36.608 0.114 7.04 2.8 13.38
1/20/2021 12:30:00 AM 2.56 36.608 0.114 7.04 2.78 13.37
1/20/2021 12:45:00 AM 2.57 36.626 0.114 7.04 2.79 13.38
1/20/2021 1:00:00 AM 2.57 36.626 0.114 7.05 2.83 13.38
1/20/2021 1:15:00 AM 2.57 36.626 0.114 7.05 2.84 13.37
1/20/2021 1:30:00 AM 2.57 36.626 0.114 7.04 2.85 13.37
1/20/2021 1:45:00 AM 2.57 36.626 0.114 7.05 2.76 13.37
1/20/2021 2:00:00 AM 2.56 36.608 0.114 7.04 2.78 13.37
1/20/2021 2:15:00 AM 2.56 36.608 0.114 7.04 2.77 13.37
1/20/2021 2:30:00 AM 2.55 36.59 0.113 7.05 2.81 13.37
1/20/2021 2:45:00 AM 2.55 36.59 0.113 7.03 2.75 13.37
1/20/2021 3:00:00 AM 2.55 36.59 0.113 7.05 2.71 13.36
1/20/2021 3:15:00 AM 2.55 36.59 0.113 7.05 2.79 13.37
1/20/2021 3:30:00 AM 2.55 36.59 0.113 7.03 2.73 13.36
1/20/2021 3:45:00 AM 2.56 36.608 0.113 7.04 2.74 13.35
1/20/2021 4:00:00 AM 2.56 36.608 0.113 7.04 2.78 13.35
1/20/2021 4:15:00 AM 2.57 36.626 0.113 7.05 2.73 13.35
1/20/2021 4:30:00 AM 2.58 36.644 0.113 7.05 2.71 13.35
1/20/2021 4:45:00 AM 2.59 36.662 0.113 7.05 2.78 13.33
1/20/2021 5:00:00 AM 2.59 36.662 0.113 7.05 2.73 13.33
1/20/2021 5:15:00 AM 2.6 36.68 0.113 7.04 2.74 13.33
1/20/2021 5:30:00 AM 2.61 36.698 0.113 7.04 2.78 13.33
1/20/2021 5:45:00 AM 2.62 36.716 0.113 7.06 2.73 13.33
1/20/2021 6:00:00 AM 2.61 36.698 0.113 7.04 2.73 13.32
1/20/2021 6:15:00 AM 2.57 36.626 0.113 7.05 2.77 13.31
1/20/2021 6:30:00 AM 2.54 36.572 0.113 7.04 2.77 13.33
1/20/2021 6:45:00 AM 2.57 36.626 0.113 7.05 2.72 13.32
1/20/2021 7:00:00 AM 2.57 36.626 0.113 7.04 2.75 13.33
1/20/2021 7:15:00 AM 2.57 36.626 0.113 7.03 2.7 13.34
1/20/2021 7:30:00 AM 2.58 36.644 0.113 7.05 2.71 13.34
1/20/2021 7:45:00 AM 2.57 36.626 0.113 7.06 2.74 13.35
1/20/2021 8:00:00 AM 2.55 36.59 0.113 7.05 2.73 13.37
1/20/2021 8:15:00 AM 2.55 36.59 0.113 7.06 2.75 13.39
1/20/2021 8:30:00 AM 2.54 36.572 0.113 7.07 2.73 13.45
1/20/2021 8:45:00 AM 2.54 36.572 0.113 7.07 2.69 13.5
1/20/2021 9:00:00 AM 2.55 36.59 0.113 7.09 2.72 13.53
1/20/2021 9:15:00 AM 2.58 36.644 0.113 7.1 2.71 13.57
1/20/2021 9:30:00 AM 2.61 36.698 0.113 7.11 2.72 13.61
1/20/2021 9:45:00 AM 2.63 36.734 0.113 7.11 2.68 13.64
1/20/2021 10:00:00 AM 2.63 36.734 0.113 7.13 2.72 13.67
1/20/2021 10:15:00 AM 2.67 36.806 0.112 7.13 2.75 13.69
1/20/2021 10:30:00 AM 2.69 36.842 0.112 7.15 2.72 13.71
1/20/2021 10:45:00 AM 2.72 36.896 0.112 7.15 2.69 13.73
1/20/2021 11:00:00 AM 2.75 36.95 0.113 7.16 2.71 13.74
1/20/2021 11:15:00 AM 2.83 37.094 0.113 7.17 2.65 13.75
1/20/2021 11:30:00 AM 2.88 37.184 0.113 7.17 2.73 13.75
1/20/2021 11:45:00 AM 2.89 37.202 0.113 7.17 2.68 13.75
1/20/2021 12:00:00 PM 2.9 37.22 0.113 7.18 2.75 13.76
1/20/2021 12:15:00 PM 2.98 37.364 0.113 7.19 2.67 13.75
1/20/2021 12:30:00 PM 3.03 37.454 0.113 7.19 2.68 13.75
1/20/2021 12:45:00 PM 3.05 37.49 0.113 7.18 2.68 13.73
1/20/2021 1:00:00 PM 3.03 37.454 0.113 7.19 2.71 13.74
1/20/2021 1:15:00 PM 3.03 37.454 0.113 7.18 2.68 13.74
1/20/2021 1:30:00 PM 3.02 37.436 0.113 7.18 2.71 13.73
1/20/2021 1:45:00 PM 3.06 37.508 0.112 7.18 2.71 13.73
1/20/2021 2:00:00 PM 3.08 37.544 0.113 7.19 2.69 13.74
1/20/2021 2:15:00 PM 3.08 37.544 0.113 7.19 2.67 13.74
1/20/2021 2:30:00 PM 3.07 37.526 0.113 7.19 2.69 13.73
1/20/2021 2:45:00 PM 3.03 37.454 0.113 7.19 2.7 13.73
1/20/2021 3:00:00 PM 3.03 37.454 0.113 7.19 2.68 13.73
1/20/2021 3:15:00 PM 3.02 37.436 0.113 7.18 2.67 13.74
1/20/2021 3:30:00 PM 2.92 37.256 0.113 7.17 2.61 13.73
1/20/2021 3:45:00 PM 2.87 37.166 0.113 7.16 2.64 13.74
1/20/2021 4:00:00 PM 2.8 37.04 0.113 7.16 2.64 13.74
1/20/2021 4:15:00 PM 2.73 36.914 0.113 7.15 2.64 13.74
1/20/2021 4:30:00 PM 2.68 36.824 0.113 7.14 2.7 13.74
1/20/2021 4:45:00 PM 2.63 36.734 0.113 7.13 2.65 13.73
1/20/2021 5:00:00 PM 2.58 36.644 0.113 7.12 2.68 13.71
1/20/2021 5:15:00 PM 2.53 36.554 0.113 7.11 2.65 13.68
1/20/2021 5:30:00 PM 2.48 36.464 0.113 7.1 2.65 13.64
1/20/2021 5:45:00 PM 2.44 36.392 0.113 7.09 2.67 13.62
1/20/2021 6:00:00 PM 2.4 36.32 0.113 7.09 2.66 13.61
1/20/2021 6:15:00 PM 2.36 36.248 0.113 7.08 2.66 13.6
1/20/2021 6:30:00 PM 2.32 36.176 0.113 7.07 2.65 13.59
1/20/2021 6:45:00 PM 2.29 36.122 0.113 7.06 2.66 13.58
1/20/2021 7:00:00 PM 2.26 36.068 0.113 7.05 2.65 13.57
1/20/2021 7:15:00 PM 2.23 36.014 0.113 7.07 2.66 13.57
1/20/2021 7:30:00 PM 2.19 35.942 0.113 7.05 2.65 13.57
1/20/2021 7:45:00 PM 2.15 35.87 0.113 7.05 2.7 13.56
1/20/2021 8:00:00 PM 2.11 35.798 0.113 7.06 2.64 13.56
1/20/2021 8:15:00 PM 2.08 35.744 0.113 7.04 2.65 13.58
1/20/2021 8:30:00 PM 2.05 35.69 0.113 7.03 2.69 13.58
1/20/2021 8:45:00 PM 2.02 35.636 0.113 7.05 2.68 13.6
1/20/2021 9:00:00 PM 1.99 35.582 0.113 7.05 2.62 13.61
1/20/2021 9:15:00 PM 1.95 35.51 0.113 7.02 2.65 13.62
1/20/2021 9:30:00 PM 1.92 35.456 0.113 7.04 2.65 13.63
1/20/2021 9:45:00 PM 1.9 35.42 0.113 7.04 2.61 13.64
1/20/2021 10:00:00 PM 1.87 35.366 0.113 7.04 2.62 13.65
1/20/2021 10:15:00 PM 1.82 35.276 0.113 7.05 2.58 13.66
1/20/2021 10:30:00 PM 1.78 35.204 0.113 7.03 2.61 13.67
1/20/2021 10:45:00 PM 1.74 35.132 0.113 7.04 2.63 13.69
1/20/2021 11:00:00 PM 1.71 35.078 0.113 7.02 2.64 13.69
1/20/2021 11:15:00 PM 1.69 35.042 0.113 7.04 2.61 13.69
1/20/2021 11:30:00 PM 1.69 35.042 0.113 7.04 2.6 13.7
1/20/2021 11:45:00 PM 1.68 35.024 0.113 7.05 2.63 13.7
1/21/2021 12:00:00 AM 1.68 35.024 0.113 7.06 2.62 13.7
1/21/2021 12:15:00 AM 1.68 35.024 0.113 7.04 2.55 13.71
1/21/2021 12:30:00 AM 1.68 35.024 0.113 7.07 2.54 13.7
1/21/2021 12:45:00 AM 1.66 34.988 0.113 7.05 2.62 13.7
1/21/2021 1:00:00 AM 1.63 34.934 0.113 7.06 2.58 13.7
1/21/2021 1:15:00 AM 1.61 34.898 0.113 7.06 2.6 13.71
1/21/2021 1:30:00 AM 1.58 34.844 0.113 7.04 2.56 13.71
1/21/2021 1:45:00 AM 1.57 34.826 0.113 7.07 2.6 13.71
1/21/2021 2:00:00 AM 1.56 34.808 0.113 7.06 2.56 13.71
1/21/2021 2:15:00 AM 1.55 34.79 0.113 7.04 2.59 13.71
1/21/2021 2:30:00 AM 1.54 34.772 0.113 7.07 2.59 13.7
1/21/2021 2:45:00 AM 1.53 34.754 0.113 7.06 2.59 13.7
1/21/2021 3:00:00 AM 1.51 34.718 0.113 7.07 2.56 13.7
1/21/2021 3:15:00 AM 1.5 34.7 0.113 7.06 2.56 13.7
1/21/2021 3:30:00 AM 1.48 34.664 0.113 7.05 2.54 13.7
1/21/2021 3:45:00 AM 1.47 34.646 0.113 7.05 2.57 13.7
1/21/2021 4:00:00 AM 1.46 34.628 0.113 7.07 2.61 13.7
1/21/2021 4:15:00 AM 1.46 34.628 0.113 7.05 2.63 13.7
1/21/2021 4:30:00 AM 1.46 34.628 0.113 7.06 2.6 13.69
1/21/2021 4:45:00 AM 1.48 34.664 0.113 7.07 2.63 13.68
1/21/2021 5:00:00 AM 1.51 34.718 0.113 7.05 2.57 13.68
1/21/2021 5:15:00 AM 1.53 34.754 0.113 7.07 2.62 13.67
1/21/2021 5:30:00 AM 1.56 34.808 0.113 7.06 2.62 13.66
1/21/2021 5:45:00 AM 1.58 34.844 0.113 7.08 2.61 13.65
1/21/2021 6:00:00 AM 1.59 34.862 0.113 7.08 2.72 13.64
1/21/2021 6:15:00 AM 1.62 34.916 0.113 7.07 2.63 13.63
1/21/2021 6:30:00 AM 1.64 34.952 0.113 7.06 2.61 13.61
1/21/2021 6:45:00 AM 1.64 34.952 0.113 7.08 2.6 13.61
1/21/2021 7:00:00 AM 1.65 34.97 0.113 7.07 2.6 13.59
1/21/2021 7:15:00 AM 1.67 35.006 0.113 7.07 2.61 13.58
1/21/2021 7:30:00 AM 1.69 35.042 0.113 7.07 2.6 13.58
1/21/2021 7:45:00 AM 1.69 35.042 0.113 7.07 2.58 13.59
1/21/2021 8:00:00 AM 1.71 35.078 0.113 7.07 2.6 13.61
1/21/2021 8:15:00 AM 1.74 35.132 0.113 7.08 2.61 13.63
1/21/2021 8:30:00 AM 1.76 35.168 0.113 7.09 2.59 13.64
1/21/2021 8:45:00 AM 1.77 35.186 0.112 7.08 2.59 13.66
1/21/2021 9:00:00 AM 1.8 35.24 0.112 7.1 2.62 13.7
1/21/2021 9:15:00 AM 1.84 35.312 0.112 7.12 2.63 13.73
1/21/2021 9:30:00 AM 1.88 35.384 0.112 7.13 2.63 13.75
1/21/2021 9:45:00 AM 1.91 35.438 0.112 7.12 2.61 13.78
1/21/2021 10:00:00 AM 1.97 35.546 0.112 7.15 2.6 13.79
1/21/2021 10:15:00 AM 2.03 35.654 0.112 7.15 2.61 13.8
1/21/2021 10:30:00 AM 2.11 35.798 0.112 7.17 2.58 13.81
1/21/2021 10:45:00 AM 2.17 35.906 0.112 7.17 2.59 13.81
1/21/2021 11:00:00 AM 2.22 35.996 0.112 7.16 2.58 13.81
1/21/2021 11:15:00 AM 2.31 36.158 0.112 7.18 2.59 13.82
1/21/2021 11:30:00 AM 2.4 36.32 0.112 7.19 2.58 13.82
1/21/2021 11:45:00 AM 2.46 36.428 0.112 7.18 2.56 13.81
1/21/2021 12:00:00 PM 2.61 36.698 0.112 7.18 2.57 13.78
1/21/2021 12:15:00 PM 2.78 37.004 0.112 7.21 2.57 13.76
1/21/2021 12:30:00 PM 2.93 37.274 0.112 7.21 2.56 13.73
1/21/2021 12:45:00 PM 3.04 37.472 0.112 7.21 2.56 13.69
1/21/2021 1:00:00 PM 3.05 37.49 0.111 7.2 2.95 13.65
1/21/2021 1:15:00 PM 3.3 37.94 0.111 7.21 2.62 13.63
1/21/2021 1:30:00 PM 3.41 38.138 0.111 7.19 2.49 13.61
1/21/2021 1:45:00 PM 3.44 38.192 0.111 7.21 2.51 13.57
1/21/2021 2:00:00 PM 3.41 38.138 0.111 7.18 2.47 13.57
1/21/2021 2:15:00 PM 3.39 38.102 0.111 7.18 2.58 13.56
1/21/2021 2:30:00 PM 3.36 38.048 0.111 7.17 2.54 13.56
1/21/2021 2:45:00 PM 3.27 37.886 0.111 7.15 2.51 13.57
1/21/2021 3:00:00 PM 3.14 37.652 0.111 7.13 2.5 13.57
1/21/2021 3:15:00 PM 3.03 37.454 0.111 7.11 2.5 13.56
1/21/2021 3:30:00 PM 2.93 37.274 0.111 7.09 2.55 13.56
1/21/2021 3:45:00 PM 2.83 37.094 0.111 7.09 2.51 13.56
1/21/2021 4:00:00 PM 2.73 36.914 0.111 7.07 2.5 13.57
1/21/2021 4:15:00 PM 2.62 36.716 0.111 7.06 2.52 13.58
1/21/2021 4:30:00 PM 2.53 36.554 0.111 7.06 2.54 13.58
1/21/2021 4:45:00 PM 2.42 36.356 0.111 7.04 2.53 13.59
1/21/2021 5:00:00 PM 2.32 36.176 0.111 7.03 2.54 13.57
1/21/2021 5:15:00 PM 2.22 35.996 0.111 7.02 2.5 13.57
1/21/2021 5:30:00 PM 2.14 35.852 0.111 7.01 2.52 13.56
1/21/2021 5:45:00 PM 2.07 35.726 0.111 7 2.56 13.55
1/21/2021 6:00:00 PM 2.01 35.618 0.111 7 2.56 13.54
1/21/2021 6:15:00 PM 1.95 35.51 0.111 6.98 2.53 13.54
1/21/2021 6:30:00 PM 1.88 35.384 0.111 7 2.54 13.55
1/21/2021 6:45:00 PM 1.82 35.276 0.111 6.99 2.55 13.56
1/21/2021 7:00:00 PM 1.77 35.186 0.111 6.99 2.5 13.57
1/21/2021 7:15:00 PM 1.74 35.132 0.111 7 2.59 13.58
1/21/2021 7:30:00 PM 1.71 35.078 0.112 6.99 2.51 13.58
1/21/2021 7:45:00 PM 1.68 35.024 0.112 7.01 2.54 13.58
1/21/2021 8:00:00 PM 1.67 35.006 0.112 7.01 2.55 13.58
1/21/2021 8:15:00 PM 1.66 34.988 0.112 7.01 2.55 13.58
1/21/2021 8:30:00 PM 1.65 34.97 0.112 7.01 2.55 13.58
1/21/2021 8:45:00 PM 1.64 34.952 0.112 7.02 2.53 13.58
1/21/2021 9:00:00 PM 1.64 34.952 0.112 7.02 2.54 13.58
1/21/2021 9:15:00 PM 1.64 34.952 0.112 7.03 2.5 13.58
1/21/2021 9:30:00 PM 1.65 34.97 0.112 7.03 2.54 13.58
1/21/2021 9:45:00 PM 1.65 34.97 0.112 7.03 2.54 13.57
1/21/2021 10:00:00 PM 1.66 34.988 0.112 7.03 2.51 13.57
1/21/2021 10:15:00 PM 1.67 35.006 0.112 7.04 2.59 13.57
1/21/2021 10:30:00 PM 1.66 34.988 0.112 7.04 2.53 13.57
1/21/2021 10:45:00 PM 1.65 34.97 0.112 7.02 2.6 13.57
1/21/2021 11:00:00 PM 1.63 34.934 0.112 7.03 2.63 13.57
1/21/2021 11:15:00 PM 1.61 34.898 0.112 7.04 2.58 13.58
1/21/2021 11:30:00 PM 1.61 34.898 0.112 7.03 2.6 13.58
1/21/2021 11:45:00 PM 1.61 34.898 0.112 7.04 2.57 13.58
1/22/2021 12:00:00 AM 1.62 34.916 0.112 7.04 2.53 13.59
1/22/2021 12:15:00 AM 1.63 34.934 0.112 7.05 2.6 13.58
1/22/2021 12:30:00 AM 1.64 34.952 0.112 7.04 2.56 13.58
1/22/2021 12:45:00 AM 1.63 34.934 0.112 7.03 2.6 13.58
1/22/2021 1:00:00 AM 1.63 34.934 0.112 7.04 2.56 13.58
1/22/2021 1:15:00 AM 1.64 34.952 0.112 7.04 2.62 13.59
1/22/2021 1:30:00 AM 1.65 34.97 0.112 7.04 2.55 13.58
1/22/2021 1:45:00 AM 1.66 34.988 0.112 7.04 2.58 13.58
1/22/2021 2:00:00 AM 1.68 35.024 0.112 7.05 2.55 13.58
1/22/2021 2:15:00 AM 1.7 35.06 0.112 7.02 2.53 13.56
1/22/2021 2:30:00 AM 1.72 35.096 0.112 7.06 2.56 13.55
1/22/2021 2:45:00 AM 1.74 35.132 0.112 7.05 2.55 13.55
1/22/2021 3:00:00 AM 1.77 35.186 0.112 7.05 2.63 13.54
1/22/2021 3:15:00 AM 1.78 35.204 0.112 7.06 2.63 13.54
1/22/2021 3:30:00 AM 1.8 35.24 0.112 7.06 2.64 13.53
1/22/2021 3:45:00 AM 1.82 35.276 0.112 7.06 2.63 13.53
1/22/2021 4:00:00 AM 1.84 35.312 0.112 7.05 2.62 13.52
1/22/2021 4:15:00 AM 1.84 35.312 0.112 7.06 2.6 13.52
1/22/2021 4:30:00 AM 1.85 35.33 0.112 7.05 2.6 13.51
1/22/2021 4:45:00 AM 1.86 35.348 0.112 7.06 2.58 13.51
1/22/2021 5:00:00 AM 1.87 35.366 0.112 7.05 2.58 13.5
1/22/2021 5:15:00 AM 1.89 35.402 0.112 7.05 2.6 13.49
1/22/2021 5:30:00 AM 1.9 35.42 0.112 7.05 2.57 13.5
1/22/2021 5:45:00 AM 1.91 35.438 0.112 7.05 2.56 13.5
1/22/2021 6:00:00 AM 1.92 35.456 0.112 7.04 2.59 13.49
1/22/2021 6:15:00 AM 1.93 35.474 0.112 7.05 2.55 13.49
1/22/2021 6:30:00 AM 1.94 35.492 0.112 7.03 2.59 13.48
1/22/2021 6:45:00 AM 1.95 35.51 0.112 7.05 2.54 13.49
1/22/2021 7:00:00 AM 1.95 35.51 0.112 7.03 2.55 13.48
1/22/2021 7:15:00 AM 1.96 35.528 0.112 7.05 2.61 13.47
1/22/2021 7:30:00 AM 1.96 35.528 0.112 7.05 2.63 13.48
1/22/2021 7:45:00 AM 1.96 35.528 0.112 7.04 2.61 13.5
1/22/2021 8:00:00 AM 1.96 35.528 0.112 7.06 2.59 13.53
1/22/2021 8:15:00 AM 1.96 35.528 0.112 7.05 2.58 13.57
1/22/2021 8:30:00 AM 1.98 35.564 0.112 7.06 2.54 13.61
1/22/2021 8:45:00 AM 2.01 35.618 0.112 7.09 2.63 13.66
1/22/2021 9:00:00 AM 2.04 35.672 0.112 7.1 2.56 13.7
1/22/2021 9:15:00 AM 2.06 35.708 0.112 7.1 2.6 13.74
1/22/2021 9:30:00 AM 2.09 35.762 0.112 7.12 2.55 13.77
1/22/2021 9:45:00 AM 2.13 35.834 0.112 7.14 2.56 13.79
1/22/2021 10:00:00 AM 2.18 35.924 0.112 7.15 2.53 13.83
1/22/2021 10:15:00 AM 2.25 36.05 0.112 7.14 2.52 13.84
1/22/2021 10:30:00 AM 2.32 36.176 0.112 7.16 2.55 13.85
1/22/2021 10:45:00 AM 2.36 36.248 0.112 7.18 2.49 13.86
1/22/2021 11:00:00 AM 2.44 36.392 0.112 7.18 2.51 13.86
1/22/2021 11:15:00 AM 2.5 36.5 0.112 7.18 2.54 13.86
1/22/2021 11:30:00 AM 2.56 36.608 0.112 7.2 2.51 13.86
1/22/2021 11:45:00 AM 2.61 36.698 0.112 7.19 2.49 13.85
1/22/2021 12:00:00 PM 2.7 36.86 0.112 7.2 2.56 13.84
1/22/2021 12:15:00 PM 2.72 36.896 0.112 7.2 2.52 13.82
1/22/2021 12:30:00 PM 2.69 36.842 0.112 7.18 2.53 13.8
1/22/2021 12:45:00 PM 2.65 36.77 0.112 7.17 2.52 13.79
1/22/2021 1:00:00 PM 2.64 36.752 0.112 7.18 2.52 13.79
1/22/2021 1:15:00 PM 2.64 36.752 0.112 7.18 2.52 13.79
1/22/2021 1:30:00 PM 2.67 36.806 0.112 7.16 2.52 13.81
1/22/2021 1:45:00 PM 2.67 36.806 0.112 7.18 2.52 13.81
1/22/2021 2:00:00 PM 2.67 36.806 0.112 7.18 2.54 13.81
1/22/2021 2:15:00 PM 2.67 36.806 0.112 7.18 2.52 13.81
1/22/2021 2:30:00 PM 2.62 36.716 0.112 7.18 2.52 13.81
1/22/2021 2:45:00 PM 2.59 36.662 0.112 7.17 2.48 13.82
1/22/2021 3:00:00 PM 2.56 36.608 0.112 7.15 2.47 13.82
1/22/2021 3:15:00 PM 2.48 36.464 0.112 7.14 2.49 13.83
1/22/2021 3:30:00 PM 2.45 36.41 0.112 7.15 2.51 13.82
1/22/2021 3:45:00 PM 2.42 36.356 0.112 7.15 2.51 13.79
1/22/2021 4:00:00 PM 2.37 36.266 0.112 7.13 2.48 13.75
1/22/2021 4:15:00 PM 2.33 36.194 0.112 7.12 2.48 13.75
1/22/2021 4:30:00 PM 2.29 36.122 0.112 7.1 2.56 13.74
1/22/2021 4:45:00 PM 2.25 36.05 0.112 7.07 2.54 13.73
1/22/2021 5:00:00 PM 2.2 35.96 0.112 7.09 2.52 13.69
1/22/2021 5:15:00 PM 2.17 35.906 0.112 7.07 2.52 13.67
1/22/2021 5:30:00 PM 2.15 35.87 0.112 7.07 2.56 13.65
1/22/2021 5:45:00 PM 2.12 35.816 0.112 7.04 2.51 13.64
1/22/2021 6:00:00 PM 2.1 35.78 0.112 7.06 2.47 13.63
1/22/2021 6:15:00 PM 2.07 35.726 0.112 7.05 2.52 13.62
1/22/2021 6:30:00 PM 2.04 35.672 0.112 7.03 2.49 13.61
1/22/2021 6:45:00 PM 2.01 35.618 0.112 7.05 2.52 13.61
1/22/2021 7:00:00 PM 1.98 35.564 0.112 7.03 2.51 13.61
1/22/2021 7:15:00 PM 1.94 35.492 0.112 7.04 2.56 13.61
1/22/2021 7:30:00 PM 1.92 35.456 0.112 7.04 2.54 13.61
1/22/2021 7:45:00 PM 1.88 35.384 0.112 7.03 2.5 13.61
1/22/2021 8:00:00 PM 1.86 35.348 0.112 7.04 2.52 13.61
1/22/2021 8:15:00 PM 1.83 35.294 0.112 7.04 2.48 13.63
1/22/2021 8:30:00 PM 1.81 35.258 0.112 7.04 2.53 13.63
1/22/2021 8:45:00 PM 1.79 35.222 0.112 7.02 2.57 13.64
1/22/2021 9:00:00 PM 1.77 35.186 0.112 7.03 2.51 13.65
1/22/2021 9:15:00 PM 1.74 35.132 0.112 7.04 2.5 13.65
1/22/2021 9:30:00 PM 1.73 35.114 0.112 7.04 2.57 13.66
1/22/2021 9:45:00 PM 1.71 35.078 0.112 7.02 2.49 13.66
1/22/2021 10:00:00 PM 1.69 35.042 0.112 7.03 2.53 13.67
1/22/2021 10:15:00 PM 1.67 35.006 0.112 7.02 2.54 13.68
1/22/2021 10:30:00 PM 1.65 34.97 0.112 7.03 2.51 13.69
1/22/2021 10:45:00 PM 1.63 34.934 0.112 7.03 2.48 13.69
1/22/2021 11:00:00 PM 1.62 34.916 0.112 7.03 2.49 13.7
1/22/2021 11:15:00 PM 1.6 34.88 0.112 7.02 2.53 13.71
1/22/2021 11:30:00 PM 1.58 34.844 0.112 7.03 2.5 13.72
1/22/2021 11:45:00 PM 1.56 34.808 0.112 7.03 2.52 13.72
1/23/2021 12:00:00 AM 1.55 34.79 0.112 7.04 2.52 13.72
1/23/2021 12:15:00 AM 1.54 34.772 0.112 7.03 2.51 13.72
1/23/2021 12:30:00 AM 1.52 34.736 0.112 7.01 2.52 13.73
1/23/2021 12:45:00 AM 1.5 34.7 0.112 7.04 2.52 13.74
1/23/2021 1:00:00 AM 1.48 34.664 0.112 7.02 2.49 13.74
1/23/2021 1:15:00 AM 1.46 34.628 0.112 7.03 2.56 13.74
1/23/2021 1:30:00 AM 1.46 34.628 0.112 7.04 2.56 13.74
1/23/2021 1:45:00 AM 1.43 34.574 0.112 7.02 2.58 13.75
1/23/2021 2:00:00 AM 1.44 34.592 0.112 7.03 2.59 13.74
1/23/2021 2:15:00 AM 1.45 34.61 0.111 7.05 2.58 13.74
1/23/2021 2:30:00 AM 1.45 34.61 0.111 7.04 2.58 13.74
1/23/2021 2:45:00 AM 1.44 34.592 0.111 7.04 2.62 13.75
1/23/2021 3:00:00 AM 1.45 34.61 0.111 7.02 2.55 13.74
1/23/2021 3:15:00 AM 1.45 34.61 0.111 7.05 2.56 13.74
1/23/2021 3:30:00 AM 1.46 34.628 0.111 7.05 2.57 13.74
1/23/2021 3:45:00 AM 1.47 34.646 0.111 7.05 2.64 13.73
1/23/2021 4:00:00 AM 1.47 34.646 0.111 7.05 2.6 13.73
1/23/2021 4:15:00 AM 1.47 34.646 0.111 7.05 2.5 13.73
1/23/2021 4:30:00 AM 1.46 34.628 0.111 7.05 2.53 13.73
1/23/2021 4:45:00 AM 1.45 34.61 0.111 7.05 2.54 13.73
1/23/2021 5:00:00 AM 1.46 34.628 0.111 7.05 2.56 13.74
1/23/2021 5:15:00 AM 1.47 34.646 0.111 7.04 2.5 13.73
1/23/2021 5:30:00 AM 1.47 34.646 0.111 7.05 2.52 13.73
1/23/2021 5:45:00 AM 1.47 34.646 0.111 7.05 2.55 13.73
1/23/2021 6:00:00 AM 1.48 34.664 0.111 7.03 2.52 13.73
1/23/2021 6:15:00 AM 1.48 34.664 0.111 7.05 2.51 13.73
1/23/2021 6:30:00 AM 1.5 34.7 0.111 7.05 2.5 13.73
1/23/2021 6:45:00 AM 1.48 34.664 0.111 7.04 2.53 13.74
1/23/2021 7:00:00 AM 1.49 34.682 0.111 7.05 2.46 13.74
1/23/2021 7:15:00 AM 1.47 34.646 0.111 7.05 2.52 13.74
1/23/2021 7:30:00 AM 1.47 34.646 0.111 7.04 2.52 13.76
1/23/2021 7:45:00 AM 1.47 34.646 0.111 7.04 2.52 13.78
1/23/2021 8:00:00 AM 1.46 34.628 0.111 7.06 2.49 13.82
1/23/2021 8:15:00 AM 1.48 34.664 0.111 7.07 2.54 13.86
1/23/2021 8:30:00 AM 1.49 34.682 0.11 7.08 2.55 13.89
1/23/2021 8:45:00 AM 1.51 34.718 0.11 7.1 2.51 13.92
1/23/2021 9:00:00 AM 1.52 34.736 0.11 7.1 2.52 13.97
1/23/2021 9:15:00 AM 1.55 34.79 0.11 7.1 2.52 14.01
1/23/2021 9:30:00 AM 1.56 34.808 0.11 7.12 2.55 14.05
1/23/2021 9:45:00 AM 1.57 34.826 0.11 7.13 2.46 14.07
1/23/2021 10:00:00 AM 1.6 34.88 0.11 7.14 2.55 14.11
1/23/2021 10:15:00 AM 1.64 34.952 0.11 7.15 2.5 14.14
1/23/2021 10:30:00 AM 1.67 35.006 0.11 7.16 2.56 14.16
1/23/2021 10:45:00 AM 1.72 35.096 0.11 7.17 2.57 14.17
1/23/2021 11:00:00 AM 1.77 35.186 0.11 7.17 2.5 14.19
1/23/2021 11:15:00 AM 1.83 35.294 0.11 7.19 2.47 14.19
1/23/2021 11:30:00 AM 1.85 35.33 0.11 7.19 2.54 14.21
1/23/2021 11:45:00 AM 1.86 35.348 0.11 7.19 2.48 14.22
1/23/2021 12:00:00 PM 1.89 35.402 0.11 7.18 2.46 14.22
1/23/2021 12:15:00 PM 1.95 35.51 0.11 7.2 2.49 14.22
1/23/2021 12:30:00 PM 1.99 35.582 0.11 7.2 2.48 14.22
1/23/2021 12:45:00 PM 2 35.6 0.11 7.2 2.47 14.22
1/23/2021 1:00:00 PM 2.04 35.672 0.11 7.19 2.49 14.22
1/23/2021 1:15:00 PM 2.06 35.708 0.11 7.2 2.47 14.22
1/23/2021 1:30:00 PM 2.04 35.672 0.11 7.19 2.47 14.22
1/23/2021 1:45:00 PM 2.02 35.636 0.11 7.19 83.88 14.22
1/23/2021 2:00:00 PM 2.02 35.636 0.11 7.2 2.55 14.23
1/23/2021 2:15:00 PM 2.03 35.654 0.11 7.19 2.82 14.23
1/23/2021 2:30:00 PM 1.99 35.582 0.11 7.19 2.49 14.24
1/23/2021 2:45:00 PM 1.99 35.582 0.11 7.18 2.54 14.25
1/23/2021 3:00:00 PM 1.96 35.528 0.11 7.16 2.52 14.25
1/23/2021 3:15:00 PM 1.96 35.528 0.11 7.19 2.52 14.24
1/23/2021 3:30:00 PM 1.94 35.492 0.11 7.19 2.53 14.25
1/23/2021 3:45:00 PM 1.92 35.456 0.11 7.18 2.5 14.25
1/23/2021 4:00:00 PM 1.89 35.402 0.11 7.17 2.52 14.24
1/23/2021 4:15:00 PM 1.83 35.294 0.11 7.16 2.57 14.22
1/23/2021 4:30:00 PM 1.77 35.186 0.11 7.15 2.54 14.2
1/23/2021 4:45:00 PM 1.71 35.078 0.111 7.15 2.55 14.17
1/23/2021 5:00:00 PM 1.64 34.952 0.111 7.11 2.58 14.14
1/23/2021 5:15:00 PM 1.59 34.862 0.111 7.1 2.61 14.1
1/23/2021 5:30:00 PM 1.54 34.772 0.111 7.08 2.55 14.07
1/23/2021 5:45:00 PM 1.49 34.682 0.111 7.08 2.6 14.04
1/23/2021 6:00:00 PM 1.46 34.628 0.111 7.06 2.61 14.02
1/23/2021 6:15:00 PM 1.41 34.538 0.111 7.06 2.6 14.01
1/23/2021 6:30:00 PM 1.38 34.484 0.111 7.04 2.59 14
1/23/2021 6:45:00 PM 1.34 34.412 0.111 7.06 2.56 14
1/23/2021 7:00:00 PM 1.3 34.34 0.111 7.03 2.58 14
1/23/2021 7:15:00 PM 1.28 34.304 0.111 7.06 2.59 13.99
1/23/2021 7:30:00 PM 1.26 34.268 0.111 7.04 2.59 13.98
1/23/2021 7:45:00 PM 1.24 34.232 0.112 7.05 2.6 13.97
1/23/2021 8:00:00 PM 1.21 34.178 0.112 7.04 2.56 13.97
1/23/2021 8:15:00 PM 1.19 34.142 0.112 7.05 2.56 13.97
1/23/2021 8:30:00 PM 1.17 34.106 0.112 7.03 2.54 13.97
1/23/2021 8:45:00 PM 1.15 34.07 0.112 7.04 2.6 13.98
1/23/2021 9:00:00 PM 1.13 34.034 0.111 7.04 2.56 13.98
1/23/2021 9:15:00 PM 1.12 34.016 0.111 7.04 2.55 13.98
1/23/2021 9:30:00 PM 1.11 33.998 0.111 7.02 2.52 13.99
1/23/2021 9:45:00 PM 1.09 33.962 0.111 7.04 2.54 13.99
1/23/2021 10:00:00 PM 1.08 33.944 0.111 7.03 2.52 14
1/23/2021 10:15:00 PM 1.07 33.926 0.111 7.02 2.53 14
1/23/2021 10:30:00 PM 1.05 33.89 0.111 7.05 2.51 14
1/23/2021 10:45:00 PM 1.04 33.872 0.111 7.03 2.53 14.01
1/23/2021 11:00:00 PM 1.03 33.854 0.111 7.04 2.53 14.03
1/23/2021 11:15:00 PM 1 33.8 0.111 7.04 2.49 14.02
1/23/2021 11:30:00 PM 0.99 33.782 0.111 7.02 2.51 14.03
1/23/2021 11:45:00 PM 0.97 33.746 0.111 7.04 2.5 14.04
1/24/2021 12:00:00 AM 0.94 33.692 0.111 7.04 2.53 14.05
1/24/2021 12:15:00 AM 0.91 33.638 0.111 7.04 2.48 14.06
1/24/2021 12:30:00 AM 0.89 33.602 0.111 7.04 2.51 14.07
1/24/2021 12:45:00 AM 0.86 33.548 0.111 7.03 2.5 14.07
1/24/2021 1:00:00 AM 0.85 33.53 0.111 7.04 2.51 14.07
1/24/2021 1:15:00 AM 0.83 33.494 0.112 7.03 2.49 14.08
1/24/2021 1:30:00 AM 0.81 33.458 0.111 7.02 2.52 14.08
1/24/2021 1:45:00 AM 0.8 33.44 0.111 7.03 2.47 14.09
1/24/2021 2:00:00 AM 0.78 33.404 0.111 7.02 2.49 14.08
1/24/2021 2:15:00 AM 0.77 33.386 0.111 7.04 2.49 14.09
1/24/2021 2:30:00 AM 0.76 33.368 0.111 7.02 2.47 14.1
1/24/2021 2:45:00 AM 0.74 33.332 0.111 7.04 2.53 14.1
1/24/2021 3:00:00 AM 0.74 33.332 0.111 7.04 2.48 14.11
1/24/2021 3:15:00 AM 0.73 33.314 0.111 7.02 2.53 14.1
1/24/2021 3:30:00 AM 0.72 33.296 0.111 7.03 2.49 14.1
1/24/2021 3:45:00 AM 0.71 33.278 0.111 7.04 2.46 14.11
1/24/2021 4:00:00 AM 0.69 33.242 0.111 7.04 2.47 14.11
1/24/2021 4:15:00 AM 0.68 33.224 0.111 7.04 2.5 14.12
1/24/2021 4:30:00 AM 0.67 33.206 0.111 7.03 2.49 14.12
1/24/2021 4:45:00 AM 0.68 33.224 0.111 7.04 2.52 14.12
1/24/2021 5:00:00 AM 0.67 33.206 0.111 7.04 2.54 14.13
1/24/2021 5:15:00 AM 0.66 33.188 0.111 7.03 2.51 14.13
1/24/2021 5:30:00 AM 0.66 33.188 0.111 7.05 2.5 14.14
1/24/2021 5:45:00 AM 0.64 33.152 0.111 7.03 2.53 14.14
1/24/2021 6:00:00 AM 0.63 33.134 0.112 7.04 2.5 14.14
1/24/2021 6:15:00 AM 0.62 33.116 0.112 7.03 2.48 14.15
1/24/2021 6:30:00 AM 0.61 33.098 0.112 7.05 2.53 14.15
1/24/2021 6:45:00 AM 0.6 33.08 0.112 7.04 2.47 14.15
1/24/2021 7:00:00 AM 0.6 33.08 0.112 7.05 2.5 14.16
1/24/2021 7:15:00 AM 0.59 33.062 0.112 7.05 2.49 14.16
1/24/2021 7:30:00 AM 0.58 33.044 0.112 7.05 2.47 14.17
1/24/2021 7:45:00 AM 0.57 33.026 0.112 7.05 2.47 14.19
1/24/2021 8:00:00 AM 0.56 33.008 0.112 7.05 2.47 14.24
1/24/2021 8:15:00 AM 0.56 33.008 0.112 7.07 2.49 14.28
1/24/2021 8:30:00 AM 0.56 33.008 0.112 7.06 2.49 14.32
1/24/2021 8:45:00 AM 0.57 33.026 0.112 7.09 2.49 14.36
1/24/2021 9:00:00 AM 0.58 33.044 0.112 7.09 2.45 14.4
1/24/2021 9:15:00 AM 0.61 33.098 0.111 7.1 2.52 14.43
1/24/2021 9:30:00 AM 0.63 33.134 0.111 7.11 2.46 14.46
1/24/2021 9:45:00 AM 0.66 33.188 0.111 7.11 2.47 14.48
1/24/2021 10:00:00 AM 0.69 33.242 0.111 7.11 2.45 14.5
1/24/2021 10:15:00 AM 0.71 33.278 0.111 7.14 2.43 14.52
1/24/2021 10:30:00 AM 0.75 33.35 0.111 7.15 2.46 14.54
1/24/2021 10:45:00 AM 0.81 33.458 0.111 7.16 2.43 14.55
1/24/2021 11:00:00 AM 0.88 33.584 0.111 7.16 2.46 14.56
1/24/2021 11:15:00 AM 0.95 33.71 0.111 7.17 2.42 14.56
1/24/2021 11:30:00 AM 1.05 33.89 0.111 7.16 2.43 14.54
1/24/2021 11:45:00 AM 1.17 34.106 0.111 7.19 2.42 14.53
1/24/2021 12:00:00 PM 1.31 34.358 0.111 7.2 2.37 14.52
1/24/2021 12:15:00 PM 1.43 34.574 0.111 7.2 2.41 14.49
1/24/2021 12:30:00 PM 1.54 34.772 0.111 7.21 2.41 14.47
1/24/2021 12:45:00 PM 1.6 34.88 0.111 7.21 2.37 14.44
1/24/2021 1:00:00 PM 1.62 34.916 0.111 7.2 2.39 14.43
1/24/2021 1:15:00 PM 1.71 35.078 0.111 7.2 2.38 14.42
1/24/2021 1:30:00 PM 1.78 35.204 0.111 7.19 2.34 14.4
1/24/2021 1:45:00 PM 1.84 35.312 0.111 7.19 2.42 14.38
1/24/2021 2:00:00 PM 1.93 35.474 0.111 7.2 2.4 14.36
1/24/2021 2:15:00 PM 1.89 35.402 0.111 7.19 2.39 14.35
1/24/2021 2:30:00 PM 1.83 35.294 0.111 7.17 2.41 14.35
1/24/2021 2:45:00 PM 1.81 35.258 0.111 7.18 2.4 14.34
1/24/2021 3:00:00 PM 1.8 35.24 0.111 7.17 2.41 14.33
1/24/2021 3:15:00 PM 1.81 35.258 0.111 7.17 2.37 14.31
1/24/2021 3:30:00 PM 1.81 35.258 0.111 7.17 2.39 14.3
1/24/2021 3:45:00 PM 1.8 35.24 0.111 7.16 2.41 14.29
1/24/2021 4:00:00 PM 1.78 35.204 0.111 7.16 2.43 14.28
1/24/2021 4:15:00 PM 1.75 35.15 0.111 7.16 2.46 14.27
1/24/2021 4:30:00 PM 1.73 35.114 0.111 7.15 2.42 14.25
1/24/2021 4:45:00 PM 1.7 35.06 0.111 7.14 2.45 14.2
1/24/2021 5:00:00 PM 1.67 35.006 0.111 7.14 2.43 14.16
1/24/2021 5:15:00 PM 1.64 34.952 0.111 7.12 2.4 14.1
1/24/2021 5:30:00 PM 1.61 34.898 0.111 7.08 2.43 14.06
1/24/2021 5:45:00 PM 1.58 34.844 0.111 7.09 2.43 14.01
1/24/2021 6:00:00 PM 1.54 34.772 0.111 7.08 2.42 13.98
1/24/2021 6:15:00 PM 1.51 34.718 0.111 7.07 2.42 13.97
1/24/2021 6:30:00 PM 1.48 34.664 0.112 7.06 2.46 13.95
1/24/2021 6:45:00 PM 1.44 34.592 0.112 7.04 2.4 13.94
1/24/2021 7:00:00 PM 1.41 34.538 0.112 7.05 2.45 13.94
1/24/2021 7:15:00 PM 1.38 34.484 0.112 7.04 2.45 13.93
1/24/2021 7:30:00 PM 1.35 34.43 0.112 7.04 2.43 13.92
1/24/2021 7:45:00 PM 1.33 34.394 0.112 7.04 2.42 13.92
1/24/2021 8:00:00 PM 1.3 34.34 0.112 7.04 2.46 13.91
1/24/2021 8:15:00 PM 1.27 34.286 0.112 7.04 2.39 13.91
1/24/2021 8:30:00 PM 1.25 34.25 0.112 7.04 2.42 13.91
1/24/2021 8:45:00 PM 1.23 34.214 0.112 7.03 2.48 13.91
1/24/2021 9:00:00 PM 1.21 34.178 0.112 7.04 2.5 13.92
1/24/2021 9:15:00 PM 1.19 34.142 0.112 7.04 2.42 13.91
1/24/2021 9:30:00 PM 1.17 34.106 0.112 7.03 2.53 13.93
1/24/2021 9:45:00 PM 1.16 34.088 0.112 7.04 2.46 13.93
1/24/2021 10:00:00 PM 1.14 34.052 0.112 7.03 2.45 13.93
1/24/2021 10:15:00 PM 1.14 34.052 0.112 7.04 2.47 13.94
1/24/2021 10:30:00 PM 1.12 34.016 0.112 7.03 2.49 13.94
1/24/2021 10:45:00 PM 1.11 33.998 0.112 7.05 2.44 13.95
1/24/2021 11:00:00 PM 1.1 33.98 0.112 7.04 2.42 13.96
1/24/2021 11:15:00 PM 1.09 33.962 0.112 7.04 2.42 13.96
1/24/2021 11:30:00 PM 1.08 33.944 0.112 7.04 2.45 13.97
1/24/2021 11:45:00 PM 1.07 33.926 0.112 7.04 2.43 13.97
1/25/2021 12:00:00 AM 1.06 33.908 0.112 7.04 2.4 13.98
1/25/2021 12:15:00 AM 1.05 33.89 0.112 7.04 2.45 13.98
1/25/2021 12:30:00 AM 1.04 33.872 0.112 7.04 2.41 13.98
1/25/2021 12:45:00 AM 1.03 33.854 0.112 7.03 2.43 13.98
1/25/2021 1:00:00 AM 1.02 33.836 0.112 7.03 2.42 13.98
1/25/2021 1:15:00 AM 1.02 33.836 0.112 7.03 2.52 13.98
1/25/2021 1:30:00 AM 1.01 33.818 0.113 7.05 2.45 13.99
1/25/2021 1:45:00 AM 1.01 33.818 0.113 7.05 2.48 13.99
1/25/2021 2:00:00 AM 1 33.8 0.113 7.05 2.64 13.99
1/25/2021 2:15:00 AM 0.99 33.782 0.113 7.03 2.7 14
1/25/2021 2:30:00 AM 0.99 33.782 0.113 7.04 2.46 13.99
1/25/2021 2:45:00 AM 0.98 33.764 0.113 7.05 2.42 14
1/25/2021 3:00:00 AM 0.97 33.746 0.113 7.05 2.46 14.01
1/25/2021 3:15:00 AM 0.96 33.728 0.113 7.05 2.42 14.01
1/25/2021 3:30:00 AM 0.95 33.71 0.113 7.05 2.47 14.01
1/25/2021 3:45:00 AM 0.94 33.692 0.113 7.04 2.44 14.01
1/25/2021 4:00:00 AM 0.92 33.656 0.113 7.03 2.42 14.01
1/25/2021 4:15:00 AM 0.89 33.602 0.113 7.04 2.44 14.02
1/25/2021 4:30:00 AM 0.86 33.548 0.113 7.03 2.45 14.02
1/25/2021 4:45:00 AM 0.84 33.512 0.113 7.04 2.46 14.02
1/25/2021 5:00:00 AM 0.83 33.494 0.113 7.04 2.47 14.03
1/25/2021 5:15:00 AM 0.83 33.494 0.113 7.04 2.52 14.03
1/25/2021 5:30:00 AM 0.82 33.476 0.113 7.04 2.56 14.03
1/25/2021 5:45:00 AM 0.82 33.476 0.113 7.04 2.47 14.04
1/25/2021 6:00:00 AM 0.82 33.476 0.113 7.04 2.49 14.04
1/25/2021 6:15:00 AM 0.82 33.476 0.113 7.04 2.48 14.03
1/25/2021 6:30:00 AM 0.81 33.458 0.113 7.03 2.47 14.04
1/25/2021 6:45:00 AM 0.81 33.458 0.113 7.04 2.46 14.04
1/25/2021 7:00:00 AM 0.79 33.422 0.113 7.03 2.46 14.05
1/25/2021 7:15:00 AM 0.79 33.422 0.113 7.04 2.48 14.05
1/25/2021 7:30:00 AM 0.78 33.404 0.112 7.05 2.45 14.06
1/25/2021 7:45:00 AM 0.78 33.404 0.112 7.05 2.46 14.08
1/25/2021 8:00:00 AM 0.79 33.422 0.112 7.06 2.49 14.11
1/25/2021 8:15:00 AM 0.8 33.44 0.112 7.05 2.43 14.15
1/25/2021 8:30:00 AM 0.82 33.476 0.112 7.08 2.43 14.21
1/25/2021 8:45:00 AM 0.85 33.53 0.112 7.1 2.44 14.27
1/25/2021 9:00:00 AM 0.88 33.584 0.112 7.1 2.42 14.32
1/25/2021 9:15:00 AM 0.91 33.638 0.112 7.13 2.43 14.35
1/25/2021 9:30:00 AM 0.94 33.692 0.112 7.12 2.48 14.38
1/25/2021 9:45:00 AM 0.97 33.746 0.112 7.15 2.41 14.4
1/25/2021 10:00:00 AM 1.01 33.818 0.112 7.15 2.43 14.41
1/25/2021 10:15:00 AM 1.07 33.926 0.112 7.16 2.47 14.43
1/25/2021 10:30:00 AM 1.15 34.07 0.112 7.17 2.43 14.44
1/25/2021 10:45:00 AM 1.21 34.178 0.112 7.18 2.47 14.44
1/25/2021 11:00:00 AM 1.27 34.286 0.112 7.17 2.44 14.45
1/25/2021 11:15:00 AM 1.37 34.466 0.112 7.2 2.44 14.45
1/25/2021 11:30:00 AM 1.5 34.7 0.112 7.21 2.42 14.43
1/25/2021 11:45:00 AM 1.63 34.934 0.112 7.22 2.41 14.41
1/25/2021 12:00:00 PM 1.74 35.132 0.112 7.22 2.42 14.39
1/25/2021 12:15:00 PM 1.83 35.294 0.112 7.22 2.4 14.36
1/25/2021 12:30:00 PM 1.9 35.42 0.112 7.23 2.41 14.33
1/25/2021 12:45:00 PM 1.94 35.492 0.112 7.22 2.5 14.32
1/25/2021 1:00:00 PM 2.04 35.672 0.112 7.21 2.4 14.29
1/25/2021 1:15:00 PM 2.09 35.762 0.112 7.23 2.39 14.27
1/25/2021 1:30:00 PM 2.15 35.87 0.112 7.22 2.39 14.25
1/25/2021 1:45:00 PM 2.21 35.978 0.112 7.22 2.42 14.24
1/25/2021 2:00:00 PM 2.18 35.924 0.112 7.22 2.45 14.23
1/25/2021 2:15:00 PM 2.17 35.906 0.112 7.21 2.41 14.21
1/25/2021 2:30:00 PM 2.18 35.924 0.112 7.21 2.41 14.21
1/25/2021 2:45:00 PM 2.18 35.924 0.112 7.21 2.38 14.2
1/25/2021 3:00:00 PM 2.15 35.87 0.112 7.18 2.43 14.19
1/25/2021 3:15:00 PM 2.14 35.852 0.112 7.2 2.43 14.18
1/25/2021 3:30:00 PM 2.12 35.816 0.112 7.19 2.38 14.17
1/25/2021 3:45:00 PM 2.1 35.78 0.112 7.19 2.42 14.17
1/25/2021 4:00:00 PM 2.07 35.726 0.112 7.18 2.41 14.16
1/25/2021 4:15:00 PM 2.04 35.672 0.112 7.17 2.38 14.13
1/25/2021 4:30:00 PM 2 35.6 0.112 7.14 2.4 14.09
1/25/2021 4:45:00 PM 1.97 35.546 0.112 7.15 2.44 14.05
1/25/2021 5:00:00 PM 1.93 35.474 0.112 7.14 2.41 14.01
1/25/2021 5:15:00 PM 1.88 35.384 0.112 7.11 2.41 13.97
1/25/2021 5:30:00 PM 1.82 35.276 0.112 7.09 2.44 13.92
1/25/2021 5:45:00 PM 1.77 35.186 0.112 7.09 2.41 13.89
1/25/2021 6:00:00 PM 1.72 35.096 0.113 7.08 2.44 13.87
1/25/2021 6:15:00 PM 1.67 35.006 0.113 7.08 2.42 13.85
1/25/2021 6:30:00 PM 1.63 34.934 0.113 7.07 2.43 13.84
1/25/2021 6:45:00 PM 1.58 34.844 0.113 7.06 2.44 13.84
1/25/2021 7:00:00 PM 1.54 34.772 0.113 7.05 2.46 13.84
1/25/2021 7:15:00 PM 1.51 34.718 0.113 7.05 2.47 13.83
1/25/2021 7:30:00 PM 1.47 34.646 0.113 7.04 2.44 13.84
1/25/2021 7:45:00 PM 1.43 34.574 0.114 7.03 2.47 13.83
1/25/2021 8:00:00 PM 1.4 34.52 0.114 7.03 2.42 13.83
1/25/2021 8:15:00 PM 1.37 34.466 0.114 7.03 2.43 13.84
1/25/2021 8:30:00 PM 1.34 34.412 0.114 7.03 2.41 13.84
1/25/2021 8:45:00 PM 1.32 34.376 0.114 7.02 2.43 13.84
1/25/2021 9:00:00 PM 1.29 34.322 0.114 7.03 2.43 13.85
1/25/2021 9:15:00 PM 1.28 34.304 0.114 7.03 2.46 13.85
1/25/2021 9:30:00 PM 1.26 34.268 0.114 7.03 2.42 13.85
1/25/2021 9:45:00 PM 1.25 34.25 0.114 7.03 2.42 13.86
1/25/2021 10:00:00 PM 1.24 34.232 0.114 7.03 2.43 13.86
1/25/2021 10:15:00 PM 1.24 34.232 0.114 7.03 2.41 13.87
1/25/2021 10:30:00 PM 1.23 34.214 0.114 7.04 2.42 13.86
1/25/2021 10:45:00 PM 1.23 34.214 0.114 7.04 2.42 13.87
1/25/2021 11:00:00 PM 1.22 34.196 0.114 7.04 2.44 13.88
1/25/2021 11:15:00 PM 1.22 34.196 0.114 7.04 2.39 13.87
1/25/2021 11:30:00 PM 1.21 34.178 0.114 7.04 2.39 13.87
1/25/2021 11:45:00 PM 1.21 34.178 0.114 7.02 2.41 13.88
1/26/2021 12:00:00 AM 1.21 34.178 0.114 7.04 2.42 13.88
1/26/2021 12:15:00 AM 1.21 34.178 0.114 7.04 2.42 13.88
1/26/2021 12:30:00 AM 1.2 34.16 0.115 7.04 2.43 13.88
1/26/2021 12:45:00 AM 1.2 34.16 0.115 7.03 2.45 13.88
1/26/2021 1:00:00 AM 1.19 34.142 0.114 7.03 2.45 13.88
1/26/2021 1:15:00 AM 1.19 34.142 0.114 7.05 2.44 13.88
1/26/2021 1:30:00 AM 1.19 34.142 0.114 7.04 2.45 13.88
1/26/2021 1:45:00 AM 1.19 34.142 0.114 7.04 2.44 13.88
1/26/2021 2:00:00 AM 1.2 34.16 0.114 7.05 2.4 13.87
1/26/2021 2:15:00 AM 1.19 34.142 0.114 7.04 2.51 13.88
1/26/2021 2:30:00 AM 1.2 34.16 0.114 7.05 2.42 13.86
1/26/2021 2:45:00 AM 1.2 34.16 0.114 7.04 2.45 13.86
1/26/2021 3:00:00 AM 1.21 34.178 0.114 7.04 2.44 13.86
1/26/2021 3:15:00 AM 1.21 34.178 0.114 7.03 2.42 13.86
1/26/2021 3:30:00 AM 1.21 34.178 0.114 7.04 2.4 13.85
1/26/2021 3:45:00 AM 1.21 34.178 0.114 7.05 2.45 13.86
1/26/2021 4:00:00 AM 1.21 34.178 0.114 7.03 2.38 13.85
1/26/2021 4:15:00 AM 1.21 34.178 0.114 7.04 2.43 13.85
1/26/2021 4:30:00 AM 1.2 34.16 0.114 7.04 2.42 13.85
1/26/2021 4:45:00 AM 1.2 34.16 0.114 7.03 2.47 13.84
1/26/2021 5:00:00 AM 1.21 34.178 0.114 7.04 2.44 13.83
1/26/2021 5:15:00 AM 1.22 34.196 0.114 7.04 2.47 13.83
1/26/2021 5:30:00 AM 1.22 34.196 0.114 7.04 2.42 13.83
1/26/2021 5:45:00 AM 1.23 34.214 0.114 7.04 2.44 13.82
1/26/2021 6:00:00 AM 1.24 34.232 0.114 7.04 2.46 13.8
1/26/2021 6:15:00 AM 1.25 34.25 0.114 7.02 2.47 13.8
1/26/2021 6:30:00 AM 1.25 34.25 0.114 7.04 2.43 13.79
1/26/2021 6:45:00 AM 1.25 34.25 0.114 7.04 2.47 13.79
1/26/2021 7:00:00 AM 1.19 34.142 0.114 7.04 2.47 13.79
1/26/2021 7:15:00 AM 1.18 34.124 0.114 7.04 2.46 13.79
1/26/2021 7:30:00 AM 1.2 34.16 0.114 7.04 2.48 13.79
1/26/2021 7:45:00 AM 1.21 34.178 0.114 7.04 2.46 13.79
1/26/2021 8:00:00 AM 1.12 34.016 0.114 7.03 2.47 13.81
1/26/2021 8:15:00 AM 1.13 34.034 0.115 7.05 2.49 13.82
1/26/2021 8:30:00 AM 0.89 33.602 0.115 7.03 2.51 13.85
1/26/2021 8:45:00 AM 0.9 33.62 0.114 7.04 2.46 13.89
1/26/2021 9:00:00 AM 0.87 33.566 0.114 7.04 2.49 13.93
1/26/2021 9:15:00 AM 0.88 33.584 0.114 7.06 2.46 13.98
1/26/2021 9:30:00 AM 0.86 33.548 0.114 7.06 2.46 14.01
1/26/2021 9:45:00 AM 0.91 33.638 0.115 7.08 2.44 14.03
1/26/2021 10:00:00 AM 0.84 33.512 0.115 7.09 2.79 14.06
1/26/2021 10:15:00 AM 0.84 33.512 0.114 7.08 2.48 14.08
1/26/2021 10:30:00 AM 0.85 33.53 0.114 7.1 2.51 14.1
1/26/2021 10:45:00 AM 0.87 33.566 0.114 7.11 2.49 14.13
1/26/2021 11:00:00 AM 0.88 33.584 0.114 7.12 2.44 14.16
1/26/2021 11:15:00 AM 0.91 33.638 0.114 7.12 2.47 14.18
1/26/2021 11:30:00 AM 0.93 33.674 0.114 7.13 2.45 14.19
1/26/2021 11:45:00 AM 0.95 33.71 0.114 7.14 2.45 14.2
1/26/2021 12:00:00 PM 0.91 33.638 0.114 7.14 2.44 14.21
1/26/2021 12:15:00 PM 0.96 33.728 0.114 7.13 2.52 14.21
1/26/2021 12:30:00 PM 1.01 33.818 0.114 7.16 2.47 14.2
1/26/2021 12:45:00 PM 1.04 33.872 0.114 7.16 2.47 14.2
1/26/2021 1:00:00 PM 1.06 33.908 0.115 7.14 2.49 14.18
1/26/2021 1:15:00 PM 1.12 34.016 0.115 7.17 2.47 14.18
1/26/2021 1:30:00 PM 1.17 34.106 0.115 7.17 2.46 14.17
1/26/2021 1:45:00 PM 1.22 34.196 0.115 7.16 2.49 14.15
1/26/2021 2:00:00 PM 1.23 34.214 0.115 7.17 2.45 14.14
1/26/2021 2:15:00 PM 1.28 34.304 0.115 7.17 2.45 14.14
1/26/2021 2:30:00 PM 1.33 34.394 0.115 7.18 2.52 14.14
1/26/2021 2:45:00 PM 1.37 34.466 0.115 7.17 2.49 14.12
1/26/2021 3:00:00 PM 1.41 34.538 0.115 7.18 2.46 14.1
1/26/2021 3:15:00 PM 1.43 34.574 0.117 7.17 2.67 14.08
1/26/2021 3:30:00 PM 1.46 34.628 0.115 7.18 2.49 14.05
1/26/2021 3:45:00 PM 1.48 34.664 0.115 7.17 2.42 14.01
1/26/2021 4:00:00 PM 1.5 34.7 0.115 7.16 2.52 13.98
1/26/2021 4:15:00 PM 1.51 34.718 0.115 7.15 2.54 13.94
1/26/2021 4:30:00 PM 1.52 34.736 0.115 7.13 2.4 13.9
1/26/2021 4:45:00 PM 1.54 34.772 0.115 7.14 2.43 13.87
1/26/2021 5:00:00 PM 1.55 34.79 0.115 7.13 2.46 13.84
1/26/2021 5:15:00 PM 1.56 34.808 0.116 7.12 2.41 13.81
1/26/2021 5:30:00 PM 1.56 34.808 0.116 7.11 2.48 13.79
1/26/2021 5:45:00 PM 1.57 34.826 0.116 7.1 2.46 13.75
1/26/2021 6:00:00 PM 1.57 34.826 0.116 7.11 2.4 13.74
1/26/2021 6:15:00 PM 1.57 34.826 0.116 7.1 2.48 13.72
1/26/2021 6:30:00 PM 1.55 34.79 0.116 7.08 2.47 13.71
1/26/2021 6:45:00 PM 1.5 34.7 0.116 7.07 2.47 13.7
1/26/2021 7:00:00 PM 1.5 34.7 0.116 7.06 2.47 13.69
1/26/2021 7:15:00 PM 1.5 34.7 0.116 7.06 2.44 13.69
1/26/2021 7:30:00 PM 1.5 34.7 0.116 7.06 2.42 13.68
1/26/2021 7:45:00 PM 1.49 34.682 0.116 7.06 2.45 13.68
1/26/2021 8:00:00 PM 1.5 34.7 0.116 7.06 2.45 13.68
1/26/2021 8:15:00 PM 1.5 34.7 0.116 7.06 2.41 13.67
1/26/2021 8:30:00 PM 1.5 34.7 0.116 7.06 2.39 13.67
1/26/2021 8:45:00 PM 1.5 34.7 0.116 7.04 2.38 13.67
1/26/2021 9:00:00 PM 1.5 34.7 0.116 7.07 2.43 13.67
1/26/2021 9:15:00 PM 1.49 34.682 0.116 7.05 2.46 13.67
1/26/2021 9:30:00 PM 1.48 34.664 0.116 7.05 2.42 13.67
1/26/2021 9:45:00 PM 1.48 34.664 0.116 7.06 2.46 13.67
1/26/2021 10:00:00 PM 1.47 34.646 0.116 7.05 2.41 13.68
1/26/2021 10:15:00 PM 1.48 34.664 0.116 7.05 2.54 13.68
1/26/2021 10:30:00 PM 1.48 34.664 0.116 7.05 2.44 13.68
1/26/2021 10:45:00 PM 1.49 34.682 0.116 7.05 2.39 13.67
1/26/2021 11:00:00 PM 1.5 34.7 0.116 7.05 2.45 13.68
1/26/2021 11:15:00 PM 1.5 34.7 0.116 7.05 2.46 13.67
1/26/2021 11:30:00 PM 1.5 34.7 0.116 7.06 2.39 13.67
1/26/2021 11:45:00 PM 1.51 34.718 0.116 7.04 2.4 13.67
1/27/2021 12:00:00 AM 1.51 34.718 0.116 7.05 2.41 13.67
1/27/2021 12:15:00 AM 1.52 34.736 0.116 7.05 2.38 13.66
1/27/2021 12:30:00 AM 1.52 34.736 0.116 7.03 2.43 13.67
1/27/2021 12:45:00 AM 1.52 34.736 0.115 7.05 2.45 13.67
1/27/2021 1:00:00 AM 1.52 34.736 0.115 7.05 2.45 13.66
1/27/2021 1:15:00 AM 1.53 34.754 0.115 7.05 2.42 13.67
1/27/2021 1:30:00 AM 1.53 34.754 0.115 7.05 2.44 13.66
1/27/2021 1:45:00 AM 1.53 34.754 0.115 7.05 2.43 13.67
1/27/2021 2:00:00 AM 1.52 34.736 0.115 7.05 2.44 13.67
1/27/2021 2:15:00 AM 1.52 34.736 0.115 7.03 2.42 13.68
1/27/2021 2:30:00 AM 1.52 34.736 0.115 7.04 2.43 13.68
1/27/2021 2:45:00 AM 1.52 34.736 0.115 7.04 2.43 13.68
1/27/2021 3:00:00 AM 1.52 34.736 0.115 7.04 2.42 13.69
1/27/2021 3:15:00 AM 1.52 34.736 0.115 7.04 2.38 13.69
1/27/2021 3:30:00 AM 1.52 34.736 0.115 7.04 2.4 13.7
1/27/2021 3:45:00 AM 1.52 34.736 0.115 7.04 2.42 13.7
1/27/2021 4:00:00 AM 1.51 34.718 0.115 7.04 2.37 13.7
1/27/2021 4:15:00 AM 1.51 34.718 0.115 7.03 2.38 13.71
1/27/2021 4:30:00 AM 1.5 34.7 0.115 7.05 2.41 13.71
1/27/2021 4:45:00 AM 1.49 34.682 0.115 7.05 2.42 13.72
1/27/2021 5:00:00 AM 1.49 34.682 0.115 7.04 2.5 13.73
1/27/2021 5:15:00 AM 1.48 34.664 0.115 7.04 2.41 13.74
1/27/2021 5:30:00 AM 1.47 34.646 0.115 7.05 2.4 13.74
1/27/2021 5:45:00 AM 1.46 34.628 0.115 7.04 2.36 13.75
1/27/2021 6:00:00 AM 1.45 34.61 0.115 7.04 2.4 13.75
1/27/2021 6:15:00 AM 1.43 34.574 0.115 7.04 2.37 13.76
1/27/2021 6:30:00 AM 1.43 34.574 0.115 7.03 2.39 13.77
1/27/2021 6:45:00 AM 1.42 34.556 0.115 7.04 2.39 13.78
1/27/2021 7:00:00 AM 1.4 34.52 0.115 7.04 2.41 13.79
1/27/2021 7:15:00 AM 1.38 34.484 0.115 7.03 2.42 13.79
1/27/2021 7:30:00 AM 1.36 34.448 0.115 7.04 2.41 13.81
1/27/2021 7:45:00 AM 1.35 34.43 0.115 7.04 2.38 13.84
1/27/2021 8:00:00 AM 1.34 34.412 0.115 7.04 2.37 13.9
1/27/2021 8:15:00 AM 1.33 34.394 0.115 7.07 2.38 13.96
1/27/2021 8:30:00 AM 1.32 34.376 0.115 7.08 2.42 14.02
1/27/2021 8:45:00 AM 1.33 34.394 0.115 7.09 2.37 14.07
1/27/2021 9:00:00 AM 1.34 34.412 0.115 7.11 2.35 14.13
1/27/2021 9:15:00 AM 1.37 34.466 0.115 7.12 2.41 14.18
1/27/2021 9:30:00 AM 1.39 34.502 0.115 7.14 2.39 14.22
1/27/2021 9:45:00 AM 1.42 34.556 0.115 7.15 2.36 14.25
1/27/2021 10:00:00 AM 1.45 34.61 0.115 7.17 2.37 14.28
1/27/2021 10:15:00 AM 1.48 34.664 0.115 7.18 2.38 14.3
1/27/2021 10:30:00 AM 1.5 34.7 0.115 7.19 2.37 14.33
1/27/2021 10:45:00 AM 1.53 34.754 0.115 7.2 2.36 14.34
1/27/2021 11:00:00 AM 1.59 34.862 0.115 7.2 2.35 14.36
1/27/2021 11:15:00 AM 1.68 35.024 0.115 7.21 2.35 14.36
1/27/2021 11:30:00 AM 1.73 35.114 0.115 7.22 2.31 14.36
1/27/2021 11:45:00 AM 1.76 35.168 0.114 7.23 2.38 14.36
1/27/2021 12:00:00 PM 1.77 35.186 0.114 7.23 2.31 14.36
1/27/2021 12:15:00 PM 1.79 35.222 0.114 7.23 2.32 14.36
1/27/2021 12:30:00 PM 1.82 35.276 0.114 7.24 2.41 14.36
1/27/2021 12:45:00 PM 1.85 35.33 0.114 7.24 2.38 14.36
1/27/2021 1:00:00 PM 1.86 35.348 0.114 7.24 2.36 14.35
1/27/2021 1:15:00 PM 1.88 35.384 0.114 7.21 2.37 14.35
1/27/2021 1:30:00 PM 1.91 35.438 0.114 7.24 2.37 14.34
1/27/2021 1:45:00 PM 1.93 35.474 0.114 7.24 2.34 14.33
1/27/2021 2:00:00 PM 1.92 35.456 0.114 7.24 2.34 14.32
1/27/2021 2:15:00 PM 1.91 35.438 0.114 7.23 2.33 14.31
1/27/2021 2:30:00 PM 1.9 35.42 0.114 7.22 2.36 14.3
1/27/2021 2:45:00 PM 1.89 35.402 0.114 7.23 2.36 14.3
1/27/2021 3:00:00 PM 1.88 35.384 0.114 7.21 2.77 14.29
1/27/2021 3:15:00 PM 1.87 35.366 0.114 7.2 2.43 14.29
1/27/2021 3:30:00 PM 1.86 35.348 0.115 7.22 2.35 14.29
1/27/2021 3:45:00 PM 1.83 35.294 0.115 7.21 2.35 14.27
1/27/2021 4:00:00 PM 1.81 35.258 0.115 7.21 2.36 14.25
1/27/2021 4:15:00 PM 1.78 35.204 0.115 7.19 2.36 14.24
1/27/2021 4:30:00 PM 1.74 35.132 0.115 7.17 2.37 14.22
1/27/2021 4:45:00 PM 1.69 35.042 0.115 7.17 2.39 14.19
1/27/2021 5:00:00 PM 1.64 34.952 0.115 7.16 2.34 14.15
1/27/2021 5:15:00 PM 1.59 34.862 0.115 7.14 2.38 14.11
1/27/2021 5:30:00 PM 1.55 34.79 0.115 7.13 2.35 14.06
1/27/2021 5:45:00 PM 1.51 34.718 0.115 7.12 2.38 14.03
1/27/2021 6:00:00 PM 1.46 34.628 0.116 7.11 2.42 14.01
1/27/2021 6:15:00 PM 1.43 34.574 0.116 7.1 2.37 13.99
1/27/2021 6:30:00 PM 1.4 34.52 0.116 7.09 2.4 13.98
1/27/2021 6:45:00 PM 1.36 34.448 0.116 7.08 2.4 13.97
1/27/2021 7:00:00 PM 1.33 34.394 0.116 7.08 2.38 13.96
1/27/2021 7:15:00 PM 1.3 34.34 0.116 7.08 2.37 13.96
1/27/2021 7:30:00 PM 1.25 34.25 0.116 7.07 2.42 13.95
1/27/2021 7:45:00 PM 1.2 34.16 0.116 7.07 2.41 13.95
1/27/2021 8:00:00 PM 1.15 34.07 0.116 7.06 2.41 13.94
1/27/2021 8:15:00 PM 1.11 33.998 0.116 7.05 2.4 13.94
1/27/2021 8:30:00 PM 1.07 33.926 0.116 7.06 2.41 13.95
1/27/2021 8:45:00 PM 1.05 33.89 0.116 7.05 2.44 13.95
1/27/2021 9:00:00 PM 1.04 33.872 0.116 7.04 2.39 13.95
1/27/2021 9:15:00 PM 1.04 33.872 0.116 7.05 2.42 13.95
1/27/2021 9:30:00 PM 1.04 33.872 0.116 7.05 2.42 13.95
1/27/2021 9:45:00 PM 1.04 33.872 0.116 7.05 2.39 13.95
1/27/2021 10:00:00 PM 1.03 33.854 0.116 7.06 2.44 13.96
1/27/2021 10:15:00 PM 1 33.8 0.116 7.06 2.43 13.96
1/27/2021 10:30:00 PM 0.97 33.746 0.116 7.05 2.41 13.97
1/27/2021 10:45:00 PM 0.94 33.692 0.116 7.04 2.4 13.97
1/27/2021 11:00:00 PM 0.92 33.656 0.116 7.06 2.43 13.98
1/27/2021 11:15:00 PM 0.89 33.602 0.116 7.05 2.43 13.99
1/27/2021 11:30:00 PM 0.87 33.566 0.116 7.06 2.38 13.99
1/27/2021 11:45:00 PM 0.86 33.548 0.116 7.04 2.44 14
1/28/2021 12:00:00 AM 0.85 33.53 0.116 7.06 2.42 14
1/28/2021 12:15:00 AM 0.85 33.53 0.116 7.06 2.42 14
1/28/2021 12:30:00 AM 0.83 33.494 0.116 7.06 2.43 14
1/28/2021 12:45:00 AM 0.81 33.458 0.116 7.06 2.45 14.01
1/28/2021 1:00:00 AM 0.77 33.386 0.117 7.04 2.92 14.01
1/28/2021 1:15:00 AM 0.74 33.332 0.117 7.04 2.46 14.02
1/28/2021 1:30:00 AM 0.72 33.296 0.117 7.05 2.41 14.03
1/28/2021 1:45:00 AM 0.69 33.242 0.117 7.05 2.47 14.04
1/28/2021 2:00:00 AM 0.68 33.224 0.117 7.05 2.45 14.04
1/28/2021 2:15:00 AM 0.67 33.206 0.117 7.05 2.51 14.05
1/28/2021 2:30:00 AM 0.66 33.188 0.117 7.04 2.43 14.05
1/28/2021 2:45:00 AM 0.66 33.188 0.117 7.06 2.45 14.05
1/28/2021 3:00:00 AM 0.66 33.188 0.117 7.05 2.46 14.06
1/28/2021 3:15:00 AM 0.64 33.152 0.117 7.04 2.48 14.06
1/28/2021 3:30:00 AM 0.63 33.134 0.117 7.05 2.47 14.06
1/28/2021 3:45:00 AM 0.61 33.098 0.117 7.06 2.46 14.07
1/28/2021 4:00:00 AM 0.6 33.08 0.117 7.06 2.47 14.07
1/28/2021 4:15:00 AM 0.59 33.062 0.117 7.05 2.48 14.06
1/28/2021 4:30:00 AM 0.58 33.044 0.117 7.05 2.5 14.07
1/28/2021 4:45:00 AM 0.57 33.026 0.117 7.06 2.48 14.08
1/28/2021 5:00:00 AM 0.55 32.99 0.117 7.04 2.5 14.07
1/28/2021 5:15:00 AM 0.53 32.954 0.117 7.06 2.48 14.08
1/28/2021 5:30:00 AM 0.51 32.918 0.117 7.05 2.53 14.09
1/28/2021 5:45:00 AM 0.5 32.9 0.117 7.04 2.5 14.09
1/28/2021 6:00:00 AM 0.48 32.864 0.117 7.06 2.52 14.1
1/28/2021 6:15:00 AM 0.46 32.828 0.117 7.04 2.49 14.1
1/28/2021 6:30:00 AM 0.46 32.828 0.117 7.06 2.5 14.11
1/28/2021 6:45:00 AM 0.45 32.81 0.117 7.05 2.55 14.11
1/28/2021 7:00:00 AM 0.43 32.774 0.117 7.04 2.53 14.11
1/28/2021 7:15:00 AM 0.42 32.756 0.117 7.06 2.48 14.12
1/28/2021 7:30:00 AM 0.42 32.756 0.117 7.06 2.5 14.14
1/28/2021 7:45:00 AM 0.42 32.756 0.117 7.07 2.52 14.16
1/28/2021 8:00:00 AM 0.41 32.738 0.117 7.08 2.5 14.21
1/28/2021 8:15:00 AM 0.41 32.738 0.117 7.08 2.46 14.28
1/28/2021 8:30:00 AM 0.42 32.756 0.117 7.1 2.5 14.35
1/28/2021 8:45:00 AM 0.44 32.792 0.117 7.12 2.53 14.41
1/28/2021 9:00:00 AM 0.47 32.846 0.117 7.14 2.47 14.46
1/28/2021 9:15:00 AM 0.52 32.936 0.117 7.15 2.47 14.49
1/28/2021 9:30:00 AM 0.55 32.99 0.117 7.15 2.49 14.51
1/28/2021 9:45:00 AM 0.59 33.062 0.117 7.16 2.46 14.54
1/28/2021 10:00:00 AM 0.63 33.134 0.117 7.18 2.53 14.55
1/28/2021 10:15:00 AM 0.68 33.224 0.117 7.19 2.42 14.57
1/28/2021 10:30:00 AM 0.73 33.314 0.117 7.19 2.47 14.58
1/28/2021 10:45:00 AM 0.79 33.422 0.117 7.21 2.46 14.58
1/28/2021 11:00:00 AM 0.84 33.512 0.117 7.21 2.49 14.58
1/28/2021 11:15:00 AM 0.93 33.674 0.117 7.21 2.48 14.57
1/28/2021 11:30:00 AM 1.05 33.89 0.116 7.22 2.46 14.55
1/28/2021 11:45:00 AM 1.17 34.106 0.116 7.23 2.46 14.53
1/28/2021 12:00:00 PM 1.33 34.394 0.116 7.24 2.49 14.51
1/28/2021 12:15:00 PM 1.49 34.682 0.116 7.25 2.43 14.47
1/28/2021 12:30:00 PM 1.67 35.006 0.116 7.25 2.44 14.43
1/28/2021 12:45:00 PM 1.86 35.348 0.116 7.27 2.52 14.38
1/28/2021 1:00:00 PM 2.03 35.654 0.116 7.27 2.47 14.34
1/28/2021 1:15:00 PM 2.19 35.942 0.116 7.27 2.43 14.3
1/28/2021 1:30:00 PM 2.31 36.158 0.116 7.26 2.46 14.26
1/28/2021 1:45:00 PM 2.37 36.266 0.116 7.26 2.42 14.23
1/28/2021 2:00:00 PM 2.37 36.266 0.116 7.25 2.36 14.22
1/28/2021 2:15:00 PM 2.32 36.176 0.116 7.23 2.41 14.21
1/28/2021 2:30:00 PM 2.23 36.014 0.116 7.21 2.44 14.22
1/28/2021 2:45:00 PM 2.09 35.762 0.116 7.19 2.42 14.23
1/28/2021 3:00:00 PM 1.9 35.42 0.116 7.15 2.43 14.24
1/28/2021 3:15:00 PM 1.73 35.114 0.116 7.13 2.42 14.25
1/28/2021 3:30:00 PM 1.6 34.88 0.116 7.11 2.44 14.27
1/28/2021 3:45:00 PM 1.48 34.664 0.116 7.08 2.42 14.27
1/28/2021 4:00:00 PM 1.39 34.502 0.116 7.09 2.51 14.29
1/28/2021 4:15:00 PM 1.28 34.304 0.116 7.09 2.44 14.28
1/28/2021 4:30:00 PM 1.22 34.196 0.116 7.08 2.44 14.28
1/28/2021 4:45:00 PM 1.15 34.07 0.116 7.08 2.42 14.28
1/28/2021 5:00:00 PM 1.08 33.944 0.116 7.08 2.44 14.28
1/28/2021 5:15:00 PM 1.01 33.818 0.116 7.07 2.43 14.25
1/28/2021 5:30:00 PM 0.92 33.656 0.117 7.07 2.43 14.23
1/28/2021 5:45:00 PM 0.84 33.512 0.117 7.05 2.45 14.21
1/28/2021 6:00:00 PM 0.74 33.332 0.117 7.04 2.62 14.2
1/28/2021 6:15:00 PM 0.68 33.224 0.117 7.03 2.46 14.19
1/28/2021 6:30:00 PM 0.63 33.134 0.117 7.04 2.44 14.19
1/28/2021 6:45:00 PM 0.61 33.098 0.117 7.05 2.43 14.19
1/28/2021 7:00:00 PM 0.58 33.044 0.117 7.05 2.44 14.2
1/28/2021 7:15:00 PM 0.55 32.99 0.117 7.05 2.43 14.2
1/28/2021 7:30:00 PM 0.52 32.936 0.117 7.06 2.42 14.21
1/28/2021 7:45:00 PM 0.5 32.9 0.117 7.06 2.46 14.2
1/28/2021 8:00:00 PM 0.48 32.864 0.117 7.06 2.43 14.21
1/28/2021 8:15:00 PM 0.43 32.774 0.117 7.05 2.42 14.21
1/28/2021 8:30:00 PM 0.38 32.684 0.117 7.05 2.45 14.21
1/28/2021 8:45:00 PM 0.34 32.612 0.117 7.04 2.42 14.22
1/28/2021 9:00:00 PM 0.32 32.576 0.117 7.04 2.43 14.23
1/28/2021 9:15:00 PM 0.3 32.54 0.117 7.05 2.43 14.23
1/28/2021 9:30:00 PM 0.27 32.486 0.117 7.05 2.45 14.23
1/28/2021 9:45:00 PM 0.25 32.45 0.117 7.05 2.43 14.24
1/28/2021 10:00:00 PM 0.24 32.432 0.117 7.04 2.38 14.25
1/28/2021 10:15:00 PM 0.23 32.414 0.117 7.06 2.43 14.25
1/28/2021 10:30:00 PM 0.2 32.36 0.117 7.05 2.42 14.25
1/28/2021 10:45:00 PM 0.18 32.324 0.117 7.04 2.36 14.26
1/28/2021 11:00:00 PM 0.16 32.288 0.117 7.06 2.42 14.26
1/28/2021 11:15:00 PM 0.14 32.252 0.117 7.06 2.41 14.27
1/28/2021 11:30:00 PM 0.12 32.216 0.117 7.06 2.38 14.27
1/28/2021 11:45:00 PM 0.11 32.198 0.117 7.06 2.38 14.29
1/29/2021 12:00:00 AM 0.09 32.162 0.117 7.06 2.43 14.29
1/29/2021 12:15:00 AM 0.09 32.162 0.117 7.06 2.4 14.28
1/29/2021 12:30:00 AM 0.09 32.162 0.117 7.06 2.4 14.29
1/29/2021 12:45:00 AM 0.1 32.18 0.117 7.06 2.39 14.29
1/29/2021 1:00:00 AM 0.1 32.18 0.117 7.07 2.4 14.29
1/29/2021 1:15:00 AM 0.1 32.18 0.117 7.06 2.38 14.28
1/29/2021 1:30:00 AM 0.11 32.198 0.117 7.07 2.4 14.28
1/29/2021 1:45:00 AM 0.11 32.198 0.117 7.06 2.41 14.28
1/29/2021 2:00:00 AM 0.12 32.216 0.117 7.07 2.38 14.27
1/29/2021 2:15:00 AM 0.13 32.234 0.117 7.07 2.38 14.27
1/29/2021 2:30:00 AM 0.12 32.216 0.117 7.07 2.38 14.26
1/29/2021 2:45:00 AM 0.1 32.18 0.117 7.06 2.37 14.26
1/29/2021 3:00:00 AM 0.09 32.162 0.117 7.07 2.43 14.26
1/29/2021 3:15:00 AM 0.06 32.108 0.117 7.07 2.41 14.28
1/29/2021 3:30:00 AM 0.05 32.09 0.117 7.07 2.38 14.27
1/29/2021 3:45:00 AM 0.04 32.072 0.117 7.07 2.37 14.28
1/29/2021 4:00:00 AM 0.04 32.072 0.117 7.06 2.39 14.29
1/29/2021 4:15:00 AM 0.03 32.054 0.117 7.07 2.37 14.29
1/29/2021 4:30:00 AM 0.02 32.036 0.117 7.07 2.41 14.29
1/29/2021 4:45:00 AM 0 32 0.117 7.06 2.42 14.29
1/29/2021 5:00:00 AM 0 32 0.117 7.05 2.35 14.3
1/29/2021 5:15:00 AM -0.01 31.982 0.117 7.06 2.37 14.29
1/29/2021 5:30:00 AM -0.03 31.946 0.117 7.05 2.41 14.3
1/29/2021 5:45:00 AM -0.04 31.928 0.117 7.07 2.37 14.31
1/29/2021 6:00:00 AM -0.04 31.928 0.117 7.06 2.37 14.31
1/29/2021 6:15:00 AM -0.05 31.91 0.118 7.07 2.41 14.31
1/29/2021 6:30:00 AM -0.05 31.91 0.118 7.08 2.35 14.34
1/29/2021 6:45:00 AM -0.04 31.928 0.118 7.09 2.36 14.34
1/29/2021 7:00:00 AM -0.04 31.928 0.118 7.1 2.38 14.33
1/29/2021 7:15:00 AM -0.03 31.946 0.118 7.12 2.38 14.32
1/29/2021 7:30:00 AM -0.03 31.946 0.118 7.1 2.43 14.34
1/29/2021 7:45:00 AM -0.03 31.946 0.118 7.13 2.4 14.37
1/29/2021 8:00:00 AM -0.03 31.946 0.118 7.15 2.38 14.41
1/29/2021 8:15:00 AM -0.03 31.946 0.118 7.15 2.35 14.48
1/29/2021 8:30:00 AM -0.03 31.946 0.118 7.17 2.39 14.54
1/29/2021 8:45:00 AM -0.03 31.946 0.118 7.18 2.36 14.6
1/29/2021 9:00:00 AM -0.03 31.946 0.118 7.18 2.4 14.65
1/29/2021 9:15:00 AM -0.03 31.946 0.117 7.2 2.36 14.7
1/29/2021 9:30:00 AM -0.03 31.946 0.117 7.21 2.36 14.72
1/29/2021 9:45:00 AM -0.03 31.946 0.117 7.21 2.34 14.75
1/29/2021 10:00:00 AM -0.03 31.946 0.117 7.23 2.32 14.76
1/29/2021 10:15:00 AM -0.03 31.946 0.117 7.24 2.36 14.78
1/29/2021 10:30:00 AM -0.02 31.964 0.116 7.23 2.36 14.78
1/29/2021 10:45:00 AM 0.16 32.288 0.116 7.23 2.37 14.78
1/29/2021 11:00:00 AM 0.35 32.63 0.116 7.27 2.35 14.79
1/29/2021 11:15:00 AM 0.42 32.756 0.116 7.24 2.34 14.79
1/29/2021 11:30:00 AM 0.45 32.81 0.116 7.26 2.39 14.79
1/29/2021 11:45:00 AM 0.49 32.882 0.116 7.26 2.42 14.79
1/29/2021 12:00:00 PM 0.52 32.936 0.116 7.26 2.35 14.79
1/29/2021 12:15:00 PM 0.55 32.99 0.116 7.25 2.36 14.78
1/29/2021 12:30:00 PM 0.6 33.08 0.116 7.25 2.36 14.77
1/29/2021 12:45:00 PM 0.7 33.26 0.116 7.26 2.36 14.75
1/29/2021 1:00:00 PM 0.81 33.458 0.116 7.26 2.34 14.73
1/29/2021 1:15:00 PM 0.91 33.638 0.115 7.26 2.34 14.71
1/29/2021 1:30:00 PM 0.96 33.728 0.115 7.26 2.33 14.69
1/29/2021 1:45:00 PM 0.99 33.782 0.115 7.25 2.3 14.66
1/29/2021 2:00:00 PM 1.02 33.836 0.115 7.26 2.34 14.65
1/29/2021 2:15:00 PM 1.06 33.908 0.115 7.26 2.32 14.62
1/29/2021 2:30:00 PM 1.1 33.98 0.115 7.26 2.34 14.6
1/29/2021 2:45:00 PM 1.11 33.998 0.115 7.25 2.36 14.58
1/29/2021 3:00:00 PM 1.13 34.034 0.115 7.25 2.34 14.57
1/29/2021 3:15:00 PM 1.17 34.106 0.115 7.25 2.31 14.57
1/29/2021 3:30:00 PM 1.16 34.088 0.115 7.25 2.34 14.55
1/29/2021 3:45:00 PM 1.14 34.052 0.115 7.24 2.33 14.54
1/29/2021 4:00:00 PM 1.13 34.034 0.115 7.25 2.34 14.53
1/29/2021 4:15:00 PM 1.1 33.98 0.115 7.22 2.29 14.52
1/29/2021 4:30:00 PM 1.06 33.908 0.116 7.23 2.31 14.49
1/29/2021 4:45:00 PM 1.01 33.818 0.116 7.21 2.38 14.46
1/29/2021 5:00:00 PM 0.95 33.71 0.116 7.2 2.33 14.44
1/29/2021 5:15:00 PM 0.9 33.62 0.116 7.18 2.37 14.39
1/29/2021 5:30:00 PM 0.86 33.548 0.116 7.16 2.36 14.33
1/29/2021 5:45:00 PM 0.81 33.458 0.116 7.15 2.3 14.28
1/29/2021 6:00:00 PM 0.77 33.386 0.116 7.13 2.34 14.24
1/29/2021 6:15:00 PM 0.73 33.314 0.117 7.11 2.35 14.23
1/29/2021 6:30:00 PM 0.69 33.242 0.117 7.12 2.34 14.21
1/29/2021 6:45:00 PM 0.65 33.17 0.117 7.1 2.34 14.21
1/29/2021 7:00:00 PM 0.61 33.098 0.117 7.1 2.34 14.21
1/29/2021 7:15:00 PM 0.58 33.044 0.117 7.09 2.35 14.21
1/29/2021 7:30:00 PM 0.54 32.972 0.117 7.09 2.37 14.22
1/29/2021 7:45:00 PM 0.5 32.9 0.118 7.09 2.38 14.22
1/29/2021 8:00:00 PM 0.46 32.828 0.118 7.07 2.38 14.23
1/29/2021 8:15:00 PM 0.42 32.756 0.118 7.08 2.34 14.24
1/29/2021 8:30:00 PM 0.39 32.702 0.118 7.09 2.35 14.24
1/29/2021 8:45:00 PM 0.36 32.648 0.118 7.07 2.33 14.24
1/29/2021 9:00:00 PM 0.33 32.594 0.118 7.07 2.35 14.25
1/29/2021 9:15:00 PM 0.31 32.558 0.119 7.07 2.31 14.25
1/29/2021 9:30:00 PM 0.3 32.54 0.119 7.08 2.29 14.25
1/29/2021 9:45:00 PM 0.29 32.522 0.119 7.08 2.34 14.25
1/29/2021 10:00:00 PM 0.27 32.486 0.119 7.07 2.34 14.25
1/29/2021 10:15:00 PM 0.27 32.486 0.119 7.08 2.34 14.25
1/29/2021 10:30:00 PM 0.26 32.468 0.119 7.07 2.36 14.26
1/29/2021 10:45:00 PM 0.25 32.45 0.119 7.08 2.37 14.26
1/29/2021 11:00:00 PM 0.25 32.45 0.12 7.06 2.35 14.25
1/29/2021 11:15:00 PM 0.25 32.45 0.12 7.09 2.37 14.26
1/29/2021 11:30:00 PM 0.25 32.45 0.12 7.08 2.4 14.26
1/29/2021 11:45:00 PM 0.25 32.45 0.12 7.07 2.36 14.26
1/30/2021 12:00:00 AM 0.24 32.432 0.12 7.09 2.35 14.26
1/30/2021 12:15:00 AM 0.24 32.432 0.12 7.08 2.32 14.26
1/30/2021 12:30:00 AM 0.23 32.414 0.12 7.08 2.35 14.26
1/30/2021 12:45:00 AM 0.22 32.396 0.121 7.07 2.36 14.27
1/30/2021 1:00:00 AM 0.2 32.36 0.121 7.07 2.36 14.27
1/30/2021 1:15:00 AM 0.19 32.342 0.121 7.08 2.34 14.27
1/30/2021 1:30:00 AM 0.17 32.306 0.121 7.07 2.31 14.28
1/30/2021 1:45:00 AM 0.17 32.306 0.121 7.08 2.35 14.28
1/30/2021 2:00:00 AM 0.15 32.27 0.121 7.08 2.38 14.3
1/30/2021 2:15:00 AM 0.14 32.252 0.121 7.08 2.36 14.31
1/30/2021 2:30:00 AM 0.12 32.216 0.121 7.08 2.35 14.31
1/30/2021 2:45:00 AM 0.11 32.198 0.121 7.09 2.36 14.31
1/30/2021 3:00:00 AM 0.08 32.144 0.121 7.07 2.35 14.33
1/30/2021 3:15:00 AM 0.08 32.144 0.121 7.08 2.32 14.32
1/30/2021 3:30:00 AM 0.07 32.126 0.122 7.08 2.34 14.33
1/30/2021 3:45:00 AM 0.06 32.108 0.122 7.08 2.4 14.33
1/30/2021 4:00:00 AM 0.04 32.072 0.122 7.08 2.35 14.34
1/30/2021 4:15:00 AM 0.02 32.036 0.122 7.09 2.35 14.35
1/30/2021 4:30:00 AM 0.01 32.018 0.122 7.1 2.35 14.36
1/30/2021 4:45:00 AM -0.01 31.982 0.122 7.08 2.36 14.37
1/30/2021 5:00:00 AM -0.04 31.928 0.122 7.09 2.39 14.38
1/30/2021 5:15:00 AM -0.07 31.874 0.122 7.08 2.35 14.38
1/30/2021 5:30:00 AM -0.08 31.856 0.122 7.08 2.34 14.4
1/30/2021 5:45:00 AM -0.05 31.91 0.122 7.09 2.39 14.41
1/30/2021 6:00:00 AM -0.04 31.928 0.122 7.11 2.38 14.41
1/30/2021 6:15:00 AM -0.04 31.928 0.122 7.11 2.36 14.42
1/30/2021 6:30:00 AM -0.04 31.928 0.122 7.13 2.34 14.42
1/30/2021 6:45:00 AM -0.03 31.946 0.122 7.13 2.35 14.41
1/30/2021 7:00:00 AM -0.04 31.928 0.122 7.14 2.4 14.43
1/30/2021 7:15:00 AM -0.04 31.928 0.122 7.15 2.44 14.44
1/30/2021 7:30:00 AM -0.04 31.928 0.122 7.16 2.34 14.44
1/30/2021 7:45:00 AM -0.03 31.946 0.122 7.15 2.43 14.5
1/30/2021 8:00:00 AM -0.03 31.946 0.122 7.15 2.36 14.52
1/30/2021 8:15:00 AM -0.03 31.946 0.122 7.17 2.37 14.57
1/30/2021 8:30:00 AM -0.03 31.946 0.122 7.17 2.5 14.61
1/30/2021 8:45:00 AM -0.03 31.946 0.122 7.17 2.39 14.65
1/30/2021 9:00:00 AM -0.03 31.946 0.122 7.18 2.36 14.7
1/30/2021 9:15:00 AM -0.03 31.946 0.122 7.19 2.37 14.74
1/30/2021 9:30:00 AM -0.03 31.946 0.122 7.19 2.34 14.75
1/30/2021 9:45:00 AM -0.03 31.946 0.122 7.22 2.31 14.8
1/30/2021 10:00:00 AM -0.03 31.946 0.122 7.23 2.37 14.81
1/30/2021 10:15:00 AM -0.03 31.946 0.121 7.23 2.37 14.84
1/30/2021 10:30:00 AM -0.03 31.946 0.121 7.22 2.34 14.84
1/30/2021 10:45:00 AM -0.03 31.946 0.121 7.25 2.37 14.87
1/30/2021 11:00:00 AM -0.03 31.946 0.121 7.24 2.31 14.88
1/30/2021 11:15:00 AM -0.03 31.946 0.121 7.22 2.34 14.86
1/30/2021 11:30:00 AM -0.03 31.946 0.12 7.24 2.34 14.86
1/30/2021 11:45:00 AM -0.03 31.946 0.12 7.24 2.35 14.84
1/30/2021 12:00:00 PM -0.01 31.982 0.12 7.25 2.38 14.81
1/30/2021 12:15:00 PM 0.08 32.144 0.119 7.26 2.31 14.76
1/30/2021 12:30:00 PM 0.68 33.224 0.12 7.27 2.34 14.73
1/30/2021 12:45:00 PM 1.06 33.908 0.12 7.28 2.3 14.68
1/30/2021 1:00:00 PM 1.34 34.412 0.12 7.28 2.29 14.62
1/30/2021 1:15:00 PM 1.61 34.898 0.119 7.28 2.3 14.56
1/30/2021 1:30:00 PM 1.78 35.204 0.119 7.28 2.29 14.51
1/30/2021 1:45:00 PM 1.88 35.384 0.119 7.28 2.33 14.47
1/30/2021 2:00:00 PM 1.92 35.456 0.119 7.27 2.27 14.45
1/30/2021 2:15:00 PM 1.92 35.456 0.12 7.27 2.27 14.44
1/30/2021 2:30:00 PM 1.88 35.384 0.12 7.26 2.31 14.43
1/30/2021 2:45:00 PM 1.79 35.222 0.12 7.25 2.26 14.44
1/30/2021 3:00:00 PM 1.63 34.934 0.12 7.24 2.32 14.45
1/30/2021 3:15:00 PM 1.43 34.574 0.12 7.21 2.31 14.47
1/30/2021 3:30:00 PM 1.31 34.358 0.121 7.22 2.32 14.48
1/30/2021 3:45:00 PM 1.21 34.178 0.121 7.19 2.32 14.48
1/30/2021 4:00:00 PM 1.13 34.034 0.121 7.2 2.35 14.48
1/30/2021 4:15:00 PM 1.06 33.908 0.121 7.18 2.33 14.47
1/30/2021 4:30:00 PM 1.01 33.818 0.122 7.17 2.32 14.45
1/30/2021 4:45:00 PM 0.96 33.728 0.122 7.17 2.33 14.45
1/30/2021 5:00:00 PM 0.92 33.656 0.122 7.14 2.35 14.43
1/30/2021 5:15:00 PM 0.86 33.548 0.122 7.14 2.37 14.4
1/30/2021 5:30:00 PM 0.8 33.44 0.123 7.13 2.36 14.37
1/30/2021 5:45:00 PM 0.73 33.314 0.123 7.11 2.36 14.34
1/30/2021 6:00:00 PM 0.66 33.188 0.123 7.1 2.3 14.32
1/30/2021 6:15:00 PM 0.59 33.062 0.123 7.09 2.34 14.31
1/30/2021 6:30:00 PM 0.53 32.954 0.123 7.09 2.38 14.3
1/30/2021 6:45:00 PM 0.48 32.864 0.124 7.06 2.38 14.31
1/30/2021 7:00:00 PM 0.43 32.774 0.124 7.08 2.36 14.31
1/30/2021 7:15:00 PM 0.37 32.666 0.124 7.07 2.38 14.32
1/30/2021 7:30:00 PM 0.32 32.576 0.124 7.07 2.38 14.33
1/30/2021 7:45:00 PM 0.27 32.486 0.124 7.07 2.41 14.34
1/30/2021 8:00:00 PM 0.23 32.414 0.124 7.05 2.36 14.35
1/30/2021 8:15:00 PM 0.18 32.324 0.125 7.07 2.39 14.35
1/30/2021 8:30:00 PM 0.13 32.234 0.125 7.06 2.41 14.36
1/30/2021 8:45:00 PM 0.09 32.162 0.125 7.06 2.33 14.38
1/30/2021 9:00:00 PM 0.05 32.09 0.125 7.05 2.39 14.37
1/30/2021 9:15:00 PM 0.01 32.018 0.125 7.07 2.38 14.4
1/30/2021 9:30:00 PM -0.02 31.964 0.126 7.06 2.38 14.41
1/30/2021 9:45:00 PM -0.05 31.91 0.126 7.07 2.42 14.4
1/30/2021 10:00:00 PM -0.07 31.874 0.126 7.07 2.41 14.41
1/30/2021 10:15:00 PM -0.06 31.892 0.126 7.07 2.42 14.44
1/30/2021 10:30:00 PM -0.04 31.928 0.126 7.09 2.41 14.42
1/30/2021 10:45:00 PM -0.04 31.928 0.126 7.11 2.37 14.43
1/30/2021 11:00:00 PM -0.03 31.946 0.126 7.13 2.38 14.44
1/30/2021 11:15:00 PM -0.03 31.946 0.126 7.14 2.36 14.44
1/30/2021 11:30:00 PM -0.03 31.946 0.127 7.14 2.38 14.44
1/30/2021 11:45:00 PM -0.03 31.946 0.127 7.14 2.43 14.42
1/31/2021 12:00:00 AM -0.03 31.946 0.127 7.12 2.39 14.43
1/31/2021 12:15:00 AM -0.03 31.946 0.127 7.15 2.39 14.43
1/31/2021 12:30:00 AM -0.03 31.946 0.127 7.14 2.38 14.43
1/31/2021 12:45:00 AM -0.03 31.946 0.127 7.14 2.4 14.43
1/31/2021 1:00:00 AM -0.03 31.946 0.127 7.16 2.38 14.42
1/31/2021 1:15:00 AM -0.03 31.946 0.127 7.14 2.37 14.42
1/31/2021 1:30:00 AM -0.03 31.946 0.127 7.15 2.37 14.41
1/31/2021 1:45:00 AM -0.03 31.946 0.127 7.16 2.37 14.41
1/31/2021 2:00:00 AM -0.03 31.946 0.127 7.15 2.39 14.42
1/31/2021 2:15:00 AM -0.03 31.946 0.127 7.15 2.38 14.4
1/31/2021 2:30:00 AM -0.03 31.946 0.127 7.14 2.34 14.41
1/31/2021 2:45:00 AM -0.03 31.946 0.127 7.15 2.34 14.39
1/31/2021 3:00:00 AM -0.03 31.946 0.127 7.15 2.35 14.39
1/31/2021 3:15:00 AM -0.03 31.946 0.127 7.15 2.44 14.38
1/31/2021 3:30:00 AM -0.03 31.946 0.127 7.15 2.39 14.38
1/31/2021 3:45:00 AM -0.03 31.946 0.127 7.14 2.41 14.39
1/31/2021 4:00:00 AM -0.03 31.946 0.127 7.14 2.35 14.37
1/31/2021 4:15:00 AM -0.03 31.946 0.127 7.14 2.36 14.37
1/31/2021 4:30:00 AM -0.03 31.946 0.127 7.15 2.4 14.36
1/31/2021 4:45:00 AM -0.03 31.946 0.127 7.14 2.34 14.34
1/31/2021 5:00:00 AM -0.03 31.946 0.127 7.14 2.38 14.34
1/31/2021 5:15:00 AM -0.03 31.946 0.127 7.12 2.38 14.33
1/31/2021 5:30:00 AM -0.03 31.946 0.127 7.15 2.38 14.34
1/31/2021 5:45:00 AM -0.03 31.946 0.127 7.13 2.36 14.34
1/31/2021 6:00:00 AM -0.03 31.946 0.126 7.15 2.36 14.33
1/31/2021 6:15:00 AM -0.03 31.946 0.126 7.14 2.36 14.31
1/31/2021 6:30:00 AM -0.03 31.946 0.126 7.14 2.33 14.3
1/31/2021 6:45:00 AM -0.03 31.946 0.126 7.14 2.41 14.29
1/31/2021 7:00:00 AM -0.03 31.946 0.126 7.14 2.38 14.31
1/31/2021 7:15:00 AM -0.03 31.946 0.126 7.13 2.36 14.31
1/31/2021 7:30:00 AM -0.03 31.946 0.126 7.13 2.37 14.31
1/31/2021 7:45:00 AM -0.02 31.964 0.126 7.12 2.52 14.3
1/31/2021 8:00:00 AM -0.01 31.982 0.126 7.14 2.41 14.36
1/31/2021 8:15:00 AM 0 32 0.125 7.11 2.37 14.4
1/31/2021 8:30:00 AM 0.01 32.018 0.125 7.17 2.39 14.44
1/31/2021 8:45:00 AM 0.03 32.054 0.125 7.16 2.36 14.48
1/31/2021 9:00:00 AM 0.08 32.144 0.125 7.19 2.41 14.52
1/31/2021 9:15:00 AM 0.11 32.198 0.125 7.19 2.37 14.54
1/31/2021 9:30:00 AM 0.09 32.162 0.125 7.19 2.38 14.57
1/31/2021 9:45:00 AM 0.08 32.144 0.124 7.19 2.48 14.59
1/31/2021 10:00:00 AM 0.06 32.108 0.124 7.2 2.39 14.64
1/31/2021 10:15:00 AM 0.08 32.144 0.124 7.21 2.39 14.67
1/31/2021 10:30:00 AM 0.11 32.198 0.124 7.21 2.42 14.71
1/31/2021 10:45:00 AM 0.15 32.27 0.124 7.21 2.37 14.74
1/31/2021 11:00:00 AM 0.19 32.342 0.124 7.22 2.38 14.77
1/31/2021 11:15:00 AM 0.22 32.396 0.124 7.22 2.39 14.78
1/31/2021 11:30:00 AM 0.29 32.522 0.124 7.23 2.36 14.8
1/31/2021 11:45:00 AM 0.38 32.684 0.124 7.25 2.39 14.8
1/31/2021 12:00:00 PM 0.43 32.774 0.124 7.25 2.36 14.81
1/31/2021 12:15:00 PM 0.45 32.81 0.123 7.25 2.38 14.79
1/31/2021 12:30:00 PM 0.46 32.828 0.123 7.24 2.38 14.8
1/31/2021 12:45:00 PM 0.48 32.864 0.124 7.25 2.37 14.79
1/31/2021 1:00:00 PM 0.5 32.9 0.124 7.25 2.35 14.79
1/31/2021 1:15:00 PM 0.53 32.954 0.123 7.26 2.35 14.78
1/31/2021 1:30:00 PM 0.56 33.008 0.123 7.26 2.34 14.78
1/31/2021 1:45:00 PM 0.59 33.062 0.123 7.26 2.44 14.78
1/31/2021 2:00:00 PM 0.65 33.17 0.123 7.27 2.35 14.78
1/31/2021 2:15:00 PM 0.7 33.26 0.124 7.27 2.39 14.76
1/31/2021 2:30:00 PM 0.78 33.404 0.123 7.27 2.39 14.75
1/31/2021 2:45:00 PM 0.83 33.494 0.123 7.28 2.78 14.73
1/31/2021 3:00:00 PM 0.82 33.476 0.123 7.28 2.4 14.7
1/31/2021 3:15:00 PM 0.78 33.404 0.124 7.28 2.35 14.67
1/31/2021 3:30:00 PM 0.73 33.314 0.124 7.26 2.38 14.65
1/31/2021 3:45:00 PM 0.66 33.188 0.124 7.25 2.42 14.63
1/31/2021 4:00:00 PM 0.6 33.08 0.124 7.24 2.41 14.62
1/31/2021 4:15:00 PM 0.55 32.99 0.124 7.24 2.37 14.59
1/31/2021 4:30:00 PM 0.5 32.9 0.124 7.22 2.4 14.56
1/31/2021 4:45:00 PM 0.47 32.846 0.124 7.21 2.38 14.54
1/31/2021 5:00:00 PM 0.47 32.846 0.124 7.2 2.39 14.5
1/31/2021 5:15:00 PM 0.46 32.828 0.125 7.19 2.48 14.46
1/31/2021 5:30:00 PM 0.45 32.81 0.125 7.18 2.41 14.41
1/31/2021 5:45:00 PM 0.42 32.756 0.125 7.16 2.42 14.37
1/31/2021 6:00:00 PM 0.38 32.684 0.125 7.15 2.38 14.34
1/31/2021 6:15:00 PM 0.35 32.63 0.125 7.13 2.4 14.32
1/31/2021 6:30:00 PM 0.3 32.54 0.125 7.14 2.41 14.3
1/31/2021 6:45:00 PM 0.24 32.432 0.125 7.12 2.42 14.29
1/31/2021 7:00:00 PM 0.22 32.396 0.125 7.12 2.52 14.29
1/31/2021 7:15:00 PM 0.17 32.306 0.126 7.12 2.42 14.29
1/31/2021 7:30:00 PM 0.08 32.144 0.126 7.11 2.47 14.3
1/31/2021 7:45:00 PM -0.01 31.982 0.126 7.1 2.47 14.3
1/31/2021 8:00:00 PM -0.03 31.946 0.126 7.09 2.45 14.31
1/31/2021 8:15:00 PM -0.03 31.946 0.126 7.1 2.59 14.32
1/31/2021 8:30:00 PM -0.03 31.946 0.126 7.13 2.55 14.33
1/31/2021 8:45:00 PM -0.03 31.946 0.126 7.12 2.53 14.32
1/31/2021 9:00:00 PM -0.03 31.946 0.126 7.14 2.48 14.33
1/31/2021 9:15:00 PM -0.03 31.946 0.126 7.14 2.53 14.33
1/31/2021 9:30:00 PM -0.03 31.946 0.126 7.14 2.55 14.32
1/31/2021 9:45:00 PM -0.03 31.946 0.126 7.14 2.5 14.32
1/31/2021 10:00:00 PM -0.03 31.946 0.126 7.15 2.46 14.32
1/31/2021 10:15:00 PM -0.03 31.946 0.126 7.16 2.5 14.32
1/31/2021 10:30:00 PM -0.03 31.946 0.126 7.15 2.42 14.3
1/31/2021 10:45:00 PM -0.03 31.946 0.126 7.14 2.45 14.3
1/31/2021 11:00:00 PM -0.03 31.946 0.126 7.12 2.45 14.31
1/31/2021 11:15:00 PM -0.03 31.946 0.126 7.15 2.42 14.31
1/31/2021 11:30:00 PM -0.03 31.946 0.126 7.15 2.45 14.3
1/31/2021 11:45:00 PM -0.03 31.946 0.126 7.13 2.4 14.28
2/1/2021 12:00:00 AM -0.03 31.946 0.126 7.15 2.41 14.29
2/1/2021 12:15:00 AM -0.03 31.946 0.126 7.15 2.41 14.29
2/1/2021 12:30:00 AM -0.03 31.946 0.126 7.14 2.38 14.26
2/1/2021 12:45:00 AM -0.03 31.946 0.126 7.16 2.38 14.25
2/1/2021 1:00:00 AM -0.03 31.946 0.126 7.14 2.41 14.24
2/1/2021 1:15:00 AM -0.03 31.946 0.126 7.14 2.36 14.23
2/1/2021 1:30:00 AM -0.03 31.946 0.126 7.14 2.4 14.2
2/1/2021 1:45:00 AM -0.03 31.946 0.126 7.16 2.37 14.17
2/1/2021 2:00:00 AM -0.03 31.946 0.126 7.15 2.36 14.16
2/1/2021 2:15:00 AM -0.03 31.946 0.126 7.16 2.51 14.14
2/1/2021 2:30:00 AM -0.03 31.946 0.126 7.15 2.36 14.13
2/1/2021 2:45:00 AM -0.03 31.946 0.126 7.13 2.33 14.11
2/1/2021 3:00:00 AM -0.03 31.946 0.126 7.14 2.36 14.09
2/1/2021 3:15:00 AM -0.03 31.946 0.126 7.13 2.36 14.08
2/1/2021 3:30:00 AM -0.03 31.946 0.126 7.14 2.35 14.07
2/1/2021 3:45:00 AM -0.03 31.946 0.126 7.13 2.34 14.06
2/1/2021 4:00:00 AM -0.03 31.946 0.126 7.14 2.37 14.05
2/1/2021 4:15:00 AM -0.03 31.946 0.126 7.13 2.33 14.02
2/1/2021 4:30:00 AM -0.03 31.946 0.126 7.13 2.32 14.02
2/1/2021 4:45:00 AM -0.03 31.946 0.126 7.13 2.33 13.99
2/1/2021 5:00:00 AM -0.03 31.946 0.126 7.14 2.38 14.01
2/1/2021 5:15:00 AM -0.03 31.946 0.126 7.13 2.32 13.98
2/1/2021 5:30:00 AM -0.03 31.946 0.126 7.13 2.34 13.98
2/1/2021 5:45:00 AM -0.03 31.946 0.126 7.13 2.3 13.98
2/1/2021 6:00:00 AM -0.03 31.946 0.126 7.13 2.36 13.98
2/1/2021 6:15:00 AM -0.03 31.946 0.126 7.13 2.34 13.98
2/1/2021 6:30:00 AM -0.02 31.964 0.126 7.13 2.34 13.97
2/1/2021 6:45:00 AM -0.02 31.964 0.126 7.12 2.34 13.95
2/1/2021 7:00:00 AM -0.02 31.964 0.126 7.12 2.37 13.96
2/1/2021 7:15:00 AM -0.02 31.964 0.126 7.12 2.34 13.93
2/1/2021 7:30:00 AM -0.02 31.964 0.126 7.11 2.34 13.92
2/1/2021 7:45:00 AM -0.02 31.964 0.126 7.13 2.35 13.92
2/1/2021 8:00:00 AM -0.02 31.964 0.126 7.12 2.33 13.91
2/1/2021 8:15:00 AM -0.02 31.964 0.126 7.11 2.35 13.95
2/1/2021 8:30:00 AM -0.02 31.964 0.126 7.12 2.36 13.93
2/1/2021 8:45:00 AM -0.02 31.964 0.126 7.13 2.3 13.97
2/1/2021 9:00:00 AM -0.02 31.964 0.126 7.13 2.33 14
2/1/2021 9:15:00 AM -0.02 31.964 0.126 7.13 2.35 14.06
2/1/2021 9:30:00 AM -0.02 31.964 0.126 7.16 2.66 14.14
2/1/2021 9:45:00 AM -0.02 31.964 0.125 7.17 2.34 14.21
2/1/2021 10:00:00 AM -0.02 31.964 0.125 7.16 2.34 14.26
2/1/2021 10:15:00 AM -0.02 31.964 0.125 7.2 2.36 14.24
2/1/2021 10:30:00 AM -0.02 31.964 0.125 7.21 2.35 14.36
2/1/2021 10:45:00 AM -0.03 31.946 0.124 7.23 2.39 14.48
2/1/2021 11:00:00 AM -0.03 31.946 0.124 7.26 2.35 14.65
2/1/2021 11:15:00 AM -0.03 31.946 0.124 7.24 2.35 14.73
2/1/2021 11:30:00 AM -0.03 31.946 0.124 7.26 2.38 14.78
2/1/2021 11:45:00 AM -0.03 31.946 0.124 7.28 2.65 14.8
2/1/2021 12:00:00 PM -0.03 31.946 0.124 7.28 2.67 14.84
2/1/2021 12:15:00 PM -0.03 31.946 0.123 7.31 2.56 14.91
2/1/2021 12:30:00 PM -0.02 31.964 0.123 7.31 2.74 14.93
2/1/2021 12:45:00 PM -0.02 31.964 0.123 7.31 2.85 14.93
2/1/2021 1:00:00 PM -0.02 31.964 0.123 7.32 2.55 14.91
2/1/2021 1:15:00 PM -0.02 31.964 0.123 7.31 2.57 14.89
2/1/2021 1:30:00 PM -0.02 31.964 0.123 7.29 3.72 14.77
2/1/2021 1:45:00 PM -0.03 31.946 0.123 7.29 2.43 14.72
2/1/2021 2:00:00 PM -0.03 31.946 0.123 7.28 2.37 14.7
2/1/2021 2:15:00 PM -0.02 31.964 0.123 7.29 2.39 14.7
2/1/2021 2:30:00 PM -0.02 31.964 0.123 7.3 2.38 14.7
2/1/2021 2:45:00 PM -0.02 31.964 0.123 7.29 2.4 14.72
2/1/2021 3:00:00 PM -0.02 31.964 0.123 7.28 2.42 14.71
2/1/2021 3:15:00 PM -0.02 31.964 0.123 7.28 2.4 14.68
2/1/2021 3:30:00 PM -0.01 31.982 0.123 7.28 2.46 14.65
2/1/2021 3:45:00 PM 0.02 32.036 0.123 7.28 2.53 14.6
2/1/2021 4:00:00 PM 0.04 32.072 0.123 7.28 2.59 14.58
2/1/2021 4:15:00 PM 0.08 32.144 0.123 7.29 2.52 14.55
2/1/2021 4:30:00 PM 0.16 32.288 0.123 7.28 2.47 14.51
2/1/2021 4:45:00 PM 0.27 32.486 0.123 7.28 2.55 14.51
2/1/2021 5:00:00 PM 0.31 32.558 0.123 7.28 2.48 14.46
2/1/2021 5:15:00 PM 0.39 32.702 0.124 7.25 2.51 14.4
2/1/2021 5:30:00 PM 0.39 32.702 0.124 7.25 2.48 14.33
2/1/2021 5:45:00 PM 0.38 32.684 0.124 7.21 2.43 14.28
2/1/2021 6:00:00 PM 0.33 32.594 0.124 7.19 2.55 14.24
2/1/2021 6:15:00 PM 0.28 32.504 0.124 7.17 2.47 14.22
2/1/2021 6:30:00 PM 0.2 32.36 0.124 7.15 2.48 14.21
2/1/2021 6:45:00 PM 0.1 32.18 0.124 7.14 2.49 14.22
2/1/2021 7:00:00 PM 0.07 32.126 0.124 7.13 2.6 14.22
2/1/2021 7:15:00 PM 0.04 32.072 0.124 7.12 2.49 14.24
2/1/2021 7:30:00 PM 0.03 32.054 0.125 7.1 2.5 14.24
2/1/2021 7:45:00 PM 0.02 32.036 0.125 7.11 2.43 14.25
2/1/2021 8:00:00 PM 0 32 0.125 7.11 2.49 14.25
2/1/2021 8:15:00 PM -0.02 31.964 0.125 7.1 2.49 14.25
2/1/2021 8:30:00 PM -0.02 31.964 0.125 7.08 2.49 14.25
2/1/2021 8:45:00 PM -0.02 31.964 0.126 7.1 2.5 14.24
2/1/2021 9:00:00 PM -0.03 31.946 0.129 7.09 2.66 14.25
2/1/2021 9:15:00 PM -0.03 31.946 0.128 7.13 2.54 14.26
2/1/2021 9:30:00 PM -0.03 31.946 0.127 7.14 2.48 14.26
2/1/2021 9:45:00 PM -0.03 31.946 0.127 7.14 2.47 14.24
2/1/2021 10:00:00 PM -0.02 31.964 0.127 7.15 2.49 14.24
2/1/2021 10:15:00 PM -0.02 31.964 0.127 7.13 2.57 14.24
2/1/2021 10:30:00 PM -0.01 31.982 0.127 7.14 2.51 14.23
2/1/2021 10:45:00 PM -0.01 31.982 0.127 7.14 2.52 14.23
2/1/2021 11:00:00 PM 0 32 0.127 7.13 2.51 14.22
2/1/2021 11:15:00 PM 0 32 0.127 7.13 2.47 14.23
2/1/2021 11:30:00 PM 0 32 0.127 7.12 2.48 14.22
2/1/2021 11:45:00 PM -0.01 31.982 0.127 7.12 2.45 14.23
2/2/2021 12:00:00 AM 0 32 0.127 7.11 2.45 14.21
2/2/2021 12:15:00 AM 0.01 32.018 0.127 7.11 2.48 14.22
2/2/2021 12:30:00 AM 0.02 32.036 0.127 7.08 2.48 14.21
2/2/2021 12:45:00 AM 0.02 32.036 0.127 7.1 2.5 14.19
2/2/2021 1:00:00 AM 0.03 32.054 0.127 7.1 2.48 14.19
2/2/2021 1:15:00 AM 0.04 32.072 0.127 7.1 2.48 14.19
2/2/2021 1:30:00 AM 0.03 32.054 0.127 7.09 2.54 14.19
2/2/2021 1:45:00 AM 0.04 32.072 0.127 7.1 2.47 14.18
2/2/2021 2:00:00 AM 0.05 32.09 0.127 7.09 2.49 14.19
2/2/2021 2:15:00 AM 0.05 32.09 0.127 7.11 2.46 14.17
2/2/2021 2:30:00 AM 0.05 32.09 0.127 7.09 2.42 14.18
2/2/2021 2:45:00 AM 0.05 32.09 0.127 7.1 2.43 14.18
2/2/2021 3:00:00 AM 0.04 32.072 0.127 7.09 2.5 14.17
2/2/2021 3:15:00 AM 0.04 32.072 0.127 7.1 2.48 14.18
2/2/2021 3:30:00 AM 0.04 32.072 0.127 7.09 2.56 14.17
2/2/2021 3:45:00 AM 0.04 32.072 0.127 7.08 2.46 14.18
2/2/2021 4:00:00 AM 0.04 32.072 0.127 7.1 2.48 14.18
2/2/2021 4:15:00 AM 0.04 32.072 0.127 7.1 2.44 14.18
2/2/2021 4:30:00 AM 0.03 32.054 0.127 7.09 2.42 14.17
2/2/2021 4:45:00 AM 0.04 32.072 0.127 7.08 2.45 14.17
2/2/2021 5:00:00 AM 0.04 32.072 0.127 7.1 2.45 14.16
2/2/2021 5:15:00 AM 0.05 32.09 0.127 7.1 2.45 14.17
2/2/2021 5:30:00 AM 0.05 32.09 0.127 7.09 2.41 14.16
2/2/2021 5:45:00 AM 0.05 32.09 0.127 7.1 2.43 14.16
2/2/2021 6:00:00 AM 0.06 32.108 0.127 7.1 2.42 14.16
2/2/2021 6:15:00 AM 0.06 32.108 0.127 7.1 2.43 14.16
2/2/2021 6:30:00 AM 0.06 32.108 0.127 7.1 2.45 14.16
2/2/2021 6:45:00 AM 0.07 32.126 0.127 7.1 2.4 14.15
2/2/2021 7:00:00 AM 0.07 32.126 0.127 7.09 2.4 14.15
2/2/2021 7:15:00 AM 0.07 32.126 0.126 7.08 2.41 14.16
2/2/2021 7:30:00 AM 0.08 32.144 0.126 7.1 2.45 14.16
2/2/2021 7:45:00 AM 0.08 32.144 0.126 7.11 2.42 14.18
2/2/2021 8:00:00 AM 0.09 32.162 0.126 7.12 2.42 14.22
2/2/2021 8:15:00 AM 0.11 32.198 0.126 7.13 2.43 14.27
2/2/2021 8:30:00 AM 0.12 32.216 0.126 7.14 2.41 14.32
2/2/2021 8:45:00 AM 0.14 32.252 0.126 7.15 2.42 14.35
2/2/2021 9:00:00 AM 0.16 32.288 0.126 7.16 2.44 14.39
2/2/2021 9:15:00 AM 0.18 32.324 0.125 7.17 2.4 14.43
2/2/2021 9:30:00 AM 0.22 32.396 0.125 7.18 2.4 14.46
2/2/2021 9:45:00 AM 0.27 32.486 0.125 7.2 2.45 14.49
2/2/2021 10:00:00 AM 0.31 32.558 0.125 7.19 2.46 14.51
2/2/2021 10:15:00 AM 0.33 32.594 0.125 7.22 2.4 14.52
2/2/2021 10:30:00 AM 0.35 32.63 0.125 7.22 2.47 14.52
2/2/2021 10:45:00 AM 0.38 32.684 0.125 7.22 2.41 14.54
2/2/2021 11:00:00 AM 0.41 32.738 0.125 7.23 2.38 14.54
2/2/2021 11:15:00 AM 0.43 32.774 0.125 7.24 2.46 14.55
2/2/2021 11:30:00 AM 0.45 32.81 0.125 7.23 2.39 14.55
2/2/2021 11:45:00 AM 0.48 32.864 0.125 7.24 2.39 14.56
2/2/2021 12:00:00 PM 0.5 32.9 0.124 7.25 2.41 14.56
2/2/2021 12:15:00 PM 0.53 32.954 0.124 7.25 2.4 14.56
2/2/2021 12:30:00 PM 0.56 33.008 0.124 7.27 2.48 14.56
2/2/2021 12:45:00 PM 0.6 33.08 0.124 7.25 2.46 14.56
2/2/2021 1:00:00 PM 0.63 33.134 0.129 7.27 2.69 14.56
2/2/2021 1:15:00 PM 0.66 33.188 0.124 7.27 2.39 14.55
2/2/2021 1:30:00 PM 0.68 33.224 0.124 7.27 2.44 14.54
2/2/2021 1:45:00 PM 0.68 33.224 0.124 7.27 2.44 14.53
2/2/2021 2:00:00 PM 0.68 33.224 0.124 7.27 2.48 14.53
2/2/2021 2:15:00 PM 0.7 33.26 0.124 7.26 2.48 14.53
2/2/2021 2:30:00 PM 0.7 33.26 0.124 7.26 2.44 14.52
2/2/2021 2:45:00 PM 0.72 33.296 0.124 7.27 2.5 14.52
2/2/2021 3:00:00 PM 0.72 33.296 0.124 7.27 2.44 14.51
2/2/2021 3:15:00 PM 0.72 33.296 0.124 7.27 2.51 14.52
2/2/2021 3:30:00 PM 0.71 33.278 0.124 7.25 2.43 14.5
2/2/2021 3:45:00 PM 0.68 33.224 0.124 7.25 2.44 14.49
2/2/2021 4:00:00 PM 0.64 33.152 0.124 7.25 2.5 14.46
2/2/2021 4:15:00 PM 0.62 33.116 0.124 7.24 2.44 14.45
2/2/2021 4:30:00 PM 0.6 33.08 0.124 7.23 2.41 14.42
2/2/2021 4:45:00 PM 0.57 33.026 0.124 7.2 2.44 14.39
2/2/2021 5:00:00 PM 0.54 32.972 0.124 7.23 2.45 14.36
2/2/2021 5:15:00 PM 0.5 32.9 0.124 7.2 2.48 14.32
2/2/2021 5:30:00 PM 0.46 32.828 0.124 7.19 2.52 14.29
2/2/2021 5:45:00 PM 0.43 32.774 0.125 7.18 2.43 14.24
2/2/2021 6:00:00 PM 0.4 32.72 0.125 7.16 2.48 14.21
2/2/2021 6:15:00 PM 0.35 32.63 0.125 7.15 2.49 14.19
2/2/2021 6:30:00 PM 0.33 32.594 0.125 7.15 2.51 14.17
2/2/2021 6:45:00 PM 0.31 32.558 0.125 7.14 2.53 14.16
2/2/2021 7:00:00 PM 0.28 32.504 0.125 7.13 2.48 14.14
2/2/2021 7:15:00 PM 0.26 32.468 0.125 7.13 2.46 14.14
2/2/2021 7:30:00 PM 0.24 32.432 0.125 7.13 2.47 14.13
2/2/2021 7:45:00 PM 0.22 32.396 0.125 7.12 2.51 14.12
2/2/2021 8:00:00 PM 0.21 32.378 0.125 7.12 2.49 14.12
2/2/2021 8:15:00 PM 0.18 32.324 0.125 7.11 2.48 14.11
2/2/2021 8:30:00 PM 0.15 32.27 0.125 7.12 2.48 14.11
2/2/2021 8:45:00 PM 0.14 32.252 0.125 7.11 2.54 14.11
2/2/2021 9:00:00 PM 0.12 32.216 0.125 7.11 2.5 14.1
2/2/2021 9:15:00 PM 0.11 32.198 0.125 7.11 2.51 14.1
2/2/2021 9:30:00 PM 0.08 32.144 0.125 7.1 2.54 14.11
2/2/2021 9:45:00 PM 0.07 32.126 0.125 7.11 2.52 14.1
2/2/2021 10:00:00 PM 0.06 32.108 0.125 7.11 2.55 14.09
2/2/2021 10:15:00 PM 0.06 32.108 0.125 7.12 2.55 14.1
2/2/2021 10:30:00 PM 0.05 32.09 0.125 7.1 2.51 14.09
2/2/2021 10:45:00 PM 0.05 32.09 0.125 7.11 2.5 14.1
2/2/2021 11:00:00 PM 0.05 32.09 0.125 7.1 2.51 14.1
2/2/2021 11:15:00 PM 0.06 32.108 0.125 7.11 2.5 14.09
2/2/2021 11:30:00 PM 0.07 32.126 0.125 7.11 2.58 14.1
2/2/2021 11:45:00 PM 0.08 32.144 0.125 7.11 2.51 14.08
2/3/2021 12:00:00 AM 0.06 32.108 0.125 7.11 2.48 14.09
2/3/2021 12:15:00 AM 0.04 32.072 0.125 7.11 2.56 14.09
2/3/2021 12:30:00 AM 0.03 32.054 0.125 7.1 2.51 14.09
2/3/2021 12:45:00 AM 0.03 32.054 0.125 7.1 2.52 14.09
2/3/2021 1:00:00 AM 0.04 32.072 0.125 7.1 2.52 14.08
2/3/2021 1:15:00 AM 0.05 32.09 0.125 7.11 2.53 14.08
2/3/2021 1:30:00 AM 0.06 32.108 0.125 7.11 2.53 14.09
2/3/2021 1:45:00 AM 0.08 32.144 0.125 7.11 2.49 14.07
2/3/2021 2:00:00 AM 0.09 32.162 0.125 7.11 2.49 14.07
2/3/2021 2:15:00 AM 0.1 32.18 0.125 7.11 2.5 14.07
2/3/2021 2:30:00 AM 0.11 32.198 0.125 7.1 2.52 14.07
2/3/2021 2:45:00 AM 0.12 32.216 0.125 7.1 2.51 14.07
2/3/2021 3:00:00 AM 0.13 32.234 0.125 7.11 2.55 14.07
2/3/2021 3:15:00 AM 0.13 32.234 0.125 7.1 2.49 14.06
2/3/2021 3:30:00 AM 0.14 32.252 0.125 7.1 2.48 14.06
2/3/2021 3:45:00 AM 0.14 32.252 0.125 7.1 2.53 14.07
2/3/2021 4:00:00 AM 0.15 32.27 0.125 7.1 2.54 14.07
2/3/2021 4:15:00 AM 0.15 32.27 0.125 7.09 2.52 14.06
2/3/2021 4:30:00 AM 0.15 32.27 0.125 7.1 2.51 14.06
2/3/2021 4:45:00 AM 0.15 32.27 0.125 7.1 2.49 14.06
2/3/2021 5:00:00 AM 0.16 32.288 0.125 7.09 2.46 14.05
2/3/2021 5:15:00 AM 0.16 32.288 0.125 7.1 2.52 14.05
2/3/2021 5:30:00 AM 0.17 32.306 0.125 7.09 2.48 14.05
2/3/2021 5:45:00 AM 0.16 32.288 0.125 7.11 2.5 14.06
2/3/2021 6:00:00 AM 0.16 32.288 0.125 7.1 2.53 14.06
2/3/2021 6:15:00 AM 0.15 32.27 0.125 7.1 2.49 14.06
2/3/2021 6:30:00 AM 0.14 32.252 0.125 7.1 2.5 14.06
2/3/2021 6:45:00 AM 0.13 32.234 0.125 7.1 2.47 14.07
2/3/2021 7:00:00 AM 0.13 32.234 0.125 7.09 2.5 14.07
2/3/2021 7:15:00 AM 0.12 32.216 0.125 7.1 2.47 14.08
2/3/2021 7:30:00 AM 0.12 32.216 0.125 7.09 2.49 14.09
2/3/2021 7:45:00 AM 0.11 32.198 0.125 7.1 2.56 14.14
2/3/2021 8:00:00 AM 0.12 32.216 0.125 7.1 2.49 14.19
2/3/2021 8:15:00 AM 0.14 32.252 0.125 7.12 2.49 14.24
2/3/2021 8:30:00 AM 0.15 32.27 0.125 7.13 2.46 14.28
2/3/2021 8:45:00 AM 0.15 32.27 0.125 7.15 2.51 14.3
2/3/2021 9:00:00 AM 0.15 32.27 0.125 7.15 2.51 14.34
2/3/2021 9:15:00 AM 0.17 32.306 0.125 7.16 2.48 14.38
2/3/2021 9:30:00 AM 0.18 32.324 0.125 7.17 2.49 14.42
2/3/2021 9:45:00 AM 0.21 32.378 0.125 7.17 2.47 14.46
2/3/2021 10:00:00 AM 0.25 32.45 0.124 7.19 2.46 14.49
2/3/2021 10:15:00 AM 0.3 32.54 0.124 7.2 2.51 14.53
2/3/2021 10:30:00 AM 0.36 32.648 0.124 7.22 2.45 14.55
2/3/2021 10:45:00 AM 0.44 32.792 0.124 7.23 2.5 14.57
2/3/2021 11:00:00 AM 0.54 32.972 0.124 7.24 2.47 14.57
2/3/2021 11:15:00 AM 0.65 33.17 0.124 7.26 2.46 14.56
2/3/2021 11:30:00 AM 0.75 33.35 0.124 7.27 2.49 14.55
2/3/2021 11:45:00 AM 0.87 33.566 0.124 7.27 2.42 14.53
2/3/2021 12:00:00 PM 0.95 33.71 0.124 7.27 2.39 14.52
2/3/2021 12:15:00 PM 1.04 33.872 0.124 7.27 2.43 14.5
2/3/2021 12:30:00 PM 1.1 33.98 0.124 7.28 2.46 14.49
2/3/2021 12:45:00 PM 1.13 34.034 0.124 7.28 2.43 14.46
2/3/2021 1:00:00 PM 1.14 34.052 0.124 7.26 2.4 14.45
2/3/2021 1:15:00 PM 1.2 34.16 0.124 7.27 2.45 14.44
2/3/2021 1:30:00 PM 1.27 34.286 0.123 7.27 2.47 14.42
2/3/2021 1:45:00 PM 1.32 34.376 0.123 7.27 2.41 14.41
2/3/2021 2:00:00 PM 1.39 34.502 0.123 7.27 2.42 14.38
2/3/2021 2:15:00 PM 1.44 34.592 0.123 7.28 2.46 14.37
2/3/2021 2:30:00 PM 1.45 34.61 0.123 7.26 2.47 14.35
2/3/2021 2:45:00 PM 1.49 34.682 0.123 7.29 2.43 14.33
2/3/2021 3:00:00 PM 1.55 34.79 0.123 7.29 2.42 14.32
2/3/2021 3:15:00 PM 1.6 34.88 0.123 7.29 2.6 14.31
2/3/2021 3:30:00 PM 1.52 34.736 0.123 7.27 2.45 14.29
2/3/2021 3:45:00 PM 1.52 34.736 0.123 7.27 2.37 14.3
2/3/2021 4:00:00 PM 1.49 34.682 0.123 7.27 2.43 14.3
2/3/2021 4:15:00 PM 1.44 34.592 0.123 7.26 2.41 14.29
2/3/2021 4:30:00 PM 1.4 34.52 0.123 7.25 2.37 14.28
2/3/2021 4:45:00 PM 1.37 34.466 0.124 7.24 2.46 14.28
2/3/2021 5:00:00 PM 1.34 34.412 0.124 7.25 2.41 14.27
2/3/2021 5:15:00 PM 1.29 34.322 0.124 7.23 2.39 14.23
2/3/2021 5:30:00 PM 1.22 34.196 0.124 7.22 2.41 14.18
2/3/2021 5:45:00 PM 1.16 34.088 0.124 7.2 2.46 14.11
2/3/2021 6:00:00 PM 1.09 33.962 0.124 7.18 2.39 14.07
2/3/2021 6:15:00 PM 1.02 33.836 0.124 7.15 2.47 14.04
2/3/2021 6:30:00 PM 0.95 33.71 0.124 7.14 2.43 14.03
2/3/2021 6:45:00 PM 0.87 33.566 0.124 7.12 2.47 14.02
2/3/2021 7:00:00 PM 0.8 33.44 0.124 7.13 2.45 14.03
2/3/2021 7:15:00 PM 0.73 33.314 0.124 7.12 2.44 14.04
2/3/2021 7:30:00 PM 0.67 33.206 0.124 7.11 2.43 14.04
2/3/2021 7:45:00 PM 0.6 33.08 0.124 7.1 2.44 14.05
2/3/2021 8:00:00 PM 0.54 32.972 0.125 7.1 2.48 14.06
2/3/2021 8:15:00 PM 0.47 32.846 0.125 7.09 2.45 14.07
2/3/2021 8:30:00 PM 0.41 32.738 0.125 7.08 2.45 14.08
2/3/2021 8:45:00 PM 0.34 32.612 0.125 7.08 2.46 14.09
2/3/2021 9:00:00 PM 0.28 32.504 0.125 7.08 2.48 14.11
2/3/2021 9:15:00 PM 0.22 32.396 0.125 7.08 2.49 14.12
2/3/2021 9:30:00 PM 0.16 32.288 0.125 7.09 2.45 14.13
2/3/2021 9:45:00 PM 0.1 32.18 0.125 7.07 2.47 14.16
2/3/2021 10:00:00 PM 0.05 32.09 0.125 7.08 2.46 14.17
2/3/2021 10:15:00 PM 0 32 0.125 7.08 2.49 14.19
2/3/2021 10:30:00 PM -0.05 31.91 0.125 7.08 2.47 14.2
2/3/2021 10:45:00 PM -0.07 31.874 0.125 7.09 2.5 14.22
2/3/2021 11:00:00 PM -0.04 31.928 0.125 7.1 2.49 14.23
2/3/2021 11:15:00 PM -0.03 31.946 0.125 7.12 2.49 14.25
2/3/2021 11:30:00 PM -0.03 31.946 0.125 7.13 2.45 14.25
2/3/2021 11:45:00 PM -0.03 31.946 0.125 7.15 2.47 14.26
2/4/2021 12:00:00 AM -0.03 31.946 0.126 7.15 2.47 14.25
2/4/2021 12:15:00 AM -0.03 31.946 0.126 7.15 2.48 14.27
2/4/2021 12:30:00 AM -0.03 31.946 0.126 7.15 2.39 14.27
2/4/2021 12:45:00 AM -0.03 31.946 0.126 7.16 2.44 14.28
2/4/2021 1:00:00 AM -0.03 31.946 0.126 7.17 2.44 14.28
2/4/2021 1:15:00 AM -0.03 31.946 0.126 7.15 2.42 14.28
2/4/2021 1:30:00 AM -0.03 31.946 0.126 7.18 2.41 14.28
2/4/2021 1:45:00 AM -0.03 31.946 0.126 7.17 2.42 14.27
2/4/2021 2:00:00 AM -0.03 31.946 0.126 7.17 2.42 14.26
2/4/2021 2:15:00 AM -0.03 31.946 0.126 7.16 2.4 14.26
2/4/2021 2:30:00 AM -0.03 31.946 0.126 7.16 2.4 14.27
2/4/2021 2:45:00 AM -0.03 31.946 0.126 7.16 2.42 14.26
2/4/2021 3:00:00 AM -0.03 31.946 0.126 7.16 2.44 14.26
2/4/2021 3:15:00 AM -0.03 31.946 0.126 7.18 2.4 14.25
2/4/2021 3:30:00 AM -0.03 31.946 0.126 7.16 2.41 14.25
2/4/2021 3:45:00 AM -0.03 31.946 0.126 7.17 2.41 14.27
2/4/2021 4:00:00 AM -0.03 31.946 0.126 7.15 2.39 14.25
2/4/2021 4:15:00 AM -0.03 31.946 0.126 7.18 2.46 14.23
2/4/2021 4:30:00 AM -0.03 31.946 0.126 7.17 2.41 14.22
2/4/2021 4:45:00 AM -0.03 31.946 0.126 7.17 2.39 14.22
2/4/2021 5:00:00 AM -0.03 31.946 0.126 7.16 2.42 14.23
2/4/2021 5:15:00 AM -0.03 31.946 0.126 7.17 2.41 14.22
2/4/2021 5:30:00 AM -0.03 31.946 0.126 7.16 2.39 14.2
2/4/2021 5:45:00 AM -0.03 31.946 0.126 7.16 2.38 14.21
2/4/2021 6:00:00 AM -0.03 31.946 0.126 7.15 2.46 14.22
2/4/2021 6:15:00 AM -0.03 31.946 0.126 7.16 2.43 14.21
2/4/2021 6:30:00 AM -0.03 31.946 0.126 7.16 2.44 14.2
2/4/2021 6:45:00 AM -0.03 31.946 0.127 7.15 2.4 14.22
2/4/2021 7:00:00 AM -0.03 31.946 0.127 7.14 2.39 14.23
2/4/2021 7:15:00 AM -0.03 31.946 0.126 7.16 2.45 14.24
2/4/2021 7:30:00 AM -0.03 31.946 0.126 7.15 2.43 14.28
2/4/2021 7:45:00 AM -0.03 31.946 0.126 7.15 2.44 14.32
2/4/2021 8:00:00 AM -0.03 31.946 0.126 7.17 2.41 14.36
2/4/2021 8:15:00 AM -0.03 31.946 0.126 7.17 2.4 14.42
2/4/2021 8:30:00 AM -0.03 31.946 0.126 7.18 2.43 14.47
2/4/2021 8:45:00 AM -0.03 31.946 0.126 7.18 2.42 14.48
2/4/2021 9:00:00 AM -0.03 31.946 0.126 7.19 2.46 14.52
2/4/2021 9:15:00 AM -0.03 31.946 0.126 7.2 2.74 14.57
2/4/2021 9:30:00 AM -0.03 31.946 0.126 7.21 2.47 14.59
2/4/2021 9:45:00 AM -0.03 31.946 0.125 7.22 2.44 14.61
2/4/2021 10:00:00 AM -0.03 31.946 0.125 7.21 2.41 14.64
2/4/2021 10:15:00 AM -0.03 31.946 0.125 7.23 2.38 14.64
2/4/2021 10:30:00 AM -0.03 31.946 0.125 7.21 2.45 14.59
2/4/2021 10:45:00 AM -0.03 31.946 0.124 7.24 2.44 14.61
2/4/2021 11:00:00 AM -0.03 31.946 0.124 7.23 2.39 14.61
2/4/2021 11:15:00 AM -0.03 31.946 0.124 7.24 2.39 14.61
2/4/2021 11:30:00 AM -0.03 31.946 0.124 7.24 2.43 14.61
2/4/2021 11:45:00 AM -0.03 31.946 0.123 7.24 2.48 14.62
2/4/2021 12:00:00 PM -0.03 31.946 0.123 7.24 2.44 14.62
2/4/2021 12:15:00 PM -0.03 31.946 0.122 7.25 2.44 14.59
2/4/2021 12:30:00 PM -0.02 31.964 0.122 7.23 2.5 14.54
2/4/2021 12:45:00 PM 0.04 32.072 0.121 7.25 2.56 14.56
2/4/2021 1:00:00 PM 0.23 32.414 0.121 7.25 2.57 14.5
2/4/2021 1:15:00 PM 0.57 33.026 0.121 7.26 2.44 14.5
2/4/2021 1:30:00 PM 0.77 33.386 0.12 7.26 2.46 14.48
2/4/2021 1:45:00 PM 0.92 33.656 0.12 7.27 2.5 14.45
2/4/2021 2:00:00 PM 1.04 33.872 0.121 7.25 2.47 14.42
2/4/2021 2:15:00 PM 1.13 34.034 0.121 7.26 2.41 14.39
2/4/2021 2:30:00 PM 1.15 34.07 0.121 7.25 2.46 14.4
2/4/2021 2:45:00 PM 1.16 34.088 0.121 7.24 2.45 14.38
2/4/2021 3:00:00 PM 1.14 34.052 0.121 7.25 2.44 14.37
2/4/2021 3:15:00 PM 1.05 33.89 0.121 7.24 2.41 14.36
2/4/2021 3:30:00 PM 0.98 33.764 0.121 7.23 2.42 14.34
2/4/2021 3:45:00 PM 0.95 33.71 0.121 7.2 2.47 14.33
2/4/2021 4:00:00 PM 0.96 33.728 0.121 7.21 2.43 14.31
2/4/2021 4:15:00 PM 0.96 33.728 0.121 7.22 2.42 14.28
2/4/2021 4:30:00 PM 0.95 33.71 0.121 7.21 2.44 14.23
2/4/2021 4:45:00 PM 0.96 33.728 0.121 7.2 2.43 14.21
2/4/2021 5:00:00 PM 0.96 33.728 0.121 7.2 2.47 14.18
2/4/2021 5:15:00 PM 0.95 33.71 0.122 7.19 2.44 14.14
2/4/2021 5:30:00 PM 0.92 33.656 0.122 7.18 2.45 14.09
2/4/2021 5:45:00 PM 0.88 33.584 0.122 7.17 2.49 14.06
2/4/2021 6:00:00 PM 0.83 33.494 0.122 7.15 2.46 14.03
2/4/2021 6:15:00 PM 0.79 33.422 0.122 7.14 2.46 14.01
2/4/2021 6:30:00 PM 0.74 33.332 0.122 7.13 2.49 14.01
2/4/2021 6:45:00 PM 0.69 33.242 0.122 7.13 2.46 14.01
2/4/2021 7:00:00 PM 0.65 33.17 0.122 7.12 2.45 14.01
2/4/2021 7:15:00 PM 0.61 33.098 0.123 7.11 2.49 14.03
2/4/2021 7:30:00 PM 0.57 33.026 0.123 7.1 2.48 14.03
2/4/2021 7:45:00 PM 0.52 32.936 0.123 7.11 2.46 14.05
2/4/2021 8:00:00 PM 0.48 32.864 0.123 7.09 2.41 14.06
2/4/2021 8:15:00 PM 0.43 32.774 0.123 7.09 2.43 14.07
2/4/2021 8:30:00 PM 0.39 32.702 0.123 7.09 2.51 14.08
2/4/2021 8:45:00 PM 0.34 32.612 0.123 7.09 2.49 14.09
2/4/2021 9:00:00 PM 0.3 32.54 0.123 7.08 2.44 14.1
2/4/2021 9:15:00 PM 0.27 32.486 0.123 7.08 2.44 14.11
2/4/2021 9:30:00 PM 0.25 32.45 0.124 7.09 2.47 14.12
2/4/2021 9:45:00 PM 0.22 32.396 0.124 7.09 2.5 14.12
2/4/2021 10:00:00 PM 0.21 32.378 0.124 7.09 2.54 14.12
2/4/2021 10:15:00 PM 0.2 32.36 0.124 7.08 2.48 14.13
2/4/2021 10:30:00 PM 0.19 32.342 0.124 7.09 2.5 14.13
2/4/2021 10:45:00 PM 0.19 32.342 0.124 7.09 2.48 14.13
2/4/2021 11:00:00 PM 0.19 32.342 0.124 7.09 2.5 14.13
2/4/2021 11:15:00 PM 0.19 32.342 0.124 7.09 2.53 14.13
2/4/2021 11:30:00 PM 0.2 32.36 0.124 7.09 2.53 14.13
2/4/2021 11:45:00 PM 0.21 32.378 0.124 7.09 2.49 14.12
2/5/2021 12:00:00 AM 0.22 32.396 0.124 7.09 2.48 14.11
2/5/2021 12:15:00 AM 0.22 32.396 0.124 7.1 2.44 14.11
2/5/2021 12:30:00 AM 0.24 32.432 0.124 7.08 2.44 14.11
2/5/2021 12:45:00 AM 0.25 32.45 0.124 7.1 2.48 14.1
2/5/2021 1:00:00 AM 0.26 32.468 0.124 7.09 2.52 14.1
2/5/2021 1:15:00 AM 0.27 32.486 0.124 7.1 2.48 14.09
2/5/2021 1:30:00 AM 0.28 32.504 0.124 7.1 2.49 14.08
2/5/2021 1:45:00 AM 0.3 32.54 0.124 7.1 2.49 14.07
2/5/2021 2:00:00 AM 0.31 32.558 0.124 7.1 2.53 14.06
2/5/2021 2:15:00 AM 0.33 32.594 0.124 7.1 2.43 14.06
2/5/2021 2:30:00 AM 0.35 32.63 0.124 7.11 2.47 14.04
2/5/2021 2:45:00 AM 0.35 32.63 0.124 7.1 2.47 14.04
2/5/2021 3:00:00 AM 0.36 32.648 0.124 7.11 2.45 14.03
2/5/2021 3:15:00 AM 0.37 32.666 0.124 7.11 2.45 14.02
2/5/2021 3:30:00 AM 0.34 32.612 0.124 7.1 2.47 14.01
2/5/2021 3:45:00 AM 0.34 32.612 0.124 7.09 2.48 14
2/5/2021 4:00:00 AM 0.36 32.648 0.124 7.11 2.45 14
2/5/2021 4:15:00 AM 0.36 32.648 0.123 7.1 2.5 13.99
2/5/2021 4:30:00 AM 0.32 32.576 0.123 7.09 2.49 13.98
2/5/2021 4:45:00 AM 0.31 32.558 0.123 7.08 2.46 13.98
2/5/2021 5:00:00 AM 0.31 32.558 0.123 7.09 2.48 13.97
2/5/2021 5:15:00 AM 0.31 32.558 0.123 7.1 2.43 13.97
2/5/2021 5:30:00 AM 0.33 32.594 0.123 7.09 2.46 13.97
2/5/2021 5:45:00 AM 0.35 32.63 0.123 7.11 2.45 13.96
2/5/2021 6:00:00 AM 0.37 32.666 0.123 7.11 2.44 13.96
2/5/2021 6:15:00 AM 0.39 32.702 0.123 7.11 2.46 13.96
2/5/2021 6:30:00 AM 0.41 32.738 0.123 7.09 2.43 13.95
2/5/2021 6:45:00 AM 0.42 32.756 0.123 7.11 2.43 13.94
2/5/2021 7:00:00 AM 0.43 32.774 0.123 7.11 2.47 13.94
2/5/2021 7:15:00 AM 0.42 32.756 0.123 7.1 2.49 13.95
2/5/2021 7:30:00 AM 0.41 32.738 0.123 7.1 2.44 13.97
2/5/2021 7:45:00 AM 0.43 32.774 0.123 7.12 2.46 14
2/5/2021 8:00:00 AM 0.46 32.828 0.123 7.12 2.47 14.03
2/5/2021 8:15:00 AM 0.49 32.882 0.123 7.13 2.46 14.09
2/5/2021 8:30:00 AM 0.52 32.936 0.123 7.16 2.45 14.14
2/5/2021 8:45:00 AM 0.56 33.008 0.123 7.16 2.44 14.19
2/5/2021 9:00:00 AM 0.59 33.062 0.123 7.18 2.46 14.21
2/5/2021 9:15:00 AM 0.66 33.188 0.123 7.2 2.44 14.24
2/5/2021 9:30:00 AM 0.74 33.332 0.123 7.21 2.52 14.26
2/5/2021 9:45:00 AM 0.82 33.476 0.123 7.22 2.5 14.27
2/5/2021 10:00:00 AM 0.89 33.602 0.123 7.22 2.46 14.27
2/5/2021 10:15:00 AM 1.02 33.836 0.123 7.24 2.46 14.27
2/5/2021 10:30:00 AM 1.21 34.178</